PWSweather.com
Personal Weather Stations
Station Observations
BOOMEPH
Weather On The Hill Or Not, Ephrata, PA 17522

Weather On The Hill Or NotEphrata, PA 17522

Lat: 40.17243, Lon: -76.180815

Elevation: 597

Station Type: Ambient WS 1080

High Low Average
Temperature 79.2°F26.2°F 59.7°F15.4°F 67.5°F19.7°F
Dew Point 68.9°F20.5°F 59.7°F15.4°F 63.9°F17.7°F
Winds 3.8 mph SSW6.1 mph SSW Calm Calm 0.3 mph 0.5 mph
Wind Gusts 7.6 mph12.2 mph -- 2.0 mph3.2 mph
Humidity 100% 60% 90%
Pressure 30.40 in1029.50 in 30.27 in1025.10 in -
Precipitation 0.00 in0.00 in - -
Hour Temp Dew Point Humidity Winds Wind Gusts Pressure Precip Precip Rate Daily Precip Total
12:00 AM 65.1°F18.4°C 63.1°F17.3°C 93% Calm Calm -- 30.40 in1029.5 mb 0.00 in0.0 mm 0.00 in/hr0.0 mm/hr 0.00 in0.0 mm
12:01 AM 65.1°F18.4°C 63.1°F17.3°C 93% Calm Calm -- 30.40 in1029.5 mb 0.00 in0.0 mm 0.00 in/hr0.0 mm/hr 0.00 in0.0 mm
12:02 AM 65.1°F18.4°C 63.1°F17.3°C 93% Calm Calm -- 30.40 in1029.5 mb 0.00 in0.0 mm 0.00 in/hr0.0 mm/hr 0.00 in0.0 mm
12:03 AM 65.1°F18.4°C 63.1°F17.3°C 93% Calm Calm -- 30.40 in1029.5 mb 0.00 in0.0 mm 0.00 in/hr0.0 mm/hr 0.00 in0.0 mm
12:04 AM 65.1°F18.4°C 63.1°F17.3°C 93% Calm Calm -- 30.40 in1029.5 mb 0.00 in0.0 mm 0.00 in/hr0.0 mm/hr 0.00 in0.0 mm
12:05 AM 65.1°F18.4°C 63.1°F17.3°C 93% Calm Calm -- 30.40 in1029.5 mb 0.00 in0.0 mm 0.00 in/hr0.0 mm/hr 0.00 in0.0 mm
12:06 AM 65.1°F18.4°C 63.1°F17.3°C 93% Calm Calm -- 30.40 in1029.5 mb 0.00 in0.0 mm 0.00 in/hr0.0 mm/hr 0.00 in0.0 mm
12:07 AM 65.3°F18.5°C 63.2°F17.3°C 93% Calm Calm -- 30.40 in1029.5 mb 0.00 in0.0 mm 0.00 in/hr0.0 mm/hr 0.00 in0.0 mm
12:08 AM 65.1°F18.4°C 63.1°F17.3°C 93% Calm Calm -- 30.40 in1029.5 mb 0.00 in0.0 mm 0.00 in/hr0.0 mm/hr 0.00 in0.0 mm
12:09 AM 65.1°F18.4°C 63.1°F17.3°C 93% Calm Calm -- 30.40 in1029.5 mb 0.00 in0.0 mm 0.00 in/hr0.0 mm/hr 0.00 in0.0 mm
12:10 AM 65.1°F18.4°C 63.1°F17.3°C 93% Calm Calm -- 30.40 in1029.5 mb 0.00 in0.0 mm 0.00 in/hr0.0 mm/hr 0.00 in0.0 mm
12:11 AM 64.9°F18.3°C 62.6°F17.0°C 92% Calm Calm -- 30.40 in1029.5 mb 0.00 in0.0 mm 0.00 in/hr0.0 mm/hr 0.00 in0.0 mm
12:12 AM 64.9°F18.3°C 62.6°F17.0°C 92% Calm Calm -- 30.40 in1029.5 mb 0.00 in0.0 mm 0.00 in/hr0.0 mm/hr 0.00 in0.0 mm
12:13 AM 64.9°F18.3°C 62.6°F17.0°C 92% Calm Calm -- 30.39 in1029.1 mb 0.00 in0.0 mm 0.00 in/hr0.0 mm/hr 0.00 in0.0 mm
12:14 AM 64.8°F18.2°C 62.4°F16.9°C 92% Calm Calm -- 30.40 in1029.5 mb 0.00 in0.0 mm 0.00 in/hr0.0 mm/hr 0.00 in0.0 mm
12:15 AM 64.6°F18.1°C 62.2°F16.8°C 92% Calm Calm -- 30.39 in1029.1 mb 0.00 in0.0 mm 0.00 in/hr0.0 mm/hr 0.00 in0.0 mm
12:16 AM 64.6°F18.1°C 62.2°F16.8°C 92% Calm Calm -- 30.39 in1029.1 mb 0.00 in0.0 mm 0.00 in/hr0.0 mm/hr 0.00 in0.0 mm
12:17 AM 64.6°F18.1°C 62.2°F16.8°C 92% Calm Calm -- 30.39 in1029.1 mb 0.00 in0.0 mm 0.00 in/hr0.0 mm/hr 0.00 in0.0 mm
12:18 AM 64.6°F18.1°C 62.2°F16.8°C 92% Calm Calm -- 30.40 in1029.5 mb 0.00 in0.0 mm 0.00 in/hr0.0 mm/hr 0.00 in0.0 mm
12:19 AM 64.8°F18.2°C 62.7°F17.1°C 93% Calm Calm -- 30.39 in1029.1 mb 0.00 in0.0 mm 0.00 in/hr0.0 mm/hr 0.00 in0.0 mm
12:20 AM 64.9°F18.3°C 62.6°F17.0°C 92% Calm Calm -- 30.39 in1029.1 mb 0.00 in0.0 mm 0.00 in/hr0.0 mm/hr 0.00 in0.0 mm
12:21 AM 64.9°F18.3°C 62.6°F17.0°C 92% Calm Calm -- 30.39 in1029.1 mb 0.00 in0.0 mm 0.00 in/hr0.0 mm/hr 0.00 in0.0 mm
12:22 AM 65.1°F18.4°C 62.8°F17.1°C 92% Calm Calm -- 30.39 in1029.1 mb 0.00 in0.0 mm 0.00 in/hr0.0 mm/hr 0.00 in0.0 mm
12:23 AM 65.1°F18.4°C 62.8°F17.1°C 92% Calm Calm -- 30.39 in1029.1 mb 0.00 in0.0 mm 0.00 in/hr0.0 mm/hr 0.00 in0.0 mm
12:24 AM 65.1°F18.4°C 62.8°F17.1°C 92% Calm Calm -- 30.39 in1029.1 mb 0.00 in0.0 mm 0.00 in/hr0.0 mm/hr 0.00 in0.0 mm
12:25 AM 65.1°F18.4°C 62.8°F17.1°C 92% Calm Calm -- 30.39 in1029.1 mb 0.00 in0.0 mm 0.00 in/hr0.0 mm/hr 0.00 in0.0 mm
12:26 AM 65.1°F18.4°C 62.8°F17.1°C 92% Calm Calm -- 30.39 in1029.1 mb 0.00 in0.0 mm 0.00 in/hr0.0 mm/hr 0.00 in0.0 mm
12:27 AM 65.3°F18.5°C 62.6°F17.0°C 91% Calm Calm -- 30.39 in1029.1 mb 0.00 in0.0 mm 0.00 in/hr0.0 mm/hr 0.00 in0.0 mm
12:28 AM 65.3°F18.5°C 62.6°F17.0°C 91% Calm Calm -- 30.39 in1029.1 mb 0.00 in0.0 mm 0.00 in/hr0.0 mm/hr 0.00 in0.0 mm
12:29 AM 65.1°F18.4°C 62.5°F16.9°C 91% Calm Calm -- 30.39 in1029.1 mb 0.00 in0.0 mm 0.00 in/hr0.0 mm/hr 0.00 in0.0 mm
12:30 AM 65.1°F18.4°C 62.5°F16.9°C 91% Calm Calm -- 30.39 in1029.1 mb 0.00 in0.0 mm 0.00 in/hr0.0 mm/hr 0.00 in0.0 mm
12:31 AM 65.1°F18.4°C 62.1°F16.7°C 90% Calm Calm -- 30.39 in1029.1 mb 0.00 in0.0 mm 0.00 in/hr0.0 mm/hr 0.00 in0.0 mm
12:32 AM 65.1°F18.4°C 62.1°F16.7°C 90% Calm Calm -- 30.39 in1029.1 mb 0.00 in0.0 mm 0.00 in/hr0.0 mm/hr 0.00 in0.0 mm
12:33 AM 64.9°F18.3°C 62.0°F16.7°C 90% Calm Calm -- 30.39 in1029.1 mb 0.00 in0.0 mm 0.00 in/hr0.0 mm/hr 0.00 in0.0 mm
12:34 AM 65.1°F18.4°C 61.5°F16.4°C 88% Calm Calm -- 30.39 in1029.1 mb 0.00 in0.0 mm 0.00 in/hr0.0 mm/hr 0.00 in0.0 mm
12:35 AM 65.1°F18.4°C 61.5°F16.4°C 88% Calm Calm -- 30.39 in1029.1 mb 0.00 in0.0 mm 0.00 in/hr0.0 mm/hr 0.00 in0.0 mm
12:36 AM 65.1°F18.4°C 61.5°F16.4°C 88% Calm Calm -- 30.39 in1029.1 mb 0.00 in0.0 mm 0.00 in/hr0.0 mm/hr 0.00 in0.0 mm
12:37 AM 65.1°F18.4°C 61.5°F16.4°C 88% Calm Calm -- 30.39 in1029.1 mb 0.00 in0.0 mm 0.00 in/hr0.0 mm/hr 0.00 in0.0 mm
12:38 AM 64.8°F18.2°C 61.1°F16.2°C 88% Calm Calm -- 30.39 in1029.1 mb 0.00 in0.0 mm 0.00 in/hr0.0 mm/hr 0.00 in0.0 mm
12:39 AM 64.8°F18.2°C 61.1°F16.2°C 88% Calm Calm -- 30.39 in1029.1 mb 0.00 in0.0 mm 0.00 in/hr0.0 mm/hr 0.00 in0.0 mm
12:40 AM 64.8°F18.2°C 61.1°F16.2°C 88% Calm Calm -- 30.39 in1029.1 mb 0.00 in0.0 mm 0.00 in/hr0.0 mm/hr 0.00 in0.0 mm
12:41 AM 64.6°F18.1°C 61.0°F16.1°C 88% Calm Calm -- 30.39 in1029.1 mb 0.00 in0.0 mm 0.00 in/hr0.0 mm/hr 0.00 in0.0 mm
12:42 AM 64.6°F18.1°C 61.0°F16.1°C 88% Calm Calm -- 30.39 in1029.1 mb 0.00 in0.0 mm 0.00 in/hr0.0 mm/hr 0.00 in0.0 mm
12:43 AM 64.6°F18.1°C 61.0°F16.1°C 88% Calm Calm -- 30.39 in1029.1 mb 0.00 in0.0 mm 0.00 in/hr0.0 mm/hr 0.00 in0.0 mm
12:44 AM 64.6°F18.1°C 61.0°F16.1°C 88% Calm Calm -- 30.39 in1029.1 mb 0.00 in0.0 mm 0.00 in/hr0.0 mm/hr 0.00 in0.0 mm
12:45 AM 64.6°F18.1°C 61.0°F16.1°C 88% Calm Calm -- 30.39 in1029.1 mb 0.00 in0.0 mm 0.00 in/hr0.0 mm/hr 0.00 in0.0 mm
12:46 AM 64.6°F18.1°C 61.0°F16.1°C 88% Calm Calm -- 30.39 in1029.1 mb 0.00 in0.0 mm 0.00 in/hr0.0 mm/hr 0.00 in0.0 mm
12:47 AM 64.6°F18.1°C 61.0°F16.1°C 88% Calm Calm -- 30.39 in1029.1 mb 0.00 in0.0 mm 0.00 in/hr0.0 mm/hr 0.00 in0.0 mm
12:48 AM 64.8°F18.2°C 61.1°F16.2°C 88% Calm Calm -- 30.39 in1029.1 mb 0.00 in0.0 mm 0.00 in/hr0.0 mm/hr 0.00 in0.0 mm
12:49 AM 64.9°F18.3°C 61.3°F16.3°C 88% Calm Calm -- 30.39 in1029.1 mb 0.00 in0.0 mm 0.00 in/hr0.0 mm/hr 0.00 in0.0 mm
12:50 AM 64.8°F18.2°C 61.1°F16.2°C 88% Calm Calm -- 30.39 in1029.1 mb 0.00 in0.0 mm 0.00 in/hr0.0 mm/hr 0.00 in0.0 mm
12:51 AM 64.8°F18.2°C 61.1°F16.2°C 88% Calm Calm -- 30.39 in1029.1 mb 0.00 in0.0 mm 0.00 in/hr0.0 mm/hr 0.00 in0.0 mm
12:52 AM 64.6°F18.1°C 61.0°F16.1°C 88% Calm Calm -- 30.39 in1029.1 mb 0.00 in0.0 mm 0.00 in/hr0.0 mm/hr 0.00 in0.0 mm
12:53 AM 64.6°F18.1°C 61.0°F16.1°C 88% Calm Calm -- 30.39 in1029.1 mb 0.00 in0.0 mm 0.00 in/hr0.0 mm/hr 0.00 in0.0 mm
12:54 AM 64.6°F18.1°C 61.6°F16.4°C 90% Calm Calm -- 30.39 in1029.1 mb 0.00 in0.0 mm 0.00 in/hr0.0 mm/hr 0.00 in0.0 mm
12:55 AM 64.2°F17.9°C 61.6°F16.4°C 91% Calm Calm -- 30.39 in1029.1 mb 0.00 in0.0 mm 0.00 in/hr0.0 mm/hr 0.00 in0.0 mm
12:56 AM 64.2°F17.9°C 61.6°F16.4°C 91% Calm Calm -- 30.39 in1029.1 mb 0.00 in0.0 mm 0.00 in/hr0.0 mm/hr 0.00 in0.0 mm
12:57 AM 64.2°F17.9°C 61.6°F16.4°C 91% Calm Calm -- 30.39 in1029.1 mb 0.00 in0.0 mm 0.00 in/hr0.0 mm/hr 0.00 in0.0 mm
12:58 AM 64.0°F17.8°C 61.7°F16.5°C 92% Calm Calm -- 30.39 in1029.1 mb 0.00 in0.0 mm 0.00 in/hr0.0 mm/hr 0.00 in0.0 mm
12:59 AM 64.0°F17.8°C 61.7°F16.5°C 92% Calm Calm -- 30.39 in1029.1 mb 0.00 in0.0 mm 0.00 in/hr0.0 mm/hr 0.00 in0.0 mm
01:00 AM 64.0°F17.8°C 61.7°F16.5°C 92% Calm Calm -- 30.39 in1029.1 mb 0.00 in0.0 mm 0.00 in/hr0.0 mm/hr 0.00 in0.0 mm
01:01 AM 64.0°F17.8°C 61.7°F16.5°C 92% Calm Calm -- 30.39 in1029.1 mb 0.00 in0.0 mm 0.00 in/hr0.0 mm/hr 0.00 in0.0 mm
01:02 AM 64.0°F17.8°C 61.7°F16.5°C 92% Calm Calm -- 30.39 in1029.1 mb 0.00 in0.0 mm 0.00 in/hr0.0 mm/hr 0.00 in0.0 mm
01:03 AM 64.0°F17.8°C 61.7°F16.5°C 92% Calm Calm -- 30.39 in1029.1 mb 0.00 in0.0 mm 0.00 in/hr0.0 mm/hr 0.00 in0.0 mm
01:04 AM 64.0°F17.8°C 61.7°F16.5°C 92% Calm Calm -- 30.39 in1029.1 mb 0.00 in0.0 mm 0.00 in/hr0.0 mm/hr 0.00 in0.0 mm
01:05 AM 63.9°F17.7°C 61.5°F16.4°C 92% Calm Calm -- 30.39 in1029.1 mb 0.00 in0.0 mm 0.00 in/hr0.0 mm/hr 0.00 in0.0 mm
01:06 AM 63.7°F17.6°C 61.6°F16.4°C 93% Calm Calm -- 30.39 in1029.1 mb 0.00 in0.0 mm 0.00 in/hr0.0 mm/hr 0.00 in0.0 mm
01:07 AM 63.7°F17.6°C 61.6°F16.4°C 93% Calm Calm -- 30.39 in1029.1 mb 0.00 in0.0 mm 0.00 in/hr0.0 mm/hr 0.00 in0.0 mm
01:08 AM 63.7°F17.6°C 61.6°F16.4°C 93% 0.7 mph WSW1.1 kmh WSW 1.6 mph2.6 kmh 30.39 in1029.1 mb 0.00 in0.0 mm 0.00 in/hr0.0 mm/hr 0.00 in0.0 mm
01:09 AM 63.9°F17.7°C 61.8°F16.6°C 93% 1.6 mph WSW2.6 kmh WSW 3.1 mph5.0 kmh 30.39 in1029.1 mb 0.00 in0.0 mm 0.00 in/hr0.0 mm/hr 0.00 in0.0 mm
01:10 AM 64.2°F17.9°C 62.2°F16.8°C 93% 2.2 mph SW3.5 kmh SW 3.8 mph6.1 kmh 30.39 in1029.1 mb 0.00 in0.0 mm 0.00 in/hr0.0 mm/hr 0.00 in0.0 mm
01:11 AM 64.2°F17.9°C 62.2°F16.8°C 93% 2.2 mph SW3.5 kmh SW 3.8 mph6.1 kmh 30.39 in1029.1 mb 0.00 in0.0 mm 0.00 in/hr0.0 mm/hr 0.00 in0.0 mm
01:12 AM 64.6°F18.1°C 63.4°F17.4°C 96% 2.2 mph SW3.5 kmh SW 3.8 mph6.1 kmh 30.39 in1029.1 mb 0.00 in0.0 mm 0.00 in/hr0.0 mm/hr 0.00 in0.0 mm
01:13 AM 64.6°F18.1°C 63.4°F17.4°C 96% 2.2 mph SW3.5 kmh SW 3.8 mph6.1 kmh 30.38 in1028.8 mb 0.00 in0.0 mm 0.00 in/hr0.0 mm/hr 0.00 in0.0 mm
01:14 AM 64.6°F18.1°C 63.4°F17.4°C 96% 3.1 mph SW5.0 kmh SW 3.8 mph6.1 kmh 30.39 in1029.1 mb 0.00 in0.0 mm 0.00 in/hr0.0 mm/hr 0.00 in0.0 mm
01:15 AM 64.6°F18.1°C 63.4°F17.4°C 96% 2.2 mph SW3.5 kmh SW 3.8 mph6.1 kmh 30.39 in1029.1 mb 0.00 in0.0 mm 0.00 in/hr0.0 mm/hr 0.00 in0.0 mm
01:16 AM 64.4°F18.0°C 63.3°F17.4°C 96% 3.1 mph SW5.0 kmh SW 3.8 mph6.1 kmh 30.39 in1029.1 mb 0.00 in0.0 mm 0.00 in/hr0.0 mm/hr 0.00 in0.0 mm
01:17 AM 64.4°F18.0°C 63.3°F17.4°C 96% 3.1 mph SW5.0 kmh SW 3.8 mph6.1 kmh 30.39 in1029.1 mb 0.00 in0.0 mm 0.00 in/hr0.0 mm/hr 0.00 in0.0 mm
01:18 AM 64.6°F18.1°C 63.4°F17.4°C 96% 3.1 mph SSW5.0 kmh SSW 5.4 mph8.7 kmh 30.38 in1028.8 mb 0.00 in0.0 mm 0.00 in/hr0.0 mm/hr 0.00 in0.0 mm
01:19 AM 64.6°F18.1°C 63.4°F17.4°C 96% 3.1 mph SSW5.0 kmh SSW 5.4 mph8.7 kmh 30.39 in1029.1 mb 0.00 in0.0 mm 0.00 in/hr0.0 mm/hr 0.00 in0.0 mm
01:20 AM 64.6°F18.1°C 63.4°F17.4°C 96% 3.1 mph SSW5.0 kmh SSW 5.4 mph8.7 kmh 30.38 in1028.8 mb 0.00 in0.0 mm 0.00 in/hr0.0 mm/hr 0.00 in0.0 mm
01:21 AM 64.6°F18.1°C 63.7°F17.6°C 97% 3.1 mph SSW5.0 kmh SSW 5.4 mph8.7 kmh 30.38 in1028.8 mb 0.00 in0.0 mm 0.00 in/hr0.0 mm/hr 0.00 in0.0 mm
01:22 AM 64.4°F18.0°C 63.6°F17.6°C 97% 2.2 mph SSW3.5 kmh SSW 5.4 mph8.7 kmh 30.38 in1028.8 mb 0.00 in0.0 mm 0.00 in/hr0.0 mm/hr 0.00 in0.0 mm
01:23 AM 64.4°F18.0°C 63.6°F17.6°C 97% 3.8 mph SSW6.1 kmh SSW 5.4 mph8.7 kmh 30.38 in1028.8 mb 0.00 in0.0 mm 0.00 in/hr0.0 mm/hr 0.00 in0.0 mm
01:24 AM 64.6°F18.1°C 63.7°F17.6°C 97% 3.1 mph SSW5.0 kmh SSW 5.4 mph8.7 kmh 30.38 in1028.8 mb 0.00 in0.0 mm 0.00 in/hr0.0 mm/hr 0.00 in0.0 mm
01:25 AM 64.8°F18.2°C 63.9°F17.7°C 97% 3.1 mph SSW5.0 kmh SSW 5.4 mph8.7 kmh 30.38 in1028.8 mb 0.00 in0.0 mm 0.00 in/hr0.0 mm/hr 0.00 in0.0 mm
01:26 AM 64.9°F18.3°C 64.1°F17.8°C 97% 2.2 mph SW3.5 kmh SW 5.4 mph8.7 kmh 30.38 in1028.8 mb 0.00 in0.0 mm 0.00 in/hr0.0 mm/hr 0.00 in0.0 mm
01:27 AM 64.9°F18.3°C 64.1°F17.8°C 97% 2.2 mph SW3.5 kmh SW 5.4 mph8.7 kmh 30.38 in1028.8 mb 0.00 in0.0 mm 0.00 in/hr0.0 mm/hr 0.00 in0.0 mm
01:28 AM 65.1°F18.4°C 64.0°F17.8°C 96% 2.2 mph SW3.5 kmh SW 4.5 mph7.2 kmh 30.38 in1028.8 mb 0.00 in0.0 mm 0.00 in/hr0.0 mm/hr 0.00 in0.0 mm
01:29 AM 65.1°F18.4°C 64.0°F17.8°C 96% 2.2 mph SW3.5 kmh SW 4.5 mph7.2 kmh 30.38 in1028.8 mb 0.00 in0.0 mm 0.00 in/hr0.0 mm/hr 0.00 in0.0 mm
01:30 AM 65.3°F18.5°C 63.9°F17.7°C 95% 2.2 mph SW3.5 kmh SW 4.5 mph7.2 kmh 30.38 in1028.8 mb 0.00 in0.0 mm 0.00 in/hr0.0 mm/hr 0.00 in0.0 mm
01:31 AM 65.3°F18.5°C 63.2°F17.3°C 93% 2.2 mph SW3.5 kmh SW 4.5 mph7.2 kmh 30.38 in1028.8 mb 0.00 in0.0 mm 0.00 in/hr0.0 mm/hr 0.00 in0.0 mm
01:32 AM 65.5°F18.6°C 63.4°F17.4°C 93% 1.6 mph SW2.6 kmh SW 4.5 mph7.2 kmh 30.38 in1028.8 mb 0.00 in0.0 mm 0.00 in/hr0.0 mm/hr 0.00 in0.0 mm
01:33 AM 65.5°F18.6°C 63.1°F17.3°C 92% Calm Calm 4.5 mph7.2 kmh 30.38 in1028.8 mb 0.00 in0.0 mm 0.00 in/hr0.0 mm/hr 0.00 in0.0 mm
01:34 AM 65.1°F18.4°C 62.8°F17.1°C 92% Calm Calm 4.5 mph7.2 kmh 30.38 in1028.8 mb 0.00 in0.0 mm 0.00 in/hr0.0 mm/hr 0.00 in0.0 mm
01:35 AM 65.1°F18.4°C 62.8°F17.1°C 92% Calm Calm 4.5 mph7.2 kmh 30.38 in1028.8 mb 0.00 in0.0 mm 0.00 in/hr0.0 mm/hr 0.00 in0.0 mm
01:36 AM 65.1°F18.4°C 62.8°F17.1°C 92% Calm Calm 3.8 mph6.1 kmh 30.38 in1028.8 mb 0.00 in0.0 mm 0.00 in/hr0.0 mm/hr 0.00 in0.0 mm
01:37 AM 64.9°F18.3°C 62.6°F17.0°C 92% Calm Calm 3.8 mph6.1 kmh 30.38 in1028.8 mb 0.00 in0.0 mm 0.00 in/hr0.0 mm/hr 0.00 in0.0 mm
01:38 AM 64.8°F18.2°C 62.7°F17.1°C 93% Calm Calm 3.8 mph6.1 kmh 30.38 in1028.8 mb 0.00 in0.0 mm 0.00 in/hr0.0 mm/hr 0.00 in0.0 mm
01:39 AM 64.6°F18.1°C 62.5°F16.9°C 93% Calm Calm 3.8 mph6.1 kmh 30.38 in1028.8 mb 0.00 in0.0 mm 0.00 in/hr0.0 mm/hr 0.00 in0.0 mm
01:40 AM 64.6°F18.1°C 63.1°F17.3°C 95% Calm Calm 3.1 mph5.0 kmh 30.38 in1028.8 mb 0.00 in0.0 mm 0.00 in/hr0.0 mm/hr 0.00 in0.0 mm
01:41 AM 64.4°F18.0°C 63.0°F17.2°C 95% Calm Calm 3.1 mph5.0 kmh 30.38 in1028.8 mb 0.00 in0.0 mm 0.00 in/hr0.0 mm/hr 0.00 in0.0 mm
01:42 AM 64.2°F17.9°C 62.8°F17.1°C 95% Calm Calm 3.1 mph5.0 kmh 30.38 in1028.8 mb 0.00 in0.0 mm 0.00 in/hr0.0 mm/hr 0.00 in0.0 mm
01:43 AM 64.2°F17.9°C 62.8°F17.1°C 95% Calm Calm -- 30.38 in1028.8 mb 0.00 in0.0 mm 0.00 in/hr0.0 mm/hr 0.00 in0.0 mm
01:44 AM 64.0°F17.8°C 62.9°F17.2°C 96% Calm Calm -- 30.38 in1028.8 mb 0.00 in0.0 mm 0.00 in/hr0.0 mm/hr 0.00 in0.0 mm
01:45 AM 63.9°F17.7°C 62.7°F17.1°C 96% Calm Calm -- 30.39 in1029.1 mb 0.00 in0.0 mm 0.00 in/hr0.0 mm/hr 0.00 in0.0 mm
01:46 AM 63.9°F17.7°C 63.0°F17.2°C 97% Calm Calm -- 30.39 in1029.1 mb 0.00 in0.0 mm 0.00 in/hr0.0 mm/hr 0.00 in0.0 mm
01:47 AM 63.9°F17.7°C 63.0°F17.2°C 97% Calm Calm -- 30.38 in1028.8 mb 0.00 in0.0 mm 0.00 in/hr0.0 mm/hr 0.00 in0.0 mm
01:48 AM 63.9°F17.7°C 63.0°F17.2°C 97% Calm Calm -- 30.38 in1028.8 mb 0.00 in0.0 mm 0.00 in/hr0.0 mm/hr 0.00 in0.0 mm
01:49 AM 63.7°F17.6°C 63.1°F17.3°C 98% Calm Calm -- 30.38 in1028.8 mb 0.00 in0.0 mm 0.00 in/hr0.0 mm/hr 0.00 in0.0 mm
01:50 AM 63.5°F17.5°C 62.9°F17.2°C 98% Calm Calm -- 30.39 in1029.1 mb 0.00 in0.0 mm 0.00 in/hr0.0 mm/hr 0.00 in0.0 mm
01:51 AM 63.5°F17.5°C 63.5°F17.5°C 100% Calm Calm -- 30.38 in1028.8 mb 0.00 in0.0 mm 0.00 in/hr0.0 mm/hr 0.00 in0.0 mm
01:52 AM 63.3°F17.4°C 63.3°F17.4°C 100% Calm Calm -- 30.39 in1029.1 mb 0.00 in0.0 mm 0.00 in/hr0.0 mm/hr 0.00 in0.0 mm
01:53 AM 63.3°F17.4°C 63.3°F17.4°C 100% Calm Calm -- 30.39 in1029.1 mb 0.00 in0.0 mm 0.00 in/hr0.0 mm/hr 0.00 in0.0 mm
01:54 AM 63.1°F17.3°C 63.2°F17.3°C 100% Calm Calm -- 30.38 in1028.8 mb 0.00 in0.0 mm 0.00 in/hr0.0 mm/hr 0.00 in0.0 mm
01:55 AM 63.0°F17.2°C 63.0°F17.2°C 100% Calm Calm -- 30.38 in1028.8 mb 0.00 in0.0 mm 0.00 in/hr0.0 mm/hr 0.00 in0.0 mm
01:56 AM 63.0°F17.2°C 63.0°F17.2°C 100% Calm Calm -- 30.38 in1028.8 mb 0.00 in0.0 mm 0.00 in/hr0.0 mm/hr 0.00 in0.0 mm
01:57 AM 63.0°F17.2°C 63.0°F17.2°C 100% 0.7 mph WSW1.1 kmh WSW 2.2 mph3.5 kmh 30.38 in1028.8 mb 0.00 in0.0 mm 0.00 in/hr0.0 mm/hr 0.00 in0.0 mm
01:58 AM 63.0°F17.2°C 63.0°F17.2°C 100% 1.6 mph WSW2.6 kmh WSW 2.2 mph3.5 kmh 30.38 in1028.8 mb 0.00 in0.0 mm 0.00 in/hr0.0 mm/hr 0.00 in0.0 mm
01:59 AM 63.1°F17.3°C 63.2°F17.3°C 100% 1.6 mph WSW2.6 kmh WSW 2.2 mph3.5 kmh 30.38 in1028.8 mb 0.00 in0.0 mm 0.00 in/hr0.0 mm/hr 0.00 in0.0 mm
02:00 AM 63.1°F17.3°C 63.2°F17.3°C 100% 1.6 mph SW2.6 kmh SW 2.2 mph3.5 kmh 30.38 in1028.8 mb 0.00 in0.0 mm 0.00 in/hr0.0 mm/hr 0.00 in0.0 mm
02:01 AM 63.1°F17.3°C 63.2°F17.3°C 100% 1.6 mph SW2.6 kmh SW 2.2 mph3.5 kmh 30.38 in1028.8 mb 0.00 in0.0 mm 0.00 in/hr0.0 mm/hr 0.00 in0.0 mm
02:02 AM 63.1°F17.3°C 63.2°F17.3°C 100% 1.6 mph SW2.6 kmh SW 2.2 mph3.5 kmh 30.38 in1028.8 mb 0.00 in0.0 mm 0.00 in/hr0.0 mm/hr 0.00 in0.0 mm
02:03 AM 63.1°F17.3°C 63.2°F17.3°C 100% 1.6 mph SW2.6 kmh SW 2.2 mph3.5 kmh 30.38 in1028.8 mb 0.00 in0.0 mm 0.00 in/hr0.0 mm/hr 0.00 in0.0 mm
02:04 AM 63.1°F17.3°C 63.2°F17.3°C 100% 1.6 mph SW2.6 kmh SW 2.2 mph3.5 kmh 30.38 in1028.8 mb 0.00 in0.0 mm 0.00 in/hr0.0 mm/hr 0.00 in0.0 mm
02:05 AM 63.1°F17.3°C 63.2°F17.3°C 100% 1.6 mph SW2.6 kmh SW 2.2 mph3.5 kmh 30.38 in1028.8 mb 0.00 in0.0 mm 0.00 in/hr0.0 mm/hr 0.00 in0.0 mm
02:06 AM 63.1°F17.3°C 63.2°F17.3°C 100% 1.6 mph SW2.6 kmh SW 2.2 mph3.5 kmh 30.38 in1028.8 mb 0.00 in0.0 mm 0.00 in/hr0.0 mm/hr 0.00 in0.0 mm
02:07 AM 63.7°F17.6°C 63.7°F17.6°C 100% 0.7 mph SSW1.1 kmh SSW 2.2 mph3.5 kmh 30.38 in1028.8 mb 0.00 in0.0 mm 0.00 in/hr0.0 mm/hr 0.00 in0.0 mm
02:08 AM 63.7°F17.6°C 63.7°F17.6°C 100% 0.7 mph SSW1.1 kmh SSW 2.2 mph3.5 kmh 30.38 in1028.8 mb 0.00 in0.0 mm 0.00 in/hr0.0 mm/hr 0.00 in0.0 mm
02:09 AM 63.9°F17.7°C 63.9°F17.7°C 100% 1.6 mph SSW2.6 kmh SSW 2.2 mph3.5 kmh 30.38 in1028.8 mb 0.00 in0.0 mm 0.00 in/hr0.0 mm/hr 0.00 in0.0 mm
02:10 AM 64.0°F17.8°C 64.1°F17.8°C 100% 0.7 mph SSW1.1 kmh SSW 2.2 mph3.5 kmh 30.38 in1028.8 mb 0.00 in0.0 mm 0.00 in/hr0.0 mm/hr 0.00 in0.0 mm
02:11 AM 64.0°F17.8°C 64.1°F17.8°C 100% 0.7 mph SSW1.1 kmh SSW 2.2 mph3.5 kmh 30.38 in1028.8 mb 0.00 in0.0 mm 0.00 in/hr0.0 mm/hr 0.00 in0.0 mm
02:12 AM 64.0°F17.8°C 64.1°F17.8°C 100% Calm Calm 2.2 mph3.5 kmh 30.38 in1028.8 mb 0.00 in0.0 mm 0.00 in/hr0.0 mm/hr 0.00 in0.0 mm
02:13 AM 64.0°F17.8°C 64.1°F17.8°C 100% Calm Calm 2.2 mph3.5 kmh 30.38 in1028.8 mb 0.00 in0.0 mm 0.00 in/hr0.0 mm/hr 0.00 in0.0 mm
02:14 AM 63.9°F17.7°C 63.9°F17.7°C 100% Calm Calm 2.2 mph3.5 kmh 30.38 in1028.8 mb 0.00 in0.0 mm 0.00 in/hr0.0 mm/hr 0.00 in0.0 mm
02:15 AM 63.9°F17.7°C 63.9°F17.7°C 100% Calm Calm 2.2 mph3.5 kmh 30.38 in1028.8 mb 0.00 in0.0 mm 0.00 in/hr0.0 mm/hr 0.00 in0.0 mm
02:16 AM 63.7°F17.6°C 63.7°F17.6°C 100% Calm Calm 2.2 mph3.5 kmh 30.38 in1028.8 mb 0.00 in0.0 mm 0.00 in/hr0.0 mm/hr 0.00 in0.0 mm
02:17 AM 63.5°F17.5°C 63.5°F17.5°C 100% Calm Calm 2.2 mph3.5 kmh 30.38 in1028.8 mb 0.00 in0.0 mm 0.00 in/hr0.0 mm/hr 0.00 in0.0 mm
02:18 AM 63.3°F17.4°C 62.8°F17.1°C 98% Calm Calm 2.2 mph3.5 kmh 30.38 in1028.8 mb 0.00 in0.0 mm 0.00 in/hr0.0 mm/hr 0.00 in0.0 mm
02:19 AM 63.1°F17.3°C 62.6°F17.0°C 98% Calm Calm 2.2 mph3.5 kmh 30.38 in1028.8 mb 0.00 in0.0 mm 0.00 in/hr0.0 mm/hr 0.00 in0.0 mm
02:20 AM 63.1°F17.3°C 62.6°F17.0°C 98% Calm Calm 2.2 mph3.5 kmh 30.38 in1028.8 mb 0.00 in0.0 mm 0.00 in/hr0.0 mm/hr 0.00 in0.0 mm
02:21 AM 63.0°F17.2°C 62.4°F16.9°C 98% Calm Calm 1.6 mph2.6 kmh 30.37 in1028.4 mb 0.00 in0.0 mm 0.00 in/hr0.0 mm/hr 0.00 in0.0 mm
02:22 AM 63.0°F17.2°C 62.4°F16.9°C 98% Calm Calm 0.7 mph1.1 kmh 30.38 in1028.8 mb 0.00 in0.0 mm 0.00 in/hr0.0 mm/hr 0.00 in0.0 mm
02:23 AM 62.8°F17.1°C 62.2°F16.8°C 98% Calm Calm -- 30.38 in1028.8 mb 0.00 in0.0 mm 0.00 in/hr0.0 mm/hr 0.00 in0.0 mm
02:24 AM 62.8°F17.1°C 62.2°F16.8°C 98% Calm Calm -- 30.38 in1028.8 mb 0.00 in0.0 mm 0.00 in/hr0.0 mm/hr 0.00 in0.0 mm
02:25 AM 62.8°F17.1°C 62.2°F16.8°C 98% Calm Calm -- 30.38 in1028.8 mb 0.00 in0.0 mm 0.00 in/hr0.0 mm/hr 0.00 in0.0 mm
02:26 AM 62.8°F17.1°C 62.8°F17.1°C 100% Calm Calm -- 30.37 in1028.4 mb 0.00 in0.0 mm 0.00 in/hr0.0 mm/hr 0.00 in0.0 mm
02:27 AM 62.8°F17.1°C 62.8°F17.1°C 100% Calm Calm -- 30.37 in1028.4 mb 0.00 in0.0 mm 0.00 in/hr0.0 mm/hr 0.00 in0.0 mm
02:28 AM 62.8°F17.1°C 62.8°F17.1°C 100% Calm Calm -- 30.38 in1028.8 mb 0.00 in0.0 mm 0.00 in/hr0.0 mm/hr 0.00 in0.0 mm
02:29 AM 62.8°F17.1°C 62.8°F17.1°C 100% Calm Calm -- 30.38 in1028.8 mb 0.00 in0.0 mm 0.00 in/hr0.0 mm/hr 0.00 in0.0 mm
02:30 AM 62.6°F17.0°C 62.6°F17.0°C 100% Calm Calm -- 30.38 in1028.8 mb 0.00 in0.0 mm 0.00 in/hr0.0 mm/hr 0.00 in0.0 mm
02:31 AM 62.4°F16.9°C 62.4°F16.9°C 100% Calm Calm -- 30.37 in1028.4 mb 0.00 in0.0 mm 0.00 in/hr0.0 mm/hr 0.00 in0.0 mm
02:32 AM 62.6°F17.0°C 62.6°F17.0°C 100% Calm Calm -- 30.38 in1028.8 mb 0.00 in0.0 mm 0.00 in/hr0.0 mm/hr 0.00 in0.0 mm
02:33 AM 62.4°F16.9°C 62.4°F16.9°C 100% Calm Calm -- 30.37 in1028.4 mb 0.00 in0.0 mm 0.00 in/hr0.0 mm/hr 0.00 in0.0 mm
02:34 AM 62.2°F16.8°C 62.3°F16.8°C 100% Calm Calm -- 30.37 in1028.4 mb 0.00 in0.0 mm 0.00 in/hr0.0 mm/hr 0.00 in0.0 mm
02:35 AM 62.2°F16.8°C 62.3°F16.8°C 100% Calm Calm -- 30.37 in1028.4 mb 0.00 in0.0 mm 0.00 in/hr0.0 mm/hr 0.00 in0.0 mm
02:36 AM 62.2°F16.8°C 62.3°F16.8°C 100% Calm Calm -- 30.37 in1028.4 mb 0.00 in0.0 mm 0.00 in/hr0.0 mm/hr 0.00 in0.0 mm
02:37 AM 62.2°F16.8°C 62.3°F16.8°C 100% Calm Calm -- 30.37 in1028.4 mb 0.00 in0.0 mm 0.00 in/hr0.0 mm/hr 0.00 in0.0 mm
02:38 AM 61.9°F16.6°C 61.9°F16.6°C 100% Calm Calm -- 30.37 in1028.4 mb 0.00 in0.0 mm 0.00 in/hr0.0 mm/hr 0.00 in0.0 mm
02:39 AM 61.9°F16.6°C 61.9°F16.6°C 100% Calm Calm -- 30.37 in1028.4 mb 0.00 in0.0 mm 0.00 in/hr0.0 mm/hr 0.00 in0.0 mm
02:40 AM 61.7°F16.5°C 61.7°F16.5°C 100% Calm Calm -- 30.37 in1028.4 mb 0.00 in0.0 mm 0.00 in/hr0.0 mm/hr 0.00 in0.0 mm
02:41 AM 61.7°F16.5°C 61.7°F16.5°C 100% Calm Calm -- 30.37 in1028.4 mb 0.00 in0.0 mm 0.00 in/hr0.0 mm/hr 0.00 in0.0 mm
02:42 AM 61.7°F16.5°C 61.7°F16.5°C 100% Calm Calm -- 30.37 in1028.4 mb 0.00 in0.0 mm 0.00 in/hr0.0 mm/hr 0.00 in0.0 mm
02:43 AM 61.7°F16.5°C 61.7°F16.5°C 100% Calm Calm -- 30.37 in1028.4 mb 0.00 in0.0 mm 0.00 in/hr0.0 mm/hr 0.00 in0.0 mm
02:44 AM 61.7°F16.5°C 61.7°F16.5°C 100% Calm Calm -- 30.37 in1028.4 mb 0.00 in0.0 mm 0.00 in/hr0.0 mm/hr 0.00 in0.0 mm
02:45 AM 61.7°F16.5°C 61.7°F16.5°C 100% Calm Calm -- 30.37 in1028.4 mb 0.00 in0.0 mm 0.00 in/hr0.0 mm/hr 0.00 in0.0 mm
02:46 AM 61.7°F16.5°C 61.7°F16.5°C 100% Calm Calm -- 30.37 in1028.4 mb 0.00 in0.0 mm 0.00 in/hr0.0 mm/hr 0.00 in0.0 mm
02:47 AM 61.5°F16.4°C 61.5°F16.4°C 100% Calm Calm -- 30.37 in1028.4 mb 0.00 in0.0 mm 0.00 in/hr0.0 mm/hr 0.00 in0.0 mm
02:48 AM 61.5°F16.4°C 61.5°F16.4°C 100% Calm Calm -- 30.37 in1028.4 mb 0.00 in0.0 mm 0.00 in/hr0.0 mm/hr 0.00 in0.0 mm
02:49 AM 61.7°F16.5°C 61.7°F16.5°C 100% Calm Calm -- 30.37 in1028.4 mb 0.00 in0.0 mm 0.00 in/hr0.0 mm/hr 0.00 in0.0 mm
02:50 AM 61.7°F16.5°C 61.7°F16.5°C 100% Calm Calm -- 30.37 in1028.4 mb 0.00 in0.0 mm 0.00 in/hr0.0 mm/hr 0.00 in0.0 mm
02:51 AM 61.7°F16.5°C 61.7°F16.5°C 100% Calm Calm -- 30.37 in1028.4 mb 0.00 in0.0 mm 0.00 in/hr0.0 mm/hr 0.00 in0.0 mm
02:52 AM 61.7°F16.5°C 61.7°F16.5°C 100% Calm Calm -- 30.37 in1028.4 mb 0.00 in0.0 mm 0.00 in/hr0.0 mm/hr 0.00 in0.0 mm
02:53 AM 61.7°F16.5°C 61.7°F16.5°C 100% Calm Calm -- 30.37 in1028.4 mb 0.00 in0.0 mm 0.00 in/hr0.0 mm/hr 0.00 in0.0 mm
02:54 AM 61.7°F16.5°C 61.7°F16.5°C 100% Calm Calm -- 30.37 in1028.4 mb 0.00 in0.0 mm 0.00 in/hr0.0 mm/hr 0.00 in0.0 mm
02:55 AM 61.9°F16.6°C 61.9°F16.6°C 100% Calm Calm -- 30.37 in1028.4 mb 0.00 in0.0 mm 0.00 in/hr0.0 mm/hr 0.00 in0.0 mm
02:56 AM 61.9°F16.6°C 61.9°F16.6°C 100% Calm Calm -- 30.37 in1028.4 mb 0.00 in0.0 mm 0.00 in/hr0.0 mm/hr 0.00 in0.0 mm
02:57 AM 61.9°F16.6°C 61.9°F16.6°C 100% Calm Calm 0.7 mph1.1 kmh 30.37 in1028.4 mb 0.00 in0.0 mm 0.00 in/hr0.0 mm/hr 0.00 in0.0 mm
02:58 AM 61.7°F16.5°C 61.7°F16.5°C 100% Calm Calm 1.6 mph2.6 kmh 30.37 in1028.4 mb 0.00 in0.0 mm 0.00 in/hr0.0 mm/hr 0.00 in0.0 mm
02:59 AM 61.7°F16.5°C 61.7°F16.5°C 100% Calm Calm 1.6 mph2.6 kmh 30.37 in1028.4 mb 0.00 in0.0 mm 0.00 in/hr0.0 mm/hr 0.00 in0.0 mm
03:00 AM 61.7°F16.5°C 61.7°F16.5°C 100% Calm Calm 1.6 mph2.6 kmh 30.37 in1028.4 mb 0.00 in0.0 mm 0.00 in/hr0.0 mm/hr 0.00 in0.0 mm
03:01 AM 61.5°F16.4°C 61.5°F16.4°C 100% Calm Calm 1.6 mph2.6 kmh 30.37 in1028.4 mb 0.00 in0.0 mm 0.00 in/hr0.0 mm/hr 0.00 in0.0 mm
03:02 AM 61.5°F16.4°C 61.5°F16.4°C 100% Calm Calm 1.6 mph2.6 kmh 30.37 in1028.4 mb 0.00 in0.0 mm 0.00 in/hr0.0 mm/hr 0.00 in0.0 mm
03:03 AM 61.3°F16.3°C 61.4°F16.3°C 100% Calm Calm 1.6 mph2.6 kmh 30.37 in1028.4 mb 0.00 in0.0 mm 0.00 in/hr0.0 mm/hr 0.00 in0.0 mm
03:04 AM 61.3°F16.3°C 61.4°F16.3°C 100% Calm Calm 1.6 mph2.6 kmh 30.37 in1028.4 mb 0.00 in0.0 mm 0.00 in/hr0.0 mm/hr 0.00 in0.0 mm
03:05 AM 61.3°F16.3°C 61.4°F16.3°C 100% Calm Calm 1.6 mph2.6 kmh 30.37 in1028.4 mb 0.00 in0.0 mm 0.00 in/hr0.0 mm/hr 0.00 in0.0 mm
03:06 AM 61.3°F16.3°C 61.4°F16.3°C 100% Calm Calm 1.6 mph2.6 kmh 30.37 in1028.4 mb 0.00 in0.0 mm 0.00 in/hr0.0 mm/hr 0.00 in0.0 mm
03:07 AM 61.2°F16.2°C 61.2°F16.2°C 100% Calm Calm 1.6 mph2.6 kmh 30.37 in1028.4 mb 0.00 in0.0 mm 0.00 in/hr0.0 mm/hr 0.00 in0.0 mm
03:08 AM 61.2°F16.2°C 61.2°F16.2°C 100% Calm Calm 1.6 mph2.6 kmh 30.37 in1028.4 mb 0.00 in0.0 mm 0.00 in/hr0.0 mm/hr 0.00 in0.0 mm
03:09 AM 61.2°F16.2°C 61.2°F16.2°C 100% Calm Calm 0.7 mph1.1 kmh 30.37 in1028.4 mb 0.00 in0.0 mm 0.00 in/hr0.0 mm/hr 0.00 in0.0 mm
03:10 AM 61.0°F16.1°C 61.0°F16.1°C 100% Calm Calm -- 30.37 in1028.4 mb 0.00 in0.0 mm 0.00 in/hr0.0 mm/hr 0.00 in0.0 mm
03:11 AM 61.0°F16.1°C 61.0°F16.1°C 100% Calm Calm -- 30.37 in1028.4 mb 0.00 in0.0 mm 0.00 in/hr0.0 mm/hr 0.00 in0.0 mm
03:12 AM 61.0°F16.1°C 61.0°F16.1°C 100% Calm Calm -- 30.37 in1028.4 mb 0.00 in0.0 mm 0.00 in/hr0.0 mm/hr 0.00 in0.0 mm
03:13 AM 61.0°F16.1°C 61.0°F16.1°C 100% Calm Calm -- 30.37 in1028.4 mb 0.00 in0.0 mm 0.00 in/hr0.0 mm/hr 0.00 in0.0 mm
03:14 AM 61.0°F16.1°C 61.0°F16.1°C 100% Calm Calm -- 30.37 in1028.4 mb 0.00 in0.0 mm 0.00 in/hr0.0 mm/hr 0.00 in0.0 mm
03:15 AM 61.0°F16.1°C 61.0°F16.1°C 100% Calm Calm -- 30.37 in1028.4 mb 0.00 in0.0 mm 0.00 in/hr0.0 mm/hr 0.00 in0.0 mm
03:16 AM 61.0°F16.1°C 61.0°F16.1°C 100% Calm Calm -- 30.37 in1028.4 mb 0.00 in0.0 mm 0.00 in/hr0.0 mm/hr 0.00 in0.0 mm
03:17 AM 61.0°F16.1°C 61.0°F16.1°C 100% Calm Calm -- 30.38 in1028.8 mb 0.00 in0.0 mm 0.00 in/hr0.0 mm/hr 0.00 in0.0 mm
03:18 AM 61.0°F16.1°C 61.0°F16.1°C 100% Calm Calm -- 30.37 in1028.4 mb 0.00 in0.0 mm 0.00 in/hr0.0 mm/hr 0.00 in0.0 mm
03:19 AM 61.0°F16.1°C 61.0°F16.1°C 100% Calm Calm -- 30.37 in1028.4 mb 0.00 in0.0 mm 0.00 in/hr0.0 mm/hr 0.00 in0.0 mm
03:20 AM 61.0°F16.1°C 61.0°F16.1°C 100% Calm Calm -- 30.37 in1028.4 mb 0.00 in0.0 mm 0.00 in/hr0.0 mm/hr 0.00 in0.0 mm
03:21 AM 61.0°F16.1°C 61.0°F16.1°C 100% Calm Calm -- 30.37 in1028.4 mb 0.00 in0.0 mm 0.00 in/hr0.0 mm/hr 0.00 in0.0 mm
03:22 AM 61.0°F16.1°C 61.0°F16.1°C 100% Calm Calm -- 30.37 in1028.4 mb 0.00 in0.0 mm 0.00 in/hr0.0 mm/hr 0.00 in0.0 mm
03:23 AM 61.2°F16.2°C 61.2°F16.2°C 100% Calm Calm -- 30.37 in1028.4 mb 0.00 in0.0 mm 0.00 in/hr0.0 mm/hr 0.00 in0.0 mm
03:24 AM 61.2°F16.2°C 61.2°F16.2°C 100% Calm Calm -- 30.37 in1028.4 mb 0.00 in0.0 mm 0.00 in/hr0.0 mm/hr 0.00 in0.0 mm
03:25 AM 60.8°F16.0°C 60.8°F16.0°C 100% Calm Calm -- 30.37 in1028.4 mb 0.00 in0.0 mm 0.00 in/hr0.0 mm/hr 0.00 in0.0 mm
03:26 AM 61.2°F16.2°C 61.2°F16.2°C 100% Calm Calm -- 30.37 in1028.4 mb 0.00 in0.0 mm 0.00 in/hr0.0 mm/hr 0.00 in0.0 mm
03:27 AM 61.3°F16.3°C 61.4°F16.3°C 100% Calm Calm 0.7 mph1.1 kmh 30.37 in1028.4 mb 0.00 in0.0 mm 0.00 in/hr0.0 mm/hr 0.00 in0.0 mm
03:28 AM 61.3°F16.3°C 61.4°F16.3°C 100% 1.6 mph ENE2.6 kmh ENE 1.6 mph2.6 kmh 30.37 in1028.4 mb 0.00 in0.0 mm 0.00 in/hr0.0 mm/hr 0.00 in0.0 mm
03:29 AM 61.3°F16.3°C 61.4°F16.3°C 100% 1.6 mph ENE2.6 kmh ENE 2.2 mph3.5 kmh 30.37 in1028.4 mb 0.00 in0.0 mm 0.00 in/hr0.0 mm/hr 0.00 in0.0 mm
03:30 AM 61.3°F16.3°C 61.4°F16.3°C 100% 0.7 mph ENE1.1 kmh ENE 2.2 mph3.5 kmh 30.37 in1028.4 mb 0.00 in0.0 mm 0.00 in/hr0.0 mm/hr 0.00 in0.0 mm
03:31 AM 61.3°F16.3°C 61.4°F16.3°C 100% Calm Calm 2.2 mph3.5 kmh 30.37 in1028.4 mb 0.00 in0.0 mm 0.00 in/hr0.0 mm/hr 0.00 in0.0 mm
03:32 AM 61.3°F16.3°C 61.4°F16.3°C 100% Calm Calm 2.2 mph3.5 kmh 30.37 in1028.4 mb 0.00 in0.0 mm 0.00 in/hr0.0 mm/hr 0.00 in0.0 mm
03:33 AM 61.3°F16.3°C 61.4°F16.3°C 100% Calm Calm 2.2 mph3.5 kmh 30.37 in1028.4 mb 0.00 in0.0 mm 0.00 in/hr0.0 mm/hr 0.00 in0.0 mm
03:34 AM 61.2°F16.2°C 61.2°F16.2°C 100% Calm Calm 2.2 mph3.5 kmh 30.37 in1028.4 mb 0.00 in0.0 mm 0.00 in/hr0.0 mm/hr 0.00 in0.0 mm
03:35 AM 61.2°F16.2°C 61.2°F16.2°C 100% Calm Calm 2.2 mph3.5 kmh 30.37 in1028.4 mb 0.00 in0.0 mm 0.00 in/hr0.0 mm/hr 0.00 in0.0 mm
03:36 AM 61.2°F16.2°C 61.2°F16.2°C 100% Calm Calm 2.2 mph3.5 kmh 30.37 in1028.4 mb 0.00 in0.0 mm 0.00 in/hr0.0 mm/hr 0.00 in0.0 mm
03:37 AM 61.2°F16.2°C 61.2°F16.2°C 100% Calm Calm 2.2 mph3.5 kmh 30.37 in1028.4 mb 0.00 in0.0 mm 0.00 in/hr0.0 mm/hr 0.00 in0.0 mm
03:38 AM 61.2°F16.2°C 61.2°F16.2°C 100% Calm Calm 2.2 mph3.5 kmh 30.37 in1028.4 mb 0.00 in0.0 mm 0.00 in/hr0.0 mm/hr 0.00 in0.0 mm
03:39 AM 61.2°F16.2°C 61.2°F16.2°C 100% Calm Calm 2.2 mph3.5 kmh 30.37 in1028.4 mb 0.00 in0.0 mm 0.00 in/hr0.0 mm/hr 0.00 in0.0 mm
03:40 AM 61.2°F16.2°C 61.2°F16.2°C 100% Calm Calm 1.6 mph2.6 kmh 30.37 in1028.4 mb 0.00 in0.0 mm 0.00 in/hr0.0 mm/hr 0.00 in0.0 mm
03:41 AM 61.2°F16.2°C 61.2°F16.2°C 100% Calm Calm -- 30.37 in1028.4 mb 0.00 in0.0 mm 0.00 in/hr0.0 mm/hr 0.00 in0.0 mm
03:42 AM 61.2°F16.2°C 61.2°F16.2°C 100% Calm Calm -- 30.37 in1028.4 mb 0.00 in0.0 mm 0.00 in/hr0.0 mm/hr 0.00 in0.0 mm
03:43 AM 61.2°F16.2°C 61.2°F16.2°C 100% Calm Calm -- 30.37 in1028.4 mb 0.00 in0.0 mm 0.00 in/hr0.0 mm/hr 0.00 in0.0 mm
03:44 AM 61.2°F16.2°C 61.2°F16.2°C 100% Calm Calm -- 30.37 in1028.4 mb 0.00 in0.0 mm 0.00 in/hr0.0 mm/hr 0.00 in0.0 mm
03:45 AM 61.2°F16.2°C 61.2°F16.2°C 100% Calm Calm -- 30.37 in1028.4 mb 0.00 in0.0 mm 0.00 in/hr0.0 mm/hr 0.00 in0.0 mm
03:46 AM 60.8°F16.0°C 60.8°F16.0°C 100% Calm Calm -- 30.38 in1028.8 mb 0.00 in0.0 mm 0.00 in/hr0.0 mm/hr 0.00 in0.0 mm
03:47 AM 60.8°F16.0°C 60.8°F16.0°C 100% Calm Calm -- 30.37 in1028.4 mb 0.00 in0.0 mm 0.00 in/hr0.0 mm/hr 0.00 in0.0 mm
03:48 AM 60.8°F16.0°C 60.8°F16.0°C 100% Calm Calm -- 30.37 in1028.4 mb 0.00 in0.0 mm 0.00 in/hr0.0 mm/hr 0.00 in0.0 mm
03:49 AM 60.8°F16.0°C 60.8°F16.0°C 100% Calm Calm -- 30.37 in1028.4 mb 0.00 in0.0 mm 0.00 in/hr0.0 mm/hr 0.00 in0.0 mm
03:50 AM 61.2°F16.2°C 61.2°F16.2°C 100% Calm Calm -- 30.37 in1028.4 mb 0.00 in0.0 mm 0.00 in/hr0.0 mm/hr 0.00 in0.0 mm
03:51 AM 61.2°F16.2°C 61.2°F16.2°C 100% Calm Calm -- 30.37 in1028.4 mb 0.00 in0.0 mm 0.00 in/hr0.0 mm/hr 0.00 in0.0 mm
03:52 AM 61.2°F16.2°C 61.2°F16.2°C 100% Calm Calm -- 30.37 in1028.4 mb 0.00 in0.0 mm 0.00 in/hr0.0 mm/hr 0.00 in0.0 mm
03:53 AM 61.2°F16.2°C 61.2°F16.2°C 100% Calm Calm -- 30.37 in1028.4 mb 0.00 in0.0 mm 0.00 in/hr0.0 mm/hr 0.00 in0.0 mm
03:54 AM 61.2°F16.2°C 61.2°F16.2°C 100% Calm Calm -- 30.37 in1028.4 mb 0.00 in0.0 mm 0.00 in/hr0.0 mm/hr 0.00 in0.0 mm
03:55 AM 61.3°F16.3°C 61.4°F16.3°C 100% Calm Calm -- 30.37 in1028.4 mb 0.00 in0.0 mm 0.00 in/hr0.0 mm/hr 0.00 in0.0 mm
03:56 AM 61.2°F16.2°C 61.2°F16.2°C 100% Calm Calm -- 30.37 in1028.4 mb 0.00 in0.0 mm 0.00 in/hr0.0 mm/hr 0.00 in0.0 mm
03:57 AM 61.3°F16.3°C 61.4°F16.3°C 100% Calm Calm -- 30.37 in1028.4 mb 0.00 in0.0 mm 0.00 in/hr0.0 mm/hr 0.00 in0.0 mm
03:58 AM 61.2°F16.2°C 61.2°F16.2°C 100% Calm Calm -- 30.37 in1028.4 mb 0.00 in0.0 mm 0.00 in/hr0.0 mm/hr 0.00 in0.0 mm
03:59 AM 61.2°F16.2°C 61.2°F16.2°C 100% Calm Calm -- 30.38 in1028.8 mb 0.00 in0.0 mm 0.00 in/hr0.0 mm/hr 0.00 in0.0 mm
04:00 AM 61.2°F16.2°C 61.2°F16.2°C 100% Calm Calm -- 30.37 in1028.4 mb 0.00 in0.0 mm 0.00 in/hr0.0 mm/hr 0.00 in0.0 mm
04:01 AM 61.2°F16.2°C 61.2°F16.2°C 100% Calm Calm -- 30.37 in1028.4 mb 0.00 in0.0 mm 0.00 in/hr0.0 mm/hr 0.00 in0.0 mm
04:02 AM 61.2°F16.2°C 61.2°F16.2°C 100% Calm Calm -- 30.37 in1028.4 mb 0.00 in0.0 mm 0.00 in/hr0.0 mm/hr 0.00 in0.0 mm
04:03 AM 61.2°F16.2°C 61.2°F16.2°C 100% Calm Calm -- 30.37 in1028.4 mb 0.00 in0.0 mm 0.00 in/hr0.0 mm/hr 0.00 in0.0 mm
04:04 AM 61.2°F16.2°C 61.2°F16.2°C 100% Calm Calm -- 30.37 in1028.4 mb 0.00 in0.0 mm 0.00 in/hr0.0 mm/hr 0.00 in0.0 mm
04:05 AM 61.2°F16.2°C 61.2°F16.2°C 100% Calm Calm -- 30.37 in1028.4 mb 0.00 in0.0 mm 0.00 in/hr0.0 mm/hr 0.00 in0.0 mm
04:06 AM 61.2°F16.2°C 61.2°F16.2°C 100% Calm Calm -- 30.37 in1028.4 mb 0.00 in0.0 mm 0.00 in/hr0.0 mm/hr 0.00 in0.0 mm
04:07 AM 61.3°F16.3°C 61.4°F16.3°C 100% 0.7 mph ENE1.1 kmh ENE 1.6 mph2.6 kmh 30.37 in1028.4 mb 0.00 in0.0 mm 0.00 in/hr0.0 mm/hr 0.00 in0.0 mm
04:08 AM 61.3°F16.3°C 61.4°F16.3°C 100% 0.7 mph ENE1.1 kmh ENE 1.6 mph2.6 kmh 30.36 in1028.1 mb 0.00 in0.0 mm 0.00 in/hr0.0 mm/hr 0.00 in0.0 mm
04:09 AM 61.3°F16.3°C 61.4°F16.3°C 100% 0.7 mph ENE1.1 kmh ENE 1.6 mph2.6 kmh 30.36 in1028.1 mb 0.00 in0.0 mm 0.00 in/hr0.0 mm/hr 0.00 in0.0 mm
04:10 AM 61.3°F16.3°C 61.4°F16.3°C 100% Calm Calm 1.6 mph2.6 kmh 30.36 in1028.1 mb 0.00 in0.0 mm 0.00 in/hr0.0 mm/hr 0.00 in0.0 mm
04:11 AM 61.3°F16.3°C 61.4°F16.3°C 100% Calm Calm 1.6 mph2.6 kmh 30.36 in1028.1 mb 0.00 in0.0 mm 0.00 in/hr0.0 mm/hr 0.00 in0.0 mm
04:12 AM 61.3°F16.3°C 61.4°F16.3°C 100% 0.7 mph ENE1.1 kmh ENE 1.6 mph2.6 kmh 30.36 in1028.1 mb 0.00 in0.0 mm 0.00 in/hr0.0 mm/hr 0.00 in0.0 mm
04:13 AM 61.3°F16.3°C 61.4°F16.3°C 100% 0.7 mph ENE1.1 kmh ENE 1.6 mph2.6 kmh 30.36 in1028.1 mb 0.00 in0.0 mm 0.00 in/hr0.0 mm/hr 0.00 in0.0 mm
04:14 AM 61.3°F16.3°C 61.4°F16.3°C 100% Calm Calm 1.6 mph2.6 kmh 30.36 in1028.1 mb 0.00 in0.0 mm 0.00 in/hr0.0 mm/hr 0.00 in0.0 mm
04:15 AM 61.3°F16.3°C 61.4°F16.3°C 100% Calm Calm 1.6 mph2.6 kmh 30.36 in1028.1 mb 0.00 in0.0 mm 0.00 in/hr0.0 mm/hr 0.00 in0.0 mm
04:16 AM 61.3°F16.3°C 61.4°F16.3°C 100% Calm Calm 1.6 mph2.6 kmh 30.36 in1028.1 mb 0.00 in0.0 mm 0.00 in/hr0.0 mm/hr 0.00 in0.0 mm
04:17 AM 61.3°F16.3°C 61.4°F16.3°C 100% 0.7 mph ENE1.1 kmh ENE 1.6 mph2.6 kmh 30.37 in1028.4 mb 0.00 in0.0 mm 0.00 in/hr0.0 mm/hr 0.00 in0.0 mm
04:18 AM 61.3°F16.3°C 61.4°F16.3°C 100% 0.7 mph ENE1.1 kmh ENE 3.1 mph5.0 kmh 30.36 in1028.1 mb 0.00 in0.0 mm 0.00 in/hr0.0 mm/hr 0.00 in0.0 mm
04:19 AM 61.3°F16.3°C 61.4°F16.3°C 100% Calm Calm 3.1 mph5.0 kmh 30.36 in1028.1 mb 0.00 in0.0 mm 0.00 in/hr0.0 mm/hr 0.00 in0.0 mm
04:20 AM 61.3°F16.3°C 61.4°F16.3°C 100% Calm Calm 3.1 mph5.0 kmh 30.36 in1028.1 mb 0.00 in0.0 mm 0.00 in/hr0.0 mm/hr 0.00 in0.0 mm
04:21 AM 61.3°F16.3°C 61.4°F16.3°C 100% Calm Calm 3.1 mph5.0 kmh 30.36 in1028.1 mb 0.00 in0.0 mm 0.00 in/hr0.0 mm/hr 0.00 in0.0 mm
04:22 AM 61.3°F16.3°C 61.4°F16.3°C 100% 0.7 mph ENE1.1 kmh ENE 3.1 mph5.0 kmh 30.36 in1028.1 mb 0.00 in0.0 mm 0.00 in/hr0.0 mm/hr 0.00 in0.0 mm
04:23 AM 61.3°F16.3°C 61.4°F16.3°C 100% Calm Calm 3.1 mph5.0 kmh 30.36 in1028.1 mb 0.00 in0.0 mm 0.00 in/hr0.0 mm/hr 0.00 in0.0 mm
04:24 AM 61.3°F16.3°C 61.4°F16.3°C 100% Calm Calm 3.1 mph5.0 kmh 30.37 in1028.4 mb 0.00 in0.0 mm 0.00 in/hr0.0 mm/hr 0.00 in0.0 mm
04:25 AM 61.3°F16.3°C 61.4°F16.3°C 100% Calm Calm 3.1 mph5.0 kmh 30.36 in1028.1 mb 0.00 in0.0 mm 0.00 in/hr0.0 mm/hr 0.00 in0.0 mm
04:26 AM 61.5°F16.4°C 61.5°F16.4°C 100% Calm Calm 3.1 mph5.0 kmh 30.36 in1028.1 mb 0.00 in0.0 mm 0.00 in/hr0.0 mm/hr 0.00 in0.0 mm
04:27 AM 61.3°F16.3°C 61.4°F16.3°C 100% Calm Calm 3.1 mph5.0 kmh 30.36 in1028.1 mb 0.00 in0.0 mm 0.00 in/hr0.0 mm/hr 0.00 in0.0 mm
04:28 AM 61.3°F16.3°C 61.4°F16.3°C 100% Calm Calm 2.2 mph3.5 kmh 30.36 in1028.1 mb 0.00 in0.0 mm 0.00 in/hr0.0 mm/hr 0.00 in0.0 mm
04:29 AM 61.3°F16.3°C 61.4°F16.3°C 100% Calm Calm 2.2 mph3.5 kmh 30.37 in1028.4 mb 0.00 in0.0 mm 0.00 in/hr0.0 mm/hr 0.00 in0.0 mm
04:30 AM 61.3°F16.3°C 61.4°F16.3°C 100% Calm Calm 2.2 mph3.5 kmh 30.37 in1028.4 mb 0.00 in0.0 mm 0.00 in/hr0.0 mm/hr 0.00 in0.0 mm
04:31 AM 61.3°F16.3°C 61.4°F16.3°C 100% Calm Calm 2.2 mph3.5 kmh 30.36 in1028.1 mb 0.00 in0.0 mm 0.00 in/hr0.0 mm/hr 0.00 in0.0 mm
04:32 AM 61.3°F16.3°C 61.4°F16.3°C 100% Calm Calm 2.2 mph3.5 kmh 30.37 in1028.4 mb 0.00 in0.0 mm 0.00 in/hr0.0 mm/hr 0.00 in0.0 mm
04:33 AM 61.3°F16.3°C 61.4°F16.3°C 100% Calm Calm 1.6 mph2.6 kmh 30.37 in1028.4 mb 0.00 in0.0 mm 0.00 in/hr0.0 mm/hr 0.00 in0.0 mm
04:34 AM 61.3°F16.3°C 61.4°F16.3°C 100% Calm Calm 1.6 mph2.6 kmh 30.36 in1028.1 mb 0.00 in0.0 mm 0.00 in/hr0.0 mm/hr 0.00 in0.0 mm
04:35 AM 61.3°F16.3°C 61.4°F16.3°C 100% Calm Calm 1.6 mph2.6 kmh 30.36 in1028.1 mb 0.00 in0.0 mm 0.00 in/hr0.0 mm/hr 0.00 in0.0 mm
04:36 AM 61.3°F16.3°C 61.4°F16.3°C 100% Calm Calm 0.7 mph1.1 kmh 30.36 in1028.1 mb 0.00 in0.0 mm 0.00 in/hr0.0 mm/hr 0.00 in0.0 mm
04:37 AM 61.3°F16.3°C 61.4°F16.3°C 100% Calm Calm -- 30.36 in1028.1 mb 0.00 in0.0 mm 0.00 in/hr0.0 mm/hr 0.00 in0.0 mm
04:38 AM 61.5°F16.4°C 61.5°F16.4°C 100% Calm Calm -- 30.36 in1028.1 mb 0.00 in0.0 mm 0.00 in/hr0.0 mm/hr 0.00 in0.0 mm
04:39 AM 61.3°F16.3°C 61.4°F16.3°C 100% Calm Calm -- 30.36 in1028.1 mb 0.00 in0.0 mm 0.00 in/hr0.0 mm/hr 0.00 in0.0 mm
04:40 AM 61.3°F16.3°C 61.4°F16.3°C 100% Calm Calm -- 30.36 in1028.1 mb 0.00 in0.0 mm 0.00 in/hr0.0 mm/hr 0.00 in0.0 mm
04:45 AM 62.2°F16.8°C 62.3°F16.8°C 100% Calm Calm 1.6 mph2.6 kmh 30.36 in1028.1 mb 0.00 in0.0 mm 0.00 in/hr0.0 mm/hr 0.00 in0.0 mm
04:46 AM 62.4°F16.9°C 62.4°F16.9°C 100% Calm Calm 1.6 mph2.6 kmh 30.36 in1028.1 mb 0.00 in0.0 mm 0.00 in/hr0.0 mm/hr 0.00 in0.0 mm
04:47 AM 62.6°F17.0°C 62.6°F17.0°C 100% Calm Calm 1.6 mph2.6 kmh 30.36 in1028.1 mb 0.00 in0.0 mm 0.00 in/hr0.0 mm/hr 0.00 in0.0 mm
04:48 AM 62.4°F16.9°C 62.4°F16.9°C 100% Calm Calm 1.6 mph2.6 kmh 30.36 in1028.1 mb 0.00 in0.0 mm 0.00 in/hr0.0 mm/hr 0.00 in0.0 mm
04:49 AM 62.4°F16.9°C 62.4°F16.9°C 100% Calm Calm 1.6 mph2.6 kmh 30.36 in1028.1 mb 0.00 in0.0 mm 0.00 in/hr0.0 mm/hr 0.00 in0.0 mm
04:50 AM 62.4°F16.9°C 62.4°F16.9°C 100% Calm Calm 1.6 mph2.6 kmh 30.36 in1028.1 mb 0.00 in0.0 mm 0.00 in/hr0.0 mm/hr 0.00 in0.0 mm
04:51 AM 62.2°F16.8°C 62.3°F16.8°C 100% Calm Calm 1.6 mph2.6 kmh 30.36 in1028.1 mb 0.00 in0.0 mm 0.00 in/hr0.0 mm/hr 0.00 in0.0 mm
04:52 AM 62.2°F16.8°C 62.3°F16.8°C 100% Calm Calm 1.6 mph2.6 kmh 30.36 in1028.1 mb 0.00 in0.0 mm 0.00 in/hr0.0 mm/hr 0.00 in0.0 mm
04:53 AM 62.1°F16.7°C 62.1°F16.7°C 100% Calm Calm 1.6 mph2.6 kmh 30.36 in1028.1 mb 0.00 in0.0 mm 0.00 in/hr0.0 mm/hr 0.00 in0.0 mm
04:54 AM 62.1°F16.7°C 62.1°F16.7°C 100% Calm Calm -- 30.36 in1028.1 mb 0.00 in0.0 mm 0.00 in/hr0.0 mm/hr 0.00 in0.0 mm
04:55 AM 62.1°F16.7°C 62.1°F16.7°C 100% Calm Calm -- 30.36 in1028.1 mb 0.00 in0.0 mm 0.00 in/hr0.0 mm/hr 0.00 in0.0 mm
04:56 AM 61.9°F16.6°C 61.9°F16.6°C 100% Calm Calm -- 30.36 in1028.1 mb 0.00 in0.0 mm 0.00 in/hr0.0 mm/hr 0.00 in0.0 mm
04:57 AM 61.9°F16.6°C 61.9°F16.6°C 100% Calm Calm -- 30.36 in1028.1 mb 0.00 in0.0 mm 0.00 in/hr0.0 mm/hr 0.00 in0.0 mm
04:58 AM 61.7°F16.5°C 61.7°F16.5°C 100% Calm Calm -- 30.36 in1028.1 mb 0.00 in0.0 mm 0.00 in/hr0.0 mm/hr 0.00 in0.0 mm
04:59 AM 61.7°F16.5°C 61.7°F16.5°C 100% Calm Calm -- 30.36 in1028.1 mb 0.00 in0.0 mm 0.00 in/hr0.0 mm/hr 0.00 in0.0 mm
05:00 AM 61.7°F16.5°C 61.7°F16.5°C 100% Calm Calm -- 30.36 in1028.1 mb 0.00 in0.0 mm 0.00 in/hr0.0 mm/hr 0.00 in0.0 mm
05:01 AM 61.7°F16.5°C 61.7°F16.5°C 100% Calm Calm -- 30.36 in1028.1 mb 0.00 in0.0 mm 0.00 in/hr0.0 mm/hr 0.00 in0.0 mm
05:02 AM 61.7°F16.5°C 61.7°F16.5°C 100% Calm Calm -- 30.36 in1028.1 mb 0.00 in0.0 mm 0.00 in/hr0.0 mm/hr 0.00 in0.0 mm
05:03 AM 61.7°F16.5°C 61.7°F16.5°C 100% Calm Calm -- 30.36 in1028.1 mb 0.00 in0.0 mm 0.00 in/hr0.0 mm/hr 0.00 in0.0 mm
05:04 AM 61.7°F16.5°C 61.7°F16.5°C 100% Calm Calm -- 30.36 in1028.1 mb 0.00 in0.0 mm 0.00 in/hr0.0 mm/hr 0.00 in0.0 mm
05:05 AM 61.5°F16.4°C 61.5°F16.4°C 100% Calm Calm -- 30.36 in1028.1 mb 0.00 in0.0 mm 0.00 in/hr0.0 mm/hr 0.00 in0.0 mm
05:06 AM 61.7°F16.5°C 61.7°F16.5°C 100% Calm Calm -- 30.36 in1028.1 mb 0.00 in0.0 mm 0.00 in/hr0.0 mm/hr 0.00 in0.0 mm
05:07 AM 61.7°F16.5°C 61.7°F16.5°C 100% Calm Calm -- 30.36 in1028.1 mb 0.00 in0.0 mm 0.00 in/hr0.0 mm/hr 0.00 in0.0 mm
05:08 AM 61.7°F16.5°C 61.7°F16.5°C 100% Calm Calm -- 30.36 in1028.1 mb 0.00 in0.0 mm 0.00 in/hr0.0 mm/hr 0.00 in0.0 mm
05:09 AM 61.5°F16.4°C 61.5°F16.4°C 100% Calm Calm -- 30.36 in1028.1 mb 0.00 in0.0 mm 0.00 in/hr0.0 mm/hr 0.00 in0.0 mm
05:10 AM 61.5°F16.4°C 61.5°F16.4°C 100% Calm Calm -- 30.36 in1028.1 mb 0.00 in0.0 mm 0.00 in/hr0.0 mm/hr 0.00 in0.0 mm
05:11 AM 61.7°F16.5°C 61.7°F16.5°C 100% Calm Calm -- 30.36 in1028.1 mb 0.00 in0.0 mm 0.00 in/hr0.0 mm/hr 0.00 in0.0 mm
05:12 AM 61.5°F16.4°C 61.5°F16.4°C 100% Calm Calm -- 30.36 in1028.1 mb 0.00 in0.0 mm 0.00 in/hr0.0 mm/hr 0.00 in0.0 mm
05:13 AM 61.5°F16.4°C 61.5°F16.4°C 100% Calm Calm -- 30.36 in1028.1 mb 0.00 in0.0 mm 0.00 in/hr0.0 mm/hr 0.00 in0.0 mm
05:14 AM 61.7°F16.5°C 61.7°F16.5°C 100% Calm Calm -- 30.36 in1028.1 mb 0.00 in0.0 mm 0.00 in/hr0.0 mm/hr 0.00 in0.0 mm
05:15 AM 61.7°F16.5°C 61.7°F16.5°C 100% Calm Calm -- 30.36 in1028.1 mb 0.00 in0.0 mm 0.00 in/hr0.0 mm/hr 0.00 in0.0 mm
05:16 AM 61.5°F16.4°C 61.5°F16.4°C 100% Calm Calm -- 30.36 in1028.1 mb 0.00 in0.0 mm 0.00 in/hr0.0 mm/hr 0.00 in0.0 mm
05:17 AM 61.5°F16.4°C 61.5°F16.4°C 100% Calm Calm -- 30.36 in1028.1 mb 0.00 in0.0 mm 0.00 in/hr0.0 mm/hr 0.00 in0.0 mm
05:18 AM 61.3°F16.3°C 61.4°F16.3°C 100% Calm Calm -- 30.36 in1028.1 mb 0.00 in0.0 mm 0.00 in/hr0.0 mm/hr 0.00 in0.0 mm
05:19 AM 61.3°F16.3°C 61.4°F16.3°C 100% Calm Calm -- 30.37 in1028.4 mb 0.00 in0.0 mm 0.00 in/hr0.0 mm/hr 0.00 in0.0 mm
05:20 AM 61.2°F16.2°C 61.2°F16.2°C 100% Calm Calm -- 30.37 in1028.4 mb 0.00 in0.0 mm 0.00 in/hr0.0 mm/hr 0.00 in0.0 mm
05:21 AM 61.2°F16.2°C 61.2°F16.2°C 100% Calm Calm -- 30.37 in1028.4 mb 0.00 in0.0 mm 0.00 in/hr0.0 mm/hr 0.00 in0.0 mm
05:22 AM 61.0°F16.1°C 61.0°F16.1°C 100% Calm Calm -- 30.37 in1028.4 mb 0.00 in0.0 mm 0.00 in/hr0.0 mm/hr 0.00 in0.0 mm
05:23 AM 61.0°F16.1°C 61.0°F16.1°C 100% Calm Calm -- 30.37 in1028.4 mb 0.00 in0.0 mm 0.00 in/hr0.0 mm/hr 0.00 in0.0 mm
05:24 AM 61.0°F16.1°C 61.0°F16.1°C 100% Calm Calm -- 30.37 in1028.4 mb 0.00 in0.0 mm 0.00 in/hr0.0 mm/hr 0.00 in0.0 mm
05:25 AM 61.0°F16.1°C 61.0°F16.1°C 100% Calm Calm -- 30.38 in1028.8 mb 0.00 in0.0 mm 0.00 in/hr0.0 mm/hr 0.00 in0.0 mm
05:26 AM 61.0°F16.1°C 61.0°F16.1°C 100% Calm Calm -- 30.38 in1028.8 mb 0.00 in0.0 mm 0.00 in/hr0.0 mm/hr 0.00 in0.0 mm
05:27 AM 61.0°F16.1°C 61.0°F16.1°C 100% Calm Calm -- 30.37 in1028.4 mb 0.00 in0.0 mm 0.00 in/hr0.0 mm/hr 0.00 in0.0 mm
05:28 AM 61.0°F16.1°C 61.0°F16.1°C 100% Calm Calm -- 30.37 in1028.4 mb 0.00 in0.0 mm 0.00 in/hr0.0 mm/hr 0.00 in0.0 mm
05:29 AM 60.8°F16.0°C 60.8°F16.0°C 100% Calm Calm -- 30.37 in1028.4 mb 0.00 in0.0 mm 0.00 in/hr0.0 mm/hr 0.00 in0.0 mm
05:30 AM 60.8°F16.0°C 60.8°F16.0°C 100% Calm Calm -- 30.37 in1028.4 mb 0.00 in0.0 mm 0.00 in/hr0.0 mm/hr 0.00 in0.0 mm
05:31 AM 60.8°F16.0°C 60.8°F16.0°C 100% Calm Calm -- 30.37 in1028.4 mb 0.00 in0.0 mm 0.00 in/hr0.0 mm/hr 0.00 in0.0 mm
05:32 AM 60.6°F15.9°C 60.6°F15.9°C 100% Calm Calm -- 30.37 in1028.4 mb 0.00 in0.0 mm 0.00 in/hr0.0 mm/hr 0.00 in0.0 mm
05:33 AM 60.6°F15.9°C 60.6°F15.9°C 100% Calm Calm -- 30.37 in1028.4 mb 0.00 in0.0 mm 0.00 in/hr0.0 mm/hr 0.00 in0.0 mm
05:34 AM 60.6°F15.9°C 60.6°F15.9°C 100% Calm Calm -- 30.37 in1028.4 mb 0.00 in0.0 mm 0.00 in/hr0.0 mm/hr 0.00 in0.0 mm
05:35 AM 60.4°F15.8°C 60.5°F15.8°C 100% Calm Calm -- 30.37 in1028.4 mb 0.00 in0.0 mm 0.00 in/hr0.0 mm/hr 0.00 in0.0 mm
05:36 AM 60.4°F15.8°C 60.5°F15.8°C 100% Calm Calm -- 30.37 in1028.4 mb 0.00 in0.0 mm 0.00 in/hr0.0 mm/hr 0.00 in0.0 mm
05:37 AM 60.4°F15.8°C 60.5°F15.8°C 100% Calm Calm -- 30.36 in1028.1 mb 0.00 in0.0 mm 0.00 in/hr0.0 mm/hr 0.00 in0.0 mm
05:38 AM 60.4°F15.8°C 60.5°F15.8°C 100% Calm Calm -- 30.37 in1028.4 mb 0.00 in0.0 mm 0.00 in/hr0.0 mm/hr 0.00 in0.0 mm
05:39 AM 60.4°F15.8°C 60.5°F15.8°C 100% Calm Calm -- 30.37 in1028.4 mb 0.00 in0.0 mm 0.00 in/hr0.0 mm/hr 0.00 in0.0 mm
05:40 AM 60.4°F15.8°C 60.5°F15.8°C 100% Calm Calm -- 30.36 in1028.1 mb 0.00 in0.0 mm 0.00 in/hr0.0 mm/hr 0.00 in0.0 mm
05:41 AM 60.4°F15.8°C 60.5°F15.8°C 100% Calm Calm -- 30.36 in1028.1 mb 0.00 in0.0 mm 0.00 in/hr0.0 mm/hr 0.00 in0.0 mm
05:42 AM 60.4°F15.8°C 60.5°F15.8°C 100% Calm Calm -- 30.36 in1028.1 mb 0.00 in0.0 mm 0.00 in/hr0.0 mm/hr 0.00 in0.0 mm
05:43 AM 60.4°F15.8°C 60.5°F15.8°C 100% Calm Calm -- 30.36 in1028.1 mb 0.00 in0.0 mm 0.00 in/hr0.0 mm/hr 0.00 in0.0 mm
05:44 AM 60.4°F15.8°C 60.5°F15.8°C 100% Calm Calm -- 30.36 in1028.1 mb 0.00 in0.0 mm 0.00 in/hr0.0 mm/hr 0.00 in0.0 mm
05:45 AM 60.4°F15.8°C 60.5°F15.8°C 100% Calm Calm -- 30.37 in1028.4 mb 0.00 in0.0 mm 0.00 in/hr0.0 mm/hr 0.00 in0.0 mm
05:46 AM 60.4°F15.8°C 60.5°F15.8°C 100% Calm Calm -- 30.36 in1028.1 mb 0.00 in0.0 mm 0.00 in/hr0.0 mm/hr 0.00 in0.0 mm
05:47 AM 60.6°F15.9°C 60.6°F15.9°C 100% Calm Calm -- 30.37 in1028.4 mb 0.00 in0.0 mm 0.00 in/hr0.0 mm/hr 0.00 in0.0 mm
05:48 AM 60.6°F15.9°C 60.6°F15.9°C 100% Calm Calm -- 30.37 in1028.4 mb 0.00 in0.0 mm 0.00 in/hr0.0 mm/hr 0.00 in0.0 mm
05:49 AM 60.6°F15.9°C 60.6°F15.9°C 100% Calm Calm -- 30.37 in1028.4 mb 0.00 in0.0 mm 0.00 in/hr0.0 mm/hr 0.00 in0.0 mm
05:50 AM 60.6°F15.9°C 60.6°F15.9°C 100% Calm Calm -- 30.37 in1028.4 mb 0.00 in0.0 mm 0.00 in/hr0.0 mm/hr 0.00 in0.0 mm
05:51 AM 60.6°F15.9°C 60.6°F15.9°C 100% Calm Calm -- 30.37 in1028.4 mb 0.00 in0.0 mm 0.00 in/hr0.0 mm/hr 0.00 in0.0 mm
05:52 AM 60.6°F15.9°C 60.6°F15.9°C 100% Calm Calm -- 30.37 in1028.4 mb 0.00 in0.0 mm 0.00 in/hr0.0 mm/hr 0.00 in0.0 mm
05:53 AM 60.6°F15.9°C 60.6°F15.9°C 100% Calm Calm -- 30.37 in1028.4 mb 0.00 in0.0 mm 0.00 in/hr0.0 mm/hr 0.00 in0.0 mm
05:54 AM 60.4°F15.8°C 60.5°F15.8°C 100% Calm Calm -- 30.37 in1028.4 mb 0.00 in0.0 mm 0.00 in/hr0.0 mm/hr 0.00 in0.0 mm
05:55 AM 60.4°F15.8°C 60.5°F15.8°C 100% Calm Calm -- 30.37 in1028.4 mb 0.00 in0.0 mm 0.00 in/hr0.0 mm/hr 0.00 in0.0 mm
05:56 AM 60.4°F15.8°C 60.5°F15.8°C 100% Calm Calm -- 30.37 in1028.4 mb 0.00 in0.0 mm 0.00 in/hr0.0 mm/hr 0.00 in0.0 mm
05:57 AM 60.3°F15.7°C 60.3°F15.7°C 100% Calm Calm -- 30.37 in1028.4 mb 0.00 in0.0 mm 0.00 in/hr0.0 mm/hr 0.00 in0.0 mm
05:58 AM 60.3°F15.7°C 60.3°F15.7°C 100% Calm Calm -- 30.37 in1028.4 mb 0.00 in0.0 mm 0.00 in/hr0.0 mm/hr 0.00 in0.0 mm
05:59 AM 60.3°F15.7°C 60.3°F15.7°C 100% Calm Calm -- 30.37 in1028.4 mb 0.00 in0.0 mm 0.00 in/hr0.0 mm/hr 0.00 in0.0 mm
06:00 AM 60.4°F15.8°C 60.5°F15.8°C 100% Calm Calm -- 30.36 in1028.1 mb 0.00 in0.0 mm 0.00 in/hr0.0 mm/hr 0.00 in0.0 mm
06:01 AM 60.4°F15.8°C 60.5°F15.8°C 100% Calm Calm -- 30.36 in1028.1 mb 0.00 in0.0 mm 0.00 in/hr0.0 mm/hr 0.00 in0.0 mm
06:02 AM 60.3°F15.7°C 60.3°F15.7°C 100% Calm Calm -- 30.37 in1028.4 mb 0.00 in0.0 mm 0.00 in/hr0.0 mm/hr 0.00 in0.0 mm
06:03 AM 60.4°F15.8°C 60.5°F15.8°C 100% Calm Calm -- 30.37 in1028.4 mb 0.00 in0.0 mm 0.00 in/hr0.0 mm/hr 0.00 in0.0 mm
06:04 AM 60.4°F15.8°C 60.5°F15.8°C 100% Calm Calm -- 30.36 in1028.1 mb 0.00 in0.0 mm 0.00 in/hr0.0 mm/hr 0.00 in0.0 mm
06:05 AM 60.4°F15.8°C 60.5°F15.8°C 100% Calm Calm -- 30.36 in1028.1 mb 0.00 in0.0 mm 0.00 in/hr0.0 mm/hr 0.00 in0.0 mm
06:06 AM 60.4°F15.8°C 60.5°F15.8°C 100% Calm Calm -- 30.37 in1028.4 mb 0.00 in0.0 mm 0.00 in/hr0.0 mm/hr 0.00 in0.0 mm
06:07 AM 60.4°F15.8°C 60.5°F15.8°C 100% Calm Calm -- 30.37 in1028.4 mb 0.00 in0.0 mm 0.00 in/hr0.0 mm/hr 0.00 in0.0 mm
06:08 AM 60.4°F15.8°C 60.5°F15.8°C 100% Calm Calm -- 30.36 in1028.1 mb 0.00 in0.0 mm 0.00 in/hr0.0 mm/hr 0.00 in0.0 mm
06:09 AM 60.4°F15.8°C 60.5°F15.8°C 100% Calm Calm -- 30.37 in1028.4 mb 0.00 in0.0 mm 0.00 in/hr0.0 mm/hr 0.00 in0.0 mm
06:10 AM 60.4°F15.8°C 60.5°F15.8°C 100% Calm Calm -- 30.37 in1028.4 mb 0.00 in0.0 mm 0.00 in/hr0.0 mm/hr 0.00 in0.0 mm
06:11 AM 60.4°F15.8°C 60.5°F15.8°C 100% Calm Calm -- 30.37 in1028.4 mb 0.00 in0.0 mm 0.00 in/hr0.0 mm/hr 0.00 in0.0 mm
06:12 AM 60.4°F15.8°C 60.5°F15.8°C 100% Calm Calm -- 30.37 in1028.4 mb 0.00 in0.0 mm 0.00 in/hr0.0 mm/hr 0.00 in0.0 mm
06:13 AM 60.6°F15.9°C 60.6°F15.9°C 100% Calm Calm -- 30.37 in1028.4 mb 0.00 in0.0 mm 0.00 in/hr0.0 mm/hr 0.00 in0.0 mm
06:14 AM 60.6°F15.9°C 60.6°F15.9°C 100% Calm Calm -- 30.37 in1028.4 mb 0.00 in0.0 mm 0.00 in/hr0.0 mm/hr 0.00 in0.0 mm
06:15 AM 60.6°F15.9°C 60.6°F15.9°C 100% Calm Calm -- 30.36 in1028.1 mb 0.00 in0.0 mm 0.00 in/hr0.0 mm/hr 0.00 in0.0 mm
06:16 AM 60.6°F15.9°C 60.6°F15.9°C 100% Calm Calm -- 30.36 in1028.1 mb 0.00 in0.0 mm 0.00 in/hr0.0 mm/hr 0.00 in0.0 mm
06:17 AM 60.8°F16.0°C 60.8°F16.0°C 100% Calm Calm -- 30.36 in1028.1 mb 0.00 in0.0 mm 0.00 in/hr0.0 mm/hr 0.00 in0.0 mm
06:18 AM 60.8°F16.0°C 60.8°F16.0°C 100% Calm Calm -- 30.36 in1028.1 mb 0.00 in0.0 mm 0.00 in/hr0.0 mm/hr 0.00 in0.0 mm
06:19 AM 60.8°F16.0°C 60.8°F16.0°C 100% Calm Calm -- 30.36 in1028.1 mb 0.00 in0.0 mm 0.00 in/hr0.0 mm/hr 0.00 in0.0 mm
06:20 AM 60.8°F16.0°C 60.8°F16.0°C 100% Calm Calm -- 30.36 in1028.1 mb 0.00 in0.0 mm 0.00 in/hr0.0 mm/hr 0.00 in0.0 mm
06:21 AM 60.6°F15.9°C 60.6°F15.9°C 100% Calm Calm -- 30.36 in1028.1 mb 0.00 in0.0 mm 0.00 in/hr0.0 mm/hr 0.00 in0.0 mm
06:22 AM 60.6°F15.9°C 60.6°F15.9°C 100% Calm Calm -- 30.36 in1028.1 mb 0.00 in0.0 mm 0.00 in/hr0.0 mm/hr 0.00 in0.0 mm
06:23 AM 60.6°F15.9°C 60.6°F15.9°C 100% Calm Calm -- 30.37 in1028.4 mb 0.00 in0.0 mm 0.00 in/hr0.0 mm/hr 0.00 in0.0 mm
06:24 AM 60.6°F15.9°C 60.6°F15.9°C 100% Calm Calm -- 30.36 in1028.1 mb 0.00 in0.0 mm 0.00 in/hr0.0 mm/hr 0.00 in0.0 mm
06:25 AM 60.8°F16.0°C 60.8°F16.0°C 100% Calm Calm -- 30.37 in1028.4 mb 0.00 in0.0 mm 0.00 in/hr0.0 mm/hr 0.00 in0.0 mm
06:26 AM 60.6°F15.9°C 60.6°F15.9°C 100% 1.6 mph SSW2.6 kmh SSW 3.8 mph6.1 kmh 30.37 in1028.4 mb 0.00 in0.0 mm 0.00 in/hr0.0 mm/hr 0.00 in0.0 mm
06:27 AM 60.6°F15.9°C 60.6°F15.9°C 100% 2.2 mph SSW3.5 kmh SSW 3.8 mph6.1 kmh 30.36 in1028.1 mb 0.00 in0.0 mm 0.00 in/hr0.0 mm/hr 0.00 in0.0 mm
06:28 AM 60.8°F16.0°C 60.8°F16.0°C 100% 2.2 mph SSW3.5 kmh SSW 3.8 mph6.1 kmh 30.36 in1028.1 mb 0.00 in0.0 mm 0.00 in/hr0.0 mm/hr 0.00 in0.0 mm
06:29 AM 60.8°F16.0°C 60.8°F16.0°C 100% 0.7 mph SSW1.1 kmh SSW 3.8 mph6.1 kmh 30.36 in1028.1 mb 0.00 in0.0 mm 0.00 in/hr0.0 mm/hr 0.00 in0.0 mm
06:30 AM 60.8°F16.0°C 60.8°F16.0°C 100% Calm Calm 3.8 mph6.1 kmh 30.37 in1028.4 mb 0.00 in0.0 mm 0.00 in/hr0.0 mm/hr 0.00 in0.0 mm
06:31 AM 60.8°F16.0°C 60.8°F16.0°C 100% Calm Calm 3.8 mph6.1 kmh 30.37 in1028.4 mb 0.00 in0.0 mm 0.00 in/hr0.0 mm/hr 0.00 in0.0 mm
06:32 AM 60.8°F16.0°C 60.8°F16.0°C 100% Calm Calm 3.8 mph6.1 kmh 30.36 in1028.1 mb 0.00 in0.0 mm 0.00 in/hr0.0 mm/hr 0.00 in0.0 mm
06:33 AM 60.8°F16.0°C 60.8°F16.0°C 100% Calm Calm 3.8 mph6.1 kmh 30.37 in1028.4 mb 0.00 in0.0 mm 0.00 in/hr0.0 mm/hr 0.00 in0.0 mm
06:34 AM 60.8°F16.0°C 60.8°F16.0°C 100% Calm Calm 3.8 mph6.1 kmh 30.36 in1028.1 mb 0.00 in0.0 mm 0.00 in/hr0.0 mm/hr 0.00 in0.0 mm
06:35 AM 60.8°F16.0°C 60.8°F16.0°C 100% Calm Calm 3.8 mph6.1 kmh 30.36 in1028.1 mb 0.00 in0.0 mm 0.00 in/hr0.0 mm/hr 0.00 in0.0 mm
06:36 AM 60.6°F15.9°C 60.6°F15.9°C 100% Calm Calm 3.8 mph6.1 kmh 30.36 in1028.1 mb 0.00 in0.0 mm 0.00 in/hr0.0 mm/hr 0.00 in0.0 mm
06:37 AM 60.6°F15.9°C 60.6°F15.9°C 100% Calm Calm 3.8 mph6.1 kmh 30.36 in1028.1 mb 0.00 in0.0 mm 0.00 in/hr0.0 mm/hr 0.00 in0.0 mm
06:38 AM 60.6°F15.9°C 60.6°F15.9°C 100% Calm Calm 3.1 mph5.0 kmh 30.36 in1028.1 mb 0.00 in0.0 mm 0.00 in/hr0.0 mm/hr 0.00 in0.0 mm
06:39 AM 60.6°F15.9°C 60.6°F15.9°C 100% Calm Calm 3.1 mph5.0 kmh 30.36 in1028.1 mb 0.00 in0.0 mm 0.00 in/hr0.0 mm/hr 0.00 in0.0 mm
06:40 AM 60.4°F15.8°C 60.5°F15.8°C 100% Calm Calm -- 30.36 in1028.1 mb 0.00 in0.0 mm 0.00 in/hr0.0 mm/hr 0.00 in0.0 mm
06:41 AM 60.6°F15.9°C 60.6°F15.9°C 100% 0.7 mph SSE1.1 kmh SSE 1.6 mph2.6 kmh 30.36 in1028.1 mb 0.00 in0.0 mm 0.00 in/hr0.0 mm/hr 0.00 in0.0 mm
06:42 AM 60.6°F15.9°C 60.6°F15.9°C 100% Calm Calm 1.6 mph2.6 kmh 30.36 in1028.1 mb 0.00 in0.0 mm 0.00 in/hr0.0 mm/hr 0.00 in0.0 mm
06:43 AM 60.6°F15.9°C 60.6°F15.9°C 100% 0.7 mph SSW1.1 kmh SSW 3.1 mph5.0 kmh 30.36 in1028.1 mb 0.00 in0.0 mm 0.00 in/hr0.0 mm/hr 0.00 in0.0 mm
06:44 AM 60.6°F15.9°C 60.6°F15.9°C 100% 1.6 mph SSW2.6 kmh SSW 3.1 mph5.0 kmh 30.36 in1028.1 mb 0.00 in0.0 mm 0.00 in/hr0.0 mm/hr 0.00 in0.0 mm
06:45 AM 60.8°F16.0°C 60.8°F16.0°C 100% 2.2 mph SSW3.5 kmh SSW 3.1 mph5.0 kmh 30.36 in1028.1 mb 0.00 in0.0 mm 0.00 in/hr0.0 mm/hr 0.00 in0.0 mm
06:46 AM 61.0°F16.1°C 61.0°F16.1°C 100% 1.6 mph SSW2.6 kmh SSW 3.1 mph5.0 kmh 30.36 in1028.1 mb 0.00 in0.0 mm 0.00 in/hr0.0 mm/hr 0.00 in0.0 mm
06:47 AM 61.0°F16.1°C 61.0°F16.1°C 100% 0.7 mph SSW1.1 kmh SSW 3.1 mph5.0 kmh 30.36 in1028.1 mb 0.00 in0.0 mm 0.00 in/hr0.0 mm/hr 0.00 in0.0 mm
06:48 AM 61.0°F16.1°C 61.0°F16.1°C 100% Calm Calm 3.1 mph5.0 kmh 30.36 in1028.1 mb 0.00 in0.0 mm 0.00 in/hr0.0 mm/hr 0.00 in0.0 mm
06:49 AM 60.8°F16.0°C 60.8°F16.0°C 100% Calm Calm 3.1 mph5.0 kmh 30.36 in1028.1 mb 0.00 in0.0 mm 0.00 in/hr0.0 mm/hr 0.00 in0.0 mm
06:50 AM 60.8°F16.0°C 60.8°F16.0°C 100% 0.7 mph SSW1.1 kmh SSW 3.1 mph5.0 kmh 30.36 in1028.1 mb 0.00 in0.0 mm 0.00 in/hr0.0 mm/hr 0.00 in0.0 mm
06:51 AM 60.8°F16.0°C 60.8°F16.0°C 100% 1.6 mph SSW2.6 kmh SSW 3.1 mph5.0 kmh 30.36 in1028.1 mb 0.00 in0.0 mm 0.00 in/hr0.0 mm/hr 0.00 in0.0 mm
06:52 AM 60.8°F16.0°C 60.8°F16.0°C 100% Calm Calm 3.1 mph5.0 kmh 30.36 in1028.1 mb 0.00 in0.0 mm 0.00 in/hr0.0 mm/hr 0.00 in0.0 mm
06:53 AM 60.8°F16.0°C 60.8°F16.0°C 100% Calm Calm 3.1 mph5.0 kmh 30.36 in1028.1 mb 0.00 in0.0 mm 0.00 in/hr0.0 mm/hr 0.00 in0.0 mm
06:54 AM 60.8°F16.0°C 60.8°F16.0°C 100% Calm Calm 3.1 mph5.0 kmh 30.36 in1028.1 mb 0.00 in0.0 mm 0.00 in/hr0.0 mm/hr 0.00 in0.0 mm
06:55 AM 60.8°F16.0°C 60.8°F16.0°C 100% Calm Calm 3.1 mph5.0 kmh 30.36 in1028.1 mb 0.00 in0.0 mm 0.00 in/hr0.0 mm/hr 0.00 in0.0 mm
06:56 AM 60.8°F16.0°C 60.8°F16.0°C 100% Calm Calm 2.2 mph3.5 kmh 30.36 in1028.1 mb 0.00 in0.0 mm 0.00 in/hr0.0 mm/hr 0.00 in0.0 mm
06:57 AM 60.8°F16.0°C 60.8°F16.0°C 100% Calm Calm 2.2 mph3.5 kmh 30.36 in1028.1 mb 0.00 in0.0 mm 0.00 in/hr0.0 mm/hr 0.00 in0.0 mm
06:58 AM 60.6°F15.9°C 60.6°F15.9°C 100% Calm Calm 2.2 mph3.5 kmh 30.36 in1028.1 mb 0.00 in0.0 mm 0.00 in/hr0.0 mm/hr 0.00 in0.0 mm
06:59 AM 60.6°F15.9°C 60.6°F15.9°C 100% Calm Calm 2.2 mph3.5 kmh 30.36 in1028.1 mb 0.00 in0.0 mm 0.00 in/hr0.0 mm/hr 0.00 in0.0 mm
07:00 AM 60.6°F15.9°C 60.6°F15.9°C 100% Calm Calm 2.2 mph3.5 kmh 30.36 in1028.1 mb 0.00 in0.0 mm 0.00 in/hr0.0 mm/hr 0.00 in0.0 mm
07:01 AM 60.4°F15.8°C 60.5°F15.8°C 100% Calm Calm 2.2 mph3.5 kmh 30.36 in1028.1 mb 0.00 in0.0 mm 0.00 in/hr0.0 mm/hr 0.00 in0.0 mm
07:02 AM 60.4°F15.8°C 60.5°F15.8°C 100% Calm Calm -- 30.36 in1028.1 mb 0.00 in0.0 mm 0.00 in/hr0.0 mm/hr 0.00 in0.0 mm
07:03 AM 60.4°F15.8°C 60.5°F15.8°C 100% Calm Calm -- 30.37 in1028.4 mb 0.00 in0.0 mm 0.00 in/hr0.0 mm/hr 0.00 in0.0 mm
07:04 AM 60.4°F15.8°C 60.5°F15.8°C 100% Calm Calm -- 30.37 in1028.4 mb 0.00 in0.0 mm 0.00 in/hr0.0 mm/hr 0.00 in0.0 mm
07:05 AM 60.3°F15.7°C 60.3°F15.7°C 100% Calm Calm -- 30.37 in1028.4 mb 0.00 in0.0 mm 0.00 in/hr0.0 mm/hr 0.00 in0.0 mm
07:06 AM 60.3°F15.7°C 60.3°F15.7°C 100% Calm Calm -- 30.36 in1028.1 mb 0.00 in0.0 mm 0.00 in/hr0.0 mm/hr 0.00 in0.0 mm
07:07 AM 60.1°F15.6°C 60.1°F15.6°C 100% Calm Calm -- 30.37 in1028.4 mb 0.00 in0.0 mm 0.00 in/hr0.0 mm/hr 0.00 in0.0 mm
07:08 AM 60.1°F15.6°C 60.1°F15.6°C 100% Calm Calm -- 30.37 in1028.4 mb 0.00 in0.0 mm 0.00 in/hr0.0 mm/hr 0.00 in0.0 mm
07:09 AM 59.9°F15.5°C 59.9°F15.5°C 100% Calm Calm -- 30.37 in1028.4 mb 0.00 in0.0 mm 0.00 in/hr0.0 mm/hr 0.00 in0.0 mm
07:10 AM 60.1°F15.6°C 60.1°F15.6°C 100% Calm Calm -- 30.37 in1028.4 mb 0.00 in0.0 mm 0.00 in/hr0.0 mm/hr 0.00 in0.0 mm
07:11 AM 60.1°F15.6°C 60.1°F15.6°C 100% Calm Calm -- 30.37 in1028.4 mb 0.00 in0.0 mm 0.00 in/hr0.0 mm/hr 0.00 in0.0 mm
07:12 AM 59.9°F15.5°C 59.9°F15.5°C 100% Calm Calm -- 30.37 in1028.4 mb 0.00 in0.0 mm 0.00 in/hr0.0 mm/hr 0.00 in0.0 mm
07:13 AM 60.1°F15.6°C 60.1°F15.6°C 100% Calm Calm -- 30.37 in1028.4 mb 0.00 in0.0 mm 0.00 in/hr0.0 mm/hr 0.00 in0.0 mm
07:14 AM 60.1°F15.6°C 60.1°F15.6°C 100% Calm Calm -- 30.37 in1028.4 mb 0.00 in0.0 mm 0.00 in/hr0.0 mm/hr 0.00 in0.0 mm
07:15 AM 60.1°F15.6°C 60.1°F15.6°C 100% Calm Calm -- 30.37 in1028.4 mb 0.00 in0.0 mm 0.00 in/hr0.0 mm/hr 0.00 in0.0 mm
07:16 AM 60.1°F15.6°C 60.1°F15.6°C 100% Calm Calm -- 30.37 in1028.4 mb 0.00 in0.0 mm 0.00 in/hr0.0 mm/hr 0.00 in0.0 mm
07:17 AM 59.9°F15.5°C 59.9°F15.5°C 100% Calm Calm -- 30.37 in1028.4 mb 0.00 in0.0 mm 0.00 in/hr0.0 mm/hr 0.00 in0.0 mm
07:18 AM 59.9°F15.5°C 59.9°F15.5°C 100% Calm Calm -- 30.37 in1028.4 mb 0.00 in0.0 mm 0.00 in/hr0.0 mm/hr 0.00 in0.0 mm
07:19 AM 59.9°F15.5°C 59.9°F15.5°C 100% Calm Calm -- 30.37 in1028.4 mb 0.00 in0.0 mm 0.00 in/hr0.0 mm/hr 0.00 in0.0 mm
07:20 AM 59.9°F15.5°C 59.9°F15.5°C 100% Calm Calm -- 30.37 in1028.4 mb 0.00 in0.0 mm 0.00 in/hr0.0 mm/hr 0.00 in0.0 mm
07:21 AM 59.9°F15.5°C 59.9°F15.5°C 100% Calm Calm -- 30.37 in1028.4 mb 0.00 in0.0 mm 0.00 in/hr0.0 mm/hr 0.00 in0.0 mm
07:22 AM 59.9°F15.5°C 59.9°F15.5°C 100% Calm Calm -- 30.37 in1028.4 mb 0.00 in0.0 mm 0.00 in/hr0.0 mm/hr 0.00 in0.0 mm
07:23 AM 59.9°F15.5°C 59.9°F15.5°C 100% Calm Calm -- 30.37 in1028.4 mb 0.00 in0.0 mm 0.00 in/hr0.0 mm/hr 0.00 in0.0 mm
07:24 AM 59.9°F15.5°C 59.9°F15.5°C 100% Calm Calm -- 30.37 in1028.4 mb 0.00 in0.0 mm 0.00 in/hr0.0 mm/hr 0.00 in0.0 mm
07:25 AM 59.9°F15.5°C 59.9°F15.5°C 100% Calm Calm -- 30.37 in1028.4 mb 0.00 in0.0 mm 0.00 in/hr0.0 mm/hr 0.00 in0.0 mm
07:26 AM 59.9°F15.5°C 59.9°F15.5°C 100% Calm Calm -- 30.37 in1028.4 mb 0.00 in0.0 mm 0.00 in/hr0.0 mm/hr 0.00 in0.0 mm
07:27 AM 59.9°F15.5°C 59.9°F15.5°C 100% Calm Calm -- 30.37 in1028.4 mb 0.00 in0.0 mm 0.00 in/hr0.0 mm/hr 0.00 in0.0 mm
07:28 AM 59.9°F15.5°C 59.9°F15.5°C 100% Calm Calm -- 30.37 in1028.4 mb 0.00 in0.0 mm 0.00 in/hr0.0 mm/hr 0.00 in0.0 mm
07:29 AM 59.9°F15.5°C 59.9°F15.5°C 100% Calm Calm -- 30.37 in1028.4 mb 0.00 in0.0 mm 0.00 in/hr0.0 mm/hr 0.00 in0.0 mm
07:30 AM 59.9°F15.5°C 59.9°F15.5°C 100% Calm Calm -- 30.37 in1028.4 mb 0.00 in0.0 mm 0.00 in/hr0.0 mm/hr 0.00 in0.0 mm
07:31 AM 59.7°F15.4°C 59.7°F15.4°C 100% Calm Calm -- 30.37 in1028.4 mb 0.00 in0.0 mm 0.00 in/hr0.0 mm/hr 0.00 in0.0 mm
07:32 AM 59.7°F15.4°C 59.7°F15.4°C 100% Calm Calm -- 30.37 in1028.4 mb 0.00 in0.0 mm 0.00 in/hr0.0 mm/hr 0.00 in0.0 mm
07:33 AM 59.9°F15.5°C 59.9°F15.5°C 100% 2.2 mph SSE3.5 kmh SSE 3.1 mph5.0 kmh 30.37 in1028.4 mb 0.00 in0.0 mm 0.00 in/hr0.0 mm/hr 0.00 in0.0 mm
07:34 AM 60.1°F15.6°C 60.1°F15.6°C 100% 0.7 mph S1.1 kmh S 3.8 mph6.1 kmh 30.37 in1028.4 mb 0.00 in0.0 mm 0.00 in/hr0.0 mm/hr 0.00 in0.0 mm
07:35 AM 60.1°F15.6°C 60.1°F15.6°C 100% Calm Calm 3.8 mph6.1 kmh 30.37 in1028.4 mb 0.00 in0.0 mm 0.00 in/hr0.0 mm/hr 0.00 in0.0 mm
07:36 AM 60.1°F15.6°C 60.1°F15.6°C 100% 0.7 mph SSW1.1 kmh SSW 3.8 mph6.1 kmh 30.37 in1028.4 mb 0.00 in0.0 mm 0.00 in/hr0.0 mm/hr 0.00 in0.0 mm
07:37 AM 60.3°F15.7°C 60.3°F15.7°C 100% Calm Calm 3.8 mph6.1 kmh 30.37 in1028.4 mb 0.00 in0.0 mm 0.00 in/hr0.0 mm/hr 0.00 in0.0 mm
07:38 AM 60.3°F15.7°C 60.3°F15.7°C 100% Calm Calm 3.8 mph6.1 kmh 30.37 in1028.4 mb 0.00 in0.0 mm 0.00 in/hr0.0 mm/hr 0.00 in0.0 mm
07:39 AM 60.3°F15.7°C 60.3°F15.7°C 100% Calm Calm 3.8 mph6.1 kmh 30.37 in1028.4 mb 0.00 in0.0 mm 0.00 in/hr0.0 mm/hr 0.00 in0.0 mm
07:40 AM 60.3°F15.7°C 60.3°F15.7°C 100% Calm Calm 3.8 mph6.1 kmh 30.37 in1028.4 mb 0.00 in0.0 mm 0.00 in/hr0.0 mm/hr 0.00 in0.0 mm
07:41 AM 60.3°F15.7°C 60.3°F15.7°C 100% Calm Calm 3.8 mph6.1 kmh 30.37 in1028.4 mb 0.00 in0.0 mm 0.00 in/hr0.0 mm/hr 0.00 in0.0 mm
07:42 AM 60.4°F15.8°C 60.5°F15.8°C 100% Calm Calm 3.8 mph6.1 kmh 30.37 in1028.4 mb 0.00 in0.0 mm 0.00 in/hr0.0 mm/hr 0.00 in0.0 mm
07:43 AM 60.4°F15.8°C 60.5°F15.8°C 100% Calm Calm 3.8 mph6.1 kmh 30.37 in1028.4 mb 0.00 in0.0 mm 0.00 in/hr0.0 mm/hr 0.00 in0.0 mm
07:44 AM 60.6°F15.9°C 60.6°F15.9°C 100% Calm Calm 3.8 mph6.1 kmh 30.38 in1028.8 mb 0.00 in0.0 mm 0.00 in/hr0.0 mm/hr 0.00 in0.0 mm
07:45 AM 60.6°F15.9°C 60.6°F15.9°C 100% Calm Calm 3.1 mph5.0 kmh 30.37 in1028.4 mb 0.00 in0.0 mm 0.00 in/hr0.0 mm/hr 0.00 in0.0 mm
07:46 AM 60.6°F15.9°C 60.6°F15.9°C 100% Calm Calm 3.1 mph5.0 kmh 30.37 in1028.4 mb 0.00 in0.0 mm 0.00 in/hr0.0 mm/hr 0.00 in0.0 mm
07:47 AM 60.6°F15.9°C 60.6°F15.9°C 100% Calm Calm 1.6 mph2.6 kmh 30.37 in1028.4 mb 0.00 in0.0 mm 0.00 in/hr0.0 mm/hr 0.00 in0.0 mm
07:48 AM 60.6°F15.9°C 60.6°F15.9°C 100% Calm Calm 1.6 mph2.6 kmh 30.37 in1028.4 mb 0.00 in0.0 mm 0.00 in/hr0.0 mm/hr 0.00 in0.0 mm
07:49 AM 60.8°F16.0°C 60.8°F16.0°C 100% Calm Calm 1.6 mph2.6 kmh 30.37 in1028.4 mb 0.00 in0.0 mm 0.00 in/hr0.0 mm/hr 0.00 in0.0 mm
07:50 AM 60.8°F16.0°C 60.8°F16.0°C 100% Calm Calm -- 30.37 in1028.4 mb 0.00 in0.0 mm 0.00 in/hr0.0 mm/hr 0.00 in0.0 mm
07:51 AM 60.8°F16.0°C 60.8°F16.0°C 100% Calm Calm -- 30.37 in1028.4 mb 0.00 in0.0 mm 0.00 in/hr0.0 mm/hr 0.00 in0.0 mm
07:52 AM 60.8°F16.0°C 60.8°F16.0°C 100% Calm Calm -- 30.37 in1028.4 mb 0.00 in0.0 mm 0.00 in/hr0.0 mm/hr 0.00 in0.0 mm
07:53 AM 60.8°F16.0°C 60.8°F16.0°C 100% Calm Calm -- 30.37 in1028.4 mb 0.00 in0.0 mm 0.00 in/hr0.0 mm/hr 0.00 in0.0 mm
07:54 AM 60.8°F16.0°C 60.8°F16.0°C 100% Calm Calm -- 30.37 in1028.4 mb 0.00 in0.0 mm 0.00 in/hr0.0 mm/hr 0.00 in0.0 mm
07:55 AM 60.8°F16.0°C 60.8°F16.0°C 100% Calm Calm -- 30.37 in1028.4 mb 0.00 in0.0 mm 0.00 in/hr0.0 mm/hr 0.00 in0.0 mm
07:56 AM 60.8°F16.0°C 60.8°F16.0°C 100% Calm Calm -- 30.37 in1028.4 mb 0.00 in0.0 mm 0.00 in/hr0.0 mm/hr 0.00 in0.0 mm
07:57 AM 60.6°F15.9°C 60.6°F15.9°C 100% Calm Calm -- 30.37 in1028.4 mb 0.00 in0.0 mm 0.00 in/hr0.0 mm/hr 0.00 in0.0 mm
07:58 AM 60.6°F15.9°C 60.6°F15.9°C 100% Calm Calm -- 30.37 in1028.4 mb 0.00 in0.0 mm 0.00 in/hr0.0 mm/hr 0.00 in0.0 mm
07:59 AM 60.6°F15.9°C 60.6°F15.9°C 100% Calm Calm -- 30.37 in1028.4 mb 0.00 in0.0 mm 0.00 in/hr0.0 mm/hr 0.00 in0.0 mm
08:00 AM 60.6°F15.9°C 60.6°F15.9°C 100% Calm Calm -- 30.36 in1028.1 mb 0.00 in0.0 mm 0.00 in/hr0.0 mm/hr 0.00 in0.0 mm
08:01 AM 60.8°F16.0°C 60.8°F16.0°C 100% Calm Calm -- 30.36 in1028.1 mb 0.00 in0.0 mm 0.00 in/hr0.0 mm/hr 0.00 in0.0 mm
08:02 AM 60.8°F16.0°C 60.8°F16.0°C 100% Calm Calm -- 30.36 in1028.1 mb 0.00 in0.0 mm 0.00 in/hr0.0 mm/hr 0.00 in0.0 mm
08:03 AM 60.8°F16.0°C 60.8°F16.0°C 100% Calm Calm -- 30.36 in1028.1 mb 0.00 in0.0 mm 0.00 in/hr0.0 mm/hr 0.00 in0.0 mm
08:04 AM 60.8°F16.0°C 60.8°F16.0°C 100% Calm Calm -- 30.36 in1028.1 mb 0.00 in0.0 mm 0.00 in/hr0.0 mm/hr 0.00 in0.0 mm
08:05 AM 61.0°F16.1°C 61.0°F16.1°C 100% Calm Calm -- 30.36 in1028.1 mb 0.00 in0.0 mm 0.00 in/hr0.0 mm/hr 0.00 in0.0 mm
08:06 AM 61.0°F16.1°C 61.0°F16.1°C 100% Calm Calm -- 30.36 in1028.1 mb 0.00 in0.0 mm 0.00 in/hr0.0 mm/hr 0.00 in0.0 mm
08:07 AM 61.0°F16.1°C 61.0°F16.1°C 100% Calm Calm -- 30.36 in1028.1 mb 0.00 in0.0 mm 0.00 in/hr0.0 mm/hr 0.00 in0.0 mm
08:08 AM 61.0°F16.1°C 61.0°F16.1°C 100% Calm Calm -- 30.36 in1028.1 mb 0.00 in0.0 mm 0.00 in/hr0.0 mm/hr 0.00 in0.0 mm
08:09 AM 61.0°F16.1°C 61.0°F16.1°C 100% 1.6 mph ENE2.6 kmh ENE 2.2 mph3.5 kmh 30.36 in1028.1 mb 0.00 in0.0 mm 0.00 in/hr0.0 mm/hr 0.00 in0.0 mm
08:10 AM 60.8°F16.0°C 60.8°F16.0°C 100% 0.7 mph ENE1.1 kmh ENE 2.2 mph3.5 kmh 30.36 in1028.1 mb 0.00 in0.0 mm 0.00 in/hr0.0 mm/hr 0.00 in0.0 mm
08:11 AM 60.8°F16.0°C 60.8°F16.0°C 100% 3.1 mph ENE5.0 kmh ENE 3.8 mph6.1 kmh 30.36 in1028.1 mb 0.00 in0.0 mm 0.00 in/hr0.0 mm/hr 0.00 in0.0 mm
08:12 AM 60.8°F16.0°C 60.8°F16.0°C 100% 2.2 mph ENE3.5 kmh ENE 3.8 mph6.1 kmh 30.36 in1028.1 mb 0.00 in0.0 mm 0.00 in/hr0.0 mm/hr 0.00 in0.0 mm
08:13 AM 60.6°F15.9°C 60.6°F15.9°C 100% 3.1 mph ENE5.0 kmh ENE 3.8 mph6.1 kmh 30.36 in1028.1 mb 0.00 in0.0 mm 0.00 in/hr0.0 mm/hr 0.00 in0.0 mm
08:14 AM 60.6°F15.9°C 60.6°F15.9°C 100% 3.1 mph ENE5.0 kmh ENE 3.8 mph6.1 kmh 30.36 in1028.1 mb 0.00 in0.0 mm 0.00 in/hr0.0 mm/hr 0.00 in0.0 mm
08:15 AM 60.6°F15.9°C 60.6°F15.9°C 100% 3.1 mph ENE5.0 kmh ENE 3.8 mph6.1 kmh 30.36 in1028.1 mb 0.00 in0.0 mm 0.00 in/hr0.0 mm/hr 0.00 in0.0 mm
08:16 AM 60.6°F15.9°C 60.6°F15.9°C 100% 3.1 mph ENE5.0 kmh ENE 3.8 mph6.1 kmh 30.36 in1028.1 mb 0.00 in0.0 mm 0.00 in/hr0.0 mm/hr 0.00 in0.0 mm
08:17 AM 60.6°F15.9°C 60.6°F15.9°C 100% 3.1 mph ENE5.0 kmh ENE 3.8 mph6.1 kmh 30.36 in1028.1 mb 0.00 in0.0 mm 0.00 in/hr0.0 mm/hr 0.00 in0.0 mm
08:18 AM 60.6°F15.9°C 60.6°F15.9°C 100% 3.1 mph ENE5.0 kmh ENE 3.8 mph6.1 kmh 30.36 in1028.1 mb 0.00 in0.0 mm 0.00 in/hr0.0 mm/hr 0.00 in0.0 mm
08:19 AM 60.6°F15.9°C 60.6°F15.9°C 100% 3.1 mph ENE5.0 kmh ENE 3.8 mph6.1 kmh 30.36 in1028.1 mb 0.00 in0.0 mm 0.00 in/hr0.0 mm/hr 0.00 in0.0 mm
08:20 AM 60.6°F15.9°C 60.6°F15.9°C 100% 3.1 mph ENE5.0 kmh ENE 3.8 mph6.1 kmh 30.36 in1028.1 mb 0.00 in0.0 mm 0.00 in/hr0.0 mm/hr 0.00 in0.0 mm
08:21 AM 60.6°F15.9°C 60.6°F15.9°C 100% 3.1 mph ENE5.0 kmh ENE 3.8 mph6.1 kmh 30.36 in1028.1 mb 0.00 in0.0 mm 0.00 in/hr0.0 mm/hr 0.00 in0.0 mm
08:22 AM 60.6°F15.9°C 60.6°F15.9°C 100% 3.1 mph ENE5.0 kmh ENE 3.8 mph6.1 kmh 30.36 in1028.1 mb 0.00 in0.0 mm 0.00 in/hr0.0 mm/hr 0.00 in0.0 mm
08:23 AM 60.8°F16.0°C 60.8°F16.0°C 100% 0.7 mph ENE1.1 kmh ENE 3.8 mph6.1 kmh 30.36 in1028.1 mb 0.00 in0.0 mm 0.00 in/hr0.0 mm/hr 0.00 in0.0 mm
08:24 AM 60.8°F16.0°C 60.8°F16.0°C 100% 0.7 mph E1.1 kmh E 3.8 mph6.1 kmh 30.36 in1028.1 mb 0.00 in0.0 mm 0.00 in/hr0.0 mm/hr 0.00 in0.0 mm
08:25 AM 60.8°F16.0°C 60.8°F16.0°C 100% 0.7 mph E1.1 kmh E 3.8 mph6.1 kmh 30.35 in1027.8 mb 0.00 in0.0 mm 0.00 in/hr0.0 mm/hr 0.00 in0.0 mm
08:26 AM 60.8°F16.0°C 60.8°F16.0°C 100% 1.6 mph E2.6 kmh E 3.8 mph6.1 kmh 30.35 in1027.8 mb 0.00 in0.0 mm 0.00 in/hr0.0 mm/hr 0.00 in0.0 mm
08:27 AM 60.8°F16.0°C 60.8°F16.0°C 100% 2.2 mph E3.5 kmh E 3.8 mph6.1 kmh 30.35 in1027.8 mb 0.00 in0.0 mm 0.00 in/hr0.0 mm/hr 0.00 in0.0 mm
08:28 AM 60.8°F16.0°C 60.8°F16.0°C 100% 0.7 mph E1.1 kmh E 3.8 mph6.1 kmh 30.35 in1027.8 mb 0.00 in0.0 mm 0.00 in/hr0.0 mm/hr 0.00 in0.0 mm
08:29 AM 60.8°F16.0°C 60.8°F16.0°C 100% 1.6 mph ESE2.6 kmh ESE 3.8 mph6.1 kmh 30.35 in1027.8 mb 0.00 in0.0 mm 0.00 in/hr0.0 mm/hr 0.00 in0.0 mm
08:30 AM 60.8°F16.0°C 60.8°F16.0°C 100% Calm Calm 3.8 mph6.1 kmh 30.35 in1027.8 mb 0.00 in0.0 mm 0.00 in/hr0.0 mm/hr 0.00 in0.0 mm
08:31 AM 60.8°F16.0°C 60.8°F16.0°C 100% Calm Calm 3.8 mph6.1 kmh 30.35 in1027.8 mb 0.00 in0.0 mm 0.00 in/hr0.0 mm/hr 0.00 in0.0 mm
08:32 AM 60.8°F16.0°C 60.8°F16.0°C 100% Calm Calm 3.8 mph6.1 kmh 30.35 in1027.8 mb 0.00 in0.0 mm 0.00 in/hr0.0 mm/hr 0.00 in0.0 mm
08:33 AM 60.8°F16.0°C 60.8°F16.0°C 100% 1.6 mph SE2.6 kmh SE 3.8 mph6.1 kmh 30.35 in1027.8 mb 0.00 in0.0 mm 0.00 in/hr0.0 mm/hr 0.00 in0.0 mm
08:34 AM 60.8°F16.0°C 60.8°F16.0°C 100% 1.6 mph SE2.6 kmh SE 3.8 mph6.1 kmh 30.35 in1027.8 mb 0.00 in0.0 mm 0.00 in/hr0.0 mm/hr 0.00 in0.0 mm
08:35 AM 60.8°F16.0°C 60.8°F16.0°C 100% 1.6 mph SE2.6 kmh SE 3.8 mph6.1 kmh 30.35 in1027.8 mb 0.00 in0.0 mm 0.00 in/hr0.0 mm/hr 0.00 in0.0 mm
08:36 AM 60.8°F16.0°C 60.8°F16.0°C 100% 0.7 mph ESE1.1 kmh ESE 3.8 mph6.1 kmh 30.36 in1028.1 mb 0.00 in0.0 mm 0.00 in/hr0.0 mm/hr 0.00 in0.0 mm
08:37 AM 60.8°F16.0°C 60.8°F16.0°C 100% 0.7 mph E1.1 kmh E 3.8 mph6.1 kmh 30.35 in1027.8 mb 0.00 in0.0 mm 0.00 in/hr0.0 mm/hr 0.00 in0.0 mm
08:38 AM 60.8°F16.0°C 60.8°F16.0°C 100% 0.7 mph E1.1 kmh E 3.8 mph6.1 kmh 30.35 in1027.8 mb 0.00 in0.0 mm 0.00 in/hr0.0 mm/hr 0.00 in0.0 mm
08:39 AM 60.8°F16.0°C 60.8°F16.0°C 100% Calm Calm 3.8 mph6.1 kmh 30.35 in1027.8 mb 0.00 in0.0 mm 0.00 in/hr0.0 mm/hr 0.00 in0.0 mm
08:40 AM 60.8°F16.0°C 60.8°F16.0°C 100% 0.7 mph E1.1 kmh E 3.8 mph6.1 kmh 30.35 in1027.8 mb 0.00 in0.0 mm 0.00 in/hr0.0 mm/hr 0.00 in0.0 mm
08:41 AM 60.8°F16.0°C 60.8°F16.0°C 100% Calm Calm 3.8 mph6.1 kmh 30.36 in1028.1 mb 0.00 in0.0 mm 0.00 in/hr0.0 mm/hr 0.00 in0.0 mm
08:42 AM 60.8°F16.0°C 60.8°F16.0°C 100% 0.7 mph E1.1 kmh E 3.8 mph6.1 kmh 30.36 in1028.1 mb 0.00 in0.0 mm 0.00 in/hr0.0 mm/hr 0.00 in0.0 mm
08:43 AM 60.8°F16.0°C 60.8°F16.0°C 100% Calm Calm 3.8 mph6.1 kmh 30.36 in1028.1 mb 0.00 in0.0 mm 0.00 in/hr0.0 mm/hr 0.00 in0.0 mm
08:44 AM 60.8°F16.0°C 60.8°F16.0°C 100% Calm Calm 3.8 mph6.1 kmh 30.36 in1028.1 mb 0.00 in0.0 mm 0.00 in/hr0.0 mm/hr 0.00 in0.0 mm
08:45 AM 60.8°F16.0°C 60.8°F16.0°C 100% Calm Calm 2.2 mph3.5 kmh 30.36 in1028.1 mb 0.00 in0.0 mm 0.00 in/hr0.0 mm/hr 0.00 in0.0 mm
08:46 AM 60.8°F16.0°C 60.8°F16.0°C 100% Calm Calm 2.2 mph3.5 kmh 30.36 in1028.1 mb 0.00 in0.0 mm 0.00 in/hr0.0 mm/hr 0.00 in0.0 mm
08:47 AM 60.8°F16.0°C 60.8°F16.0°C 100% Calm Calm 2.2 mph3.5 kmh 30.36 in1028.1 mb 0.00 in0.0 mm 0.00 in/hr0.0 mm/hr 0.00 in0.0 mm
08:48 AM 60.8°F16.0°C 60.8°F16.0°C 100% Calm Calm 2.2 mph3.5 kmh 30.36 in1028.1 mb 0.00 in0.0 mm 0.00 in/hr0.0 mm/hr 0.00 in0.0 mm
08:49 AM 61.0°F16.1°C 61.0°F16.1°C 100% Calm Calm 2.2 mph3.5 kmh 30.36 in1028.1 mb 0.00 in0.0 mm 0.00 in/hr0.0 mm/hr 0.00 in0.0 mm
08:50 AM 61.0°F16.1°C 61.0°F16.1°C 100% Calm Calm 2.2 mph3.5 kmh 30.36 in1028.1 mb 0.00 in0.0 mm 0.00 in/hr0.0 mm/hr 0.00 in0.0 mm
08:51 AM 61.0°F16.1°C 61.0°F16.1°C 100% Calm Calm 2.2 mph3.5 kmh 30.36 in1028.1 mb 0.00 in0.0 mm 0.00 in/hr0.0 mm/hr 0.00 in0.0 mm
08:52 AM 61.0°F16.1°C 61.0°F16.1°C 100% Calm Calm 2.2 mph3.5 kmh 30.36 in1028.1 mb 0.00 in0.0 mm 0.00 in/hr0.0 mm/hr 0.00 in0.0 mm
08:53 AM 61.3°F16.3°C 61.4°F16.3°C 100% Calm Calm 1.6 mph2.6 kmh 30.36 in1028.1 mb 0.00 in0.0 mm 0.00 in/hr0.0 mm/hr 0.00 in0.0 mm
08:54 AM 61.5°F16.4°C 61.5°F16.4°C 100% Calm Calm -- 30.36 in1028.1 mb 0.00 in0.0 mm 0.00 in/hr0.0 mm/hr 0.00 in0.0 mm
08:55 AM 61.5°F16.4°C 61.5°F16.4°C 100% Calm Calm -- 30.36 in1028.1 mb 0.00 in0.0 mm 0.00 in/hr0.0 mm/hr 0.00 in0.0 mm
08:56 AM 61.5°F16.4°C 61.5°F16.4°C 100% Calm Calm -- 30.36 in1028.1 mb 0.00 in0.0 mm 0.00 in/hr0.0 mm/hr 0.00 in0.0 mm
08:57 AM 61.3°F16.3°C 61.4°F16.3°C 100% Calm Calm -- 30.36 in1028.1 mb 0.00 in0.0 mm 0.00 in/hr0.0 mm/hr 0.00 in0.0 mm
08:58 AM 61.5°F16.4°C 61.5°F16.4°C 100% Calm Calm -- 30.36 in1028.1 mb 0.00 in0.0 mm 0.00 in/hr0.0 mm/hr 0.00 in0.0 mm
08:59 AM 61.5°F16.4°C 61.5°F16.4°C 100% Calm Calm -- 30.36 in1028.1 mb 0.00 in0.0 mm 0.00 in/hr0.0 mm/hr 0.00 in0.0 mm
09:00 AM 61.5°F16.4°C 61.5°F16.4°C 100% Calm Calm -- 30.36 in1028.1 mb 0.00 in0.0 mm 0.00 in/hr0.0 mm/hr 0.00 in0.0 mm
09:01 AM 61.7°F16.5°C 61.7°F16.5°C 100% Calm Calm -- 30.36 in1028.1 mb 0.00 in0.0 mm 0.00 in/hr0.0 mm/hr 0.00 in0.0 mm
09:02 AM 61.9°F16.6°C 61.9°F16.6°C 100% Calm Calm -- 30.36 in1028.1 mb 0.00 in0.0 mm 0.00 in/hr0.0 mm/hr 0.00 in0.0 mm
09:03 AM 62.1°F16.7°C 62.1°F16.7°C 100% Calm Calm -- 30.36 in1028.1 mb 0.00 in0.0 mm 0.00 in/hr0.0 mm/hr 0.00 in0.0 mm
09:04 AM 61.9°F16.6°C 61.9°F16.6°C 100% Calm Calm -- 30.36 in1028.1 mb 0.00 in0.0 mm 0.00 in/hr0.0 mm/hr 0.00 in0.0 mm
09:05 AM 61.9°F16.6°C 61.9°F16.6°C 100% Calm Calm -- 30.36 in1028.1 mb 0.00 in0.0 mm 0.00 in/hr0.0 mm/hr 0.00 in0.0 mm
09:06 AM 61.9°F16.6°C 61.9°F16.6°C 100% Calm Calm 1.6 mph2.6 kmh 30.36 in1028.1 mb 0.00 in0.0 mm 0.00 in/hr0.0 mm/hr 0.00 in0.0 mm
09:07 AM 61.9°F16.6°C 61.9°F16.6°C 100% 1.6 mph ENE2.6 kmh ENE 3.1 mph5.0 kmh 30.36 in1028.1 mb 0.00 in0.0 mm 0.00 in/hr0.0 mm/hr 0.00 in0.0 mm
09:08 AM 61.9°F16.6°C 61.9°F16.6°C 100% 1.6 mph ENE2.6 kmh ENE 3.1 mph5.0 kmh 30.36 in1028.1 mb 0.00 in0.0 mm 0.00 in/hr0.0 mm/hr 0.00 in0.0 mm
09:09 AM 61.9°F16.6°C 61.9°F16.6°C 100% 1.6 mph ENE2.6 kmh ENE 3.1 mph5.0 kmh 30.36 in1028.1 mb 0.00 in0.0 mm 0.00 in/hr0.0 mm/hr 0.00 in0.0 mm
09:10 AM 61.9°F16.6°C 61.9°F16.6°C 100% 0.7 mph ENE1.1 kmh ENE 3.1 mph5.0 kmh 30.36 in1028.1 mb 0.00 in0.0 mm 0.00 in/hr0.0 mm/hr 0.00 in0.0 mm
09:11 AM 62.2°F16.8°C 62.3°F16.8°C 100% 2.2 mph ENE3.5 kmh ENE 3.1 mph5.0 kmh 30.36 in1028.1 mb 0.00 in0.0 mm 0.00 in/hr0.0 mm/hr 0.00 in0.0 mm
09:12 AM 62.4°F16.9°C 62.4°F16.9°C 100% 2.2 mph ENE3.5 kmh ENE 3.1 mph5.0 kmh 30.36 in1028.1 mb 0.00 in0.0 mm 0.00 in/hr0.0 mm/hr 0.00 in0.0 mm
09:13 AM 62.6°F17.0°C 62.6°F17.0°C 100% 0.7 mph ENE1.1 kmh ENE 3.1 mph5.0 kmh 30.36 in1028.1 mb 0.00 in0.0 mm 0.00 in/hr0.0 mm/hr 0.00 in0.0 mm
09:14 AM 63.0°F17.2°C 63.0°F17.2°C 100% 0.7 mph ENE1.1 kmh ENE 3.1 mph5.0 kmh 30.36 in1028.1 mb 0.00 in0.0 mm 0.00 in/hr0.0 mm/hr 0.00 in0.0 mm
09:15 AM 63.3°F17.4°C 63.3°F17.4°C 100% Calm Calm 3.1 mph5.0 kmh 30.36 in1028.1 mb 0.00 in0.0 mm 0.00 in/hr0.0 mm/hr 0.00 in0.0 mm
09:16 AM 63.9°F17.7°C 63.9°F17.7°C 100% 0.7 mph ENE1.1 kmh ENE 3.1 mph5.0 kmh 30.36 in1028.1 mb 0.00 in0.0 mm 0.00 in/hr0.0 mm/hr 0.00 in0.0 mm
09:17 AM 64.0°F17.8°C 64.1°F17.8°C 100% 1.6 mph ENE2.6 kmh ENE 3.1 mph5.0 kmh 30.36 in1028.1 mb 0.00 in0.0 mm 0.00 in/hr0.0 mm/hr 0.00 in0.0 mm
09:18 AM 64.0°F17.8°C 64.1°F17.8°C 100% Calm Calm 3.1 mph5.0 kmh 30.36 in1028.1 mb 0.00 in0.0 mm 0.00 in/hr0.0 mm/hr 0.00 in0.0 mm
09:19 AM 64.0°F17.8°C 64.1°F17.8°C 100% Calm Calm 3.1 mph5.0 kmh 30.36 in1028.1 mb 0.00 in0.0 mm 0.00 in/hr0.0 mm/hr 0.00 in0.0 mm
09:20 AM 64.4°F18.0°C 64.4°F18.0°C 100% Calm Calm 3.1 mph5.0 kmh 30.36 in1028.1 mb 0.00 in0.0 mm 0.00 in/hr0.0 mm/hr 0.00 in0.0 mm
09:21 AM 64.9°F18.3°C 65.0°F18.3°C 100% Calm Calm 3.1 mph5.0 kmh 30.36 in1028.1 mb 0.00 in0.0 mm 0.00 in/hr0.0 mm/hr 0.00 in0.0 mm
09:22 AM 64.9°F18.3°C 65.0°F18.3°C 100% 0.7 mph NE1.1 kmh NE 3.1 mph5.0 kmh 30.36 in1028.1 mb 0.00 in0.0 mm 0.00 in/hr0.0 mm/hr 0.00 in0.0 mm
09:23 AM 65.1°F18.4°C 65.1°F18.4°C 100% Calm Calm 3.1 mph5.0 kmh 30.36 in1028.1 mb 0.00 in0.0 mm 0.00 in/hr0.0 mm/hr 0.00 in0.0 mm
09:24 AM 65.3°F18.5°C 65.3°F18.5°C 100% Calm Calm 3.1 mph5.0 kmh 30.36 in1028.1 mb 0.00 in0.0 mm 0.00 in/hr0.0 mm/hr 0.00 in0.0 mm
09:25 AM 65.1°F18.4°C 65.1°F18.4°C 100% 0.7 mph NE1.1 kmh NE 3.1 mph5.0 kmh 30.36 in1028.1 mb 0.00 in0.0 mm 0.00 in/hr0.0 mm/hr 0.00 in0.0 mm
09:26 AM 65.1°F18.4°C 65.1°F18.4°C 100% Calm Calm 3.1 mph5.0 kmh 30.36 in1028.1 mb 0.00 in0.0 mm 0.00 in/hr0.0 mm/hr 0.00 in0.0 mm
09:27 AM 65.3°F18.5°C 65.3°F18.5°C 100% Calm Calm 3.1 mph5.0 kmh 30.36 in1028.1 mb 0.00 in0.0 mm 0.00 in/hr0.0 mm/hr 0.00 in0.0 mm
09:28 AM 65.5°F18.6°C 65.5°F18.6°C 100% Calm Calm 2.2 mph3.5 kmh 30.36 in1028.1 mb 0.00 in0.0 mm 0.00 in/hr0.0 mm/hr 0.00 in0.0 mm
09:29 AM 65.7°F18.7°C 65.7°F18.7°C 100% Calm Calm 2.2 mph3.5 kmh 30.36 in1028.1 mb 0.00 in0.0 mm 0.00 in/hr0.0 mm/hr 0.00 in0.0 mm
09:30 AM 65.8°F18.8°C 65.9°F18.8°C 100% Calm Calm 2.2 mph3.5 kmh 30.36 in1028.1 mb 0.00 in0.0 mm 0.00 in/hr0.0 mm/hr 0.00 in0.0 mm
09:31 AM 65.8°F18.8°C 65.9°F18.8°C 100% Calm Calm 2.2 mph3.5 kmh 30.36 in1028.1 mb 0.00 in0.0 mm 0.00 in/hr0.0 mm/hr 0.00 in0.0 mm
09:32 AM 65.8°F18.8°C 65.9°F18.8°C 100% Calm Calm 2.2 mph3.5 kmh 30.36 in1028.1 mb 0.00 in0.0 mm 0.00 in/hr0.0 mm/hr 0.00 in0.0 mm
09:33 AM 66.4°F19.1°C 65.8°F18.8°C 98% Calm Calm 2.2 mph3.5 kmh 30.36 in1028.1 mb 0.00 in0.0 mm 0.00 in/hr0.0 mm/hr 0.00 in0.0 mm
09:34 AM 66.6°F19.2°C 66.0°F18.9°C 98% Calm Calm 2.2 mph3.5 kmh 30.36 in1028.1 mb 0.00 in0.0 mm 0.00 in/hr0.0 mm/hr 0.00 in0.0 mm
09:35 AM 66.7°F19.3°C 65.9°F18.8°C 97% Calm Calm 1.6 mph2.6 kmh 30.36 in1028.1 mb 0.00 in0.0 mm 0.00 in/hr0.0 mm/hr 0.00 in0.0 mm
09:36 AM 67.1°F19.5°C 66.3°F19.1°C 97% Calm Calm 1.6 mph2.6 kmh 30.36 in1028.1 mb 0.00 in0.0 mm 0.00 in/hr0.0 mm/hr 0.00 in0.0 mm
09:37 AM 67.5°F19.7°C 66.3°F19.1°C 96% Calm Calm 1.6 mph2.6 kmh 30.36 in1028.1 mb 0.00 in0.0 mm 0.00 in/hr0.0 mm/hr 0.00 in0.0 mm
09:38 AM 67.3°F19.6°C 66.1°F18.9°C 96% Calm Calm 1.6 mph2.6 kmh 30.36 in1028.1 mb 0.00 in0.0 mm 0.00 in/hr0.0 mm/hr 0.00 in0.0 mm
09:39 AM 67.1°F19.5°C 65.6°F18.7°C 95% 0.7 mph NE1.1 kmh NE 2.2 mph3.5 kmh 30.36 in1028.1 mb 0.00 in0.0 mm 0.00 in/hr0.0 mm/hr 0.00 in0.0 mm
09:40 AM 66.6°F19.2°C 65.1°F18.4°C 95% 0.7 mph NE1.1 kmh NE 2.2 mph3.5 kmh 30.36 in1028.1 mb 0.00 in0.0 mm 0.00 in/hr0.0 mm/hr 0.00 in0.0 mm
09:41 AM 66.4°F19.1°C 64.9°F18.3°C 95% Calm Calm 2.2 mph3.5 kmh 30.36 in1028.1 mb 0.00 in0.0 mm 0.00 in/hr0.0 mm/hr 0.00 in0.0 mm
09:42 AM 66.6°F19.2°C 65.1°F18.4°C 95% Calm Calm 2.2 mph3.5 kmh 30.36 in1028.1 mb 0.00 in0.0 mm 0.00 in/hr0.0 mm/hr 0.00 in0.0 mm
09:43 AM 66.6°F19.2°C 65.1°F18.4°C 95% Calm Calm 2.2 mph3.5 kmh 30.36 in1028.1 mb 0.00 in0.0 mm 0.00 in/hr0.0 mm/hr 0.00 in0.0 mm
09:44 AM 66.9°F19.4°C 65.5°F18.6°C 95% Calm Calm 2.2 mph3.5 kmh 30.36 in1028.1 mb 0.00 in0.0 mm 0.00 in/hr0.0 mm/hr 0.00 in0.0 mm
09:45 AM 66.7°F19.3°C 65.3°F18.5°C 95% 0.7 mph NNE1.1 kmh NNE 2.2 mph3.5 kmh 30.36 in1028.1 mb 0.00 in0.0 mm 0.00 in/hr0.0 mm/hr 0.00 in0.0 mm
09:46 AM 66.7°F19.3°C 65.3°F18.5°C 95% 0.7 mph N1.1 kmh N 2.2 mph3.5 kmh 30.36 in1028.1 mb 0.00 in0.0 mm 0.00 in/hr0.0 mm/hr 0.00 in0.0 mm
09:47 AM 66.6°F19.2°C 65.1°F18.4°C 95% 0.7 mph NNE1.1 kmh NNE 3.1 mph5.0 kmh 30.36 in1028.1 mb 0.00 in0.0 mm 0.00 in/hr0.0 mm/hr 0.00 in0.0 mm
09:48 AM 66.4°F19.1°C 64.3°F17.9°C 93% 1.6 mph NE2.6 kmh NE 3.1 mph5.0 kmh 30.36 in1028.1 mb 0.00 in0.0 mm 0.00 in/hr0.0 mm/hr 0.00 in0.0 mm
09:49 AM 65.8°F18.8°C 64.4°F18.0°C 95% Calm Calm 3.1 mph5.0 kmh 30.36 in1028.1 mb 0.00 in0.0 mm 0.00 in/hr0.0 mm/hr 0.00 in0.0 mm
09:50 AM 66.0°F18.9°C 64.9°F18.3°C 96% Calm Calm 3.1 mph5.0 kmh 30.36 in1028.1 mb 0.00 in0.0 mm 0.00 in/hr0.0 mm/hr 0.00 in0.0 mm
09:51 AM 66.2°F19.0°C 64.8°F18.2°C 95% Calm Calm 3.1 mph5.0 kmh 30.36 in1028.1 mb 0.00 in0.0 mm 0.00 in/hr0.0 mm/hr 0.00 in0.0 mm
09:52 AM 66.4°F19.1°C 64.9°F18.3°C 95% Calm Calm 3.1 mph5.0 kmh 30.36 in1028.1 mb 0.00 in0.0 mm 0.00 in/hr0.0 mm/hr 0.00 in0.0 mm
09:53 AM 66.6°F19.2°C 65.1°F18.4°C 95% Calm Calm 3.1 mph5.0 kmh 30.36 in1028.1 mb 0.00 in0.0 mm 0.00 in/hr0.0 mm/hr 0.00 in0.0 mm
09:54 AM 66.6°F19.2°C 65.1°F18.4°C 95% Calm Calm 3.1 mph5.0 kmh 30.36 in1028.1 mb 0.00 in0.0 mm 0.00 in/hr0.0 mm/hr 0.00 in0.0 mm
09:55 AM 66.7°F19.3°C 65.3°F18.5°C 95% Calm Calm 3.1 mph5.0 kmh 30.36 in1028.1 mb 0.00 in0.0 mm 0.00 in/hr0.0 mm/hr 0.00 in0.0 mm
09:56 AM 66.6°F19.2°C 65.1°F18.4°C 95% Calm Calm 3.1 mph5.0 kmh 30.36 in1028.1 mb 0.00 in0.0 mm 0.00 in/hr0.0 mm/hr 0.00 in0.0 mm
09:57 AM 66.6°F19.2°C 65.1°F18.4°C 95% Calm Calm 3.1 mph5.0 kmh 30.36 in1028.1 mb 0.00 in0.0 mm 0.00 in/hr0.0 mm/hr 0.00 in0.0 mm
09:58 AM 66.7°F19.3°C 65.3°F18.5°C 95% Calm Calm 1.6 mph2.6 kmh 30.36 in1028.1 mb 0.00 in0.0 mm 0.00 in/hr0.0 mm/hr 0.00 in0.0 mm
09:59 AM 66.7°F19.3°C 65.3°F18.5°C 95% Calm Calm 1.6 mph2.6 kmh 30.36 in1028.1 mb 0.00 in0.0 mm 0.00 in/hr0.0 mm/hr 0.00 in0.0 mm
10:00 AM 66.9°F19.4°C 65.8°F18.8°C 96% Calm Calm -- 30.36 in1028.1 mb 0.00 in0.0 mm 0.00 in/hr0.0 mm/hr 0.00 in0.0 mm
10:01 AM 66.9°F19.4°C 65.8°F18.8°C 96% Calm Calm -- 30.36 in1028.1 mb 0.00 in0.0 mm 0.00 in/hr0.0 mm/hr 0.00 in0.0 mm
10:02 AM 67.1°F19.5°C 66.0°F18.9°C 96% Calm Calm -- 30.36 in1028.1 mb 0.00 in0.0 mm 0.00 in/hr0.0 mm/hr 0.00 in0.0 mm
10:03 AM 67.1°F19.5°C 66.0°F18.9°C 96% Calm Calm -- 30.36 in1028.1 mb 0.00 in0.0 mm 0.00 in/hr0.0 mm/hr 0.00 in0.0 mm
10:04 AM 67.1°F19.5°C 66.0°F18.9°C 96% Calm Calm -- 30.36 in1028.1 mb 0.00 in0.0 mm 0.00 in/hr0.0 mm/hr 0.00 in0.0 mm
10:05 AM 67.5°F19.7°C 66.3°F19.1°C 96% 0.7 mph ENE1.1 kmh ENE 1.6 mph2.6 kmh 30.36 in1028.1 mb 0.00 in0.0 mm 0.00 in/hr0.0 mm/hr 0.00 in0.0 mm
10:06 AM 67.5°F19.7°C 66.0°F18.9°C 95% 0.7 mph ENE1.1 kmh ENE 2.2 mph3.5 kmh 30.36 in1028.1 mb 0.00 in0.0 mm 0.00 in/hr0.0 mm/hr 0.00 in0.0 mm
10:07 AM 67.3°F19.6°C 65.8°F18.8°C 95% 1.6 mph ENE2.6 kmh ENE 2.2 mph3.5 kmh 30.36 in1028.1 mb 0.00 in0.0 mm 0.00 in/hr0.0 mm/hr 0.00 in0.0 mm
10:08 AM 66.9°F19.4°C 64.9°F18.3°C 93% 0.7 mph NE1.1 kmh NE 2.2 mph3.5 kmh 30.36 in1028.1 mb 0.00 in0.0 mm 0.00 in/hr0.0 mm/hr 0.00 in0.0 mm
10:09 AM 66.7°F19.3°C 64.4°F18.0°C 92% 0.7 mph ENE1.1 kmh ENE 2.2 mph3.5 kmh 30.36 in1028.1 mb 0.00 in0.0 mm 0.00 in/hr0.0 mm/hr 0.00 in0.0 mm
10:10 AM 66.7°F19.3°C 64.4°F18.0°C 92% 0.7 mph ENE1.1 kmh ENE 2.2 mph3.5 kmh 30.36 in1028.1 mb 0.00 in0.0 mm 0.00 in/hr0.0 mm/hr 0.00 in0.0 mm
10:11 AM 66.7°F19.3°C 64.7°F18.2°C 93% Calm Calm 2.2 mph3.5 kmh 30.36 in1028.1 mb 0.00 in0.0 mm 0.00 in/hr0.0 mm/hr 0.00 in0.0 mm
10:12 AM 67.1°F19.5°C 65.0°F18.3°C 93% Calm Calm 2.2 mph3.5 kmh 30.36 in1028.1 mb 0.00 in0.0 mm 0.00 in/hr0.0 mm/hr 0.00 in0.0 mm
10:13 AM 67.5°F19.7°C 66.0°F18.9°C 95% Calm Calm 2.2 mph3.5 kmh 30.36 in1028.1 mb 0.00 in0.0 mm 0.00 in/hr0.0 mm/hr 0.00 in0.0 mm
10:14 AM 67.8°F19.9°C 66.4°F19.1°C 95% Calm Calm 2.2 mph3.5 kmh 30.36 in1028.1 mb 0.00 in0.0 mm 0.00 in/hr0.0 mm/hr 0.00 in0.0 mm
10:15 AM 67.8°F19.9°C 65.8°F18.8°C 93% Calm Calm 2.2 mph3.5 kmh 30.36 in1028.1 mb 0.00 in0.0 mm 0.00 in/hr0.0 mm/hr 0.00 in0.0 mm
10:16 AM 68.5°F20.3°C 65.8°F18.8°C 91% Calm Calm 2.2 mph3.5 kmh 30.36 in1028.1 mb 0.00 in0.0 mm 0.00 in/hr0.0 mm/hr 0.00 in0.0 mm
10:17 AM 69.3°F20.7°C 66.2°F19.0°C 90% Calm Calm 2.2 mph3.5 kmh 30.36 in1028.1 mb 0.00 in0.0 mm 0.00 in/hr0.0 mm/hr 0.00 in0.0 mm
10:18 AM 69.6°F20.9°C 65.9°F18.8°C 88% Calm Calm 2.2 mph3.5 kmh 30.36 in1028.1 mb 0.00 in0.0 mm 0.00 in/hr0.0 mm/hr 0.00 in0.0 mm
10:19 AM 69.6°F20.9°C 65.6°F18.7°C 87% Calm Calm 1.6 mph2.6 kmh 30.36 in1028.1 mb 0.00 in0.0 mm 0.00 in/hr0.0 mm/hr 0.00 in0.0 mm
10:20 AM 69.8°F21.0°C 65.5°F18.6°C 86% Calm Calm 1.6 mph2.6 kmh 30.36 in1028.1 mb 0.00 in0.0 mm 0.00 in/hr0.0 mm/hr 0.00 in0.0 mm
10:21 AM 70.7°F21.5°C 65.0°F18.3°C 82% Calm Calm 1.6 mph2.6 kmh 30.36 in1028.1 mb 0.00 in0.0 mm 0.00 in/hr0.0 mm/hr 0.00 in0.0 mm
10:22 AM 70.9°F21.6°C 64.8°F18.2°C 81% Calm Calm 0.7 mph1.1 kmh 30.36 in1028.1 mb 0.00 in0.0 mm 0.00 in/hr0.0 mm/hr 0.00 in0.0 mm
10:23 AM 70.9°F21.6°C 64.4°F18.0°C 80% Calm Calm 0.7 mph1.1 kmh 30.36 in1028.1 mb 0.00 in0.0 mm 0.00 in/hr0.0 mm/hr 0.00 in0.0 mm
10:24 AM 71.1°F21.7°C 64.6°F18.1°C 80% Calm Calm 0.7 mph1.1 kmh 30.36 in1028.1 mb 0.00 in0.0 mm 0.00 in/hr0.0 mm/hr 0.00 in0.0 mm
10:25 AM 71.1°F21.7°C 63.9°F17.7°C 78% 1.6 mph ENE2.6 kmh ENE 2.2 mph3.5 kmh 30.36 in1028.1 mb 0.00 in0.0 mm 0.00 in/hr0.0 mm/hr 0.00 in0.0 mm
10:26 AM 70.0°F21.1°C 62.5°F16.9°C 77% 0.7 mph ENE1.1 kmh ENE 2.2 mph3.5 kmh 30.35 in1027.8 mb 0.00 in0.0 mm 0.00 in/hr0.0 mm/hr 0.00 in0.0 mm
10:27 AM 69.6°F20.9°C 62.5°F16.9°C 78% 3.1 mph ENE5.0 kmh ENE 3.8 mph6.1 kmh 30.36 in1028.1 mb 0.00 in0.0 mm 0.00 in/hr0.0 mm/hr 0.00 in0.0 mm
10:28 AM 69.1°F20.6°C 62.7°F17.1°C 80% 1.6 mph NE2.6 kmh NE 3.8 mph6.1 kmh 30.36 in1028.1 mb 0.00 in0.0 mm 0.00 in/hr0.0 mm/hr 0.00 in0.0 mm
10:29 AM 68.9°F20.5°C 62.9°F17.2°C 81% Calm Calm 3.8 mph6.1 kmh 30.36 in1028.1 mb 0.00 in0.0 mm 0.00 in/hr0.0 mm/hr 0.00 in0.0 mm
10:30 AM 69.1°F20.6°C 63.4°F17.4°C 82% Calm Calm 3.8 mph6.1 kmh 30.36 in1028.1 mb 0.00 in0.0 mm 0.00 in/hr0.0 mm/hr 0.00 in0.0 mm
10:31 AM 69.3°F20.7°C 63.6°F17.6°C 82% Calm Calm 3.8 mph6.1 kmh 30.36 in1028.1 mb 0.00 in0.0 mm 0.00 in/hr0.0 mm/hr 0.00 in0.0 mm
10:32 AM 69.4°F20.8°C 63.7°F17.6°C 82% Calm Calm 3.8 mph6.1 kmh 30.36 in1028.1 mb 0.00 in0.0 mm 0.00 in/hr0.0 mm/hr 0.00 in0.0 mm
10:33 AM 69.8°F21.0°C 63.7°F17.6°C 81% Calm Calm 3.8 mph6.1 kmh 30.36 in1028.1 mb 0.00 in0.0 mm 0.00 in/hr0.0 mm/hr 0.00 in0.0 mm
10:34 AM 70.3°F21.3°C 64.3°F17.9°C 81% 0.7 mph NE1.1 kmh NE 3.8 mph6.1 kmh 30.36 in1028.1 mb 0.00 in0.0 mm 0.00 in/hr0.0 mm/hr 0.00 in0.0 mm
10:35 AM 70.7°F21.5°C 64.6°F18.1°C 81% Calm Calm 3.8 mph6.1 kmh 30.36 in1028.1 mb 0.00 in0.0 mm 0.00 in/hr0.0 mm/hr 0.00 in0.0 mm
10:36 AM 71.1°F21.7°C 64.6°F18.1°C 80% Calm Calm 3.8 mph6.1 kmh 30.36 in1028.1 mb 0.00 in0.0 mm 0.00 in/hr0.0 mm/hr 0.00 in0.0 mm
10:37 AM 71.8°F22.1°C 64.6°F18.1°C 78% Calm Calm 3.8 mph6.1 kmh 30.36 in1028.1 mb 0.00 in0.0 mm 0.00 in/hr0.0 mm/hr 0.00 in0.0 mm
10:38 AM 72.1°F22.3°C 64.9°F18.3°C 78% Calm Calm 1.6 mph2.6 kmh 30.36 in1028.1 mb 0.00 in0.0 mm 0.00 in/hr0.0 mm/hr 0.00 in0.0 mm
10:39 AM 72.1°F22.3°C 64.6°F18.1°C 77% 1.6 mph W2.6 kmh W 3.8 mph6.1 kmh 30.36 in1028.1 mb 0.00 in0.0 mm 0.00 in/hr0.0 mm/hr 0.00 in0.0 mm
10:40 AM 72.0°F22.2°C 64.0°F17.8°C 76% Calm Calm 3.8 mph6.1 kmh 30.36 in1028.1 mb 0.00 in0.0 mm 0.00 in/hr0.0 mm/hr 0.00 in0.0 mm
10:41 AM 72.9°F22.7°C 65.3°F18.5°C 77% 0.7 mph W1.1 kmh W 3.8 mph6.1 kmh 30.36 in1028.1 mb 0.00 in0.0 mm 0.00 in/hr0.0 mm/hr 0.00 in0.0 mm
10:42 AM 73.2°F22.9°C 65.2°F18.4°C 76% 1.6 mph NW2.6 kmh NW 3.8 mph6.1 kmh 30.36 in1028.1 mb 0.00 in0.0 mm 0.00 in/hr0.0 mm/hr 0.00 in0.0 mm
10:43 AM 72.7°F22.6°C 64.3°F17.9°C 75% 1.6 mph NW2.6 kmh NW 3.8 mph6.1 kmh 30.36 in1028.1 mb 0.00 in0.0 mm 0.00 in/hr0.0 mm/hr 0.00 in0.0 mm
10:44 AM 71.6°F22.0°C 62.5°F16.9°C 73% 0.7 mph NW1.1 kmh NW 3.8 mph6.1 kmh 30.36 in1028.1 mb 0.00 in0.0 mm 0.00 in/hr0.0 mm/hr 0.00 in0.0 mm
10:45 AM 71.1°F21.7°C 62.8°F17.1°C 75% 0.7 mph NNW1.1 kmh NNW 3.8 mph6.1 kmh 30.36 in1028.1 mb 0.00 in0.0 mm 0.00 in/hr0.0 mm/hr 0.00 in0.0 mm
10:46 AM 71.4°F21.9°C 63.5°F17.5°C 76% Calm Calm 3.8 mph6.1 kmh 30.36 in1028.1 mb 0.00 in0.0 mm 0.00 in/hr0.0 mm/hr 0.00 in0.0 mm
10:47 AM 71.4°F21.9°C 63.5°F17.5°C 76% Calm Calm 3.8 mph6.1 kmh 30.36 in1028.1 mb 0.00 in0.0 mm 0.00 in/hr0.0 mm/hr 0.00 in0.0 mm
10:48 AM 72.0°F22.2°C 63.6°F17.6°C 75% 0.7 mph NNW1.1 kmh NNW 3.8 mph6.1 kmh 30.36 in1028.1 mb 0.00 in0.0 mm 0.00 in/hr0.0 mm/hr 0.00 in0.0 mm
10:49 AM 71.4°F21.9°C 63.5°F17.5°C 76% 2.2 mph N3.5 kmh N 3.8 mph6.1 kmh 30.36 in1028.1 mb 0.00 in0.0 mm 0.00 in/hr0.0 mm/hr 0.00 in0.0 mm
10:50 AM 70.7°F21.5°C 63.2°F17.3°C 77% 1.6 mph NNE2.6 kmh NNE 3.8 mph6.1 kmh 30.36 in1028.1 mb 0.00 in0.0 mm 0.00 in/hr0.0 mm/hr 0.00 in0.0 mm
10:51 AM 70.7°F21.5°C 63.5°F17.5°C 78% 0.7 mph NNE1.1 kmh NNE 3.8 mph6.1 kmh 30.36 in1028.1 mb 0.00 in0.0 mm 0.00 in/hr0.0 mm/hr 0.00 in0.0 mm
10:52 AM 70.7°F21.5°C 64.3°F17.9°C 80% 1.6 mph NNE2.6 kmh NNE 3.8 mph6.1 kmh 30.36 in1028.1 mb 0.00 in0.0 mm 0.00 in/hr0.0 mm/hr 0.00 in0.0 mm
10:53 AM 71.1°F21.7°C 65.0°F18.3°C 81% 0.7 mph NNE1.1 kmh NNE 3.8 mph6.1 kmh 30.36 in1028.1 mb 0.00 in0.0 mm 0.00 in/hr0.0 mm/hr 0.00 in0.0 mm
10:54 AM 71.8°F22.1°C 65.3°F18.5°C 80% 0.7 mph NNE1.1 kmh NNE 3.8 mph6.1 kmh 30.36 in1028.1 mb 0.00 in0.0 mm 0.00 in/hr0.0 mm/hr 0.00 in0.0 mm
10:55 AM 72.3°F22.4°C 65.8°F18.8°C 80% 0.7 mph NNE1.1 kmh NNE 3.8 mph6.1 kmh 30.36 in1028.1 mb 0.00 in0.0 mm 0.00 in/hr0.0 mm/hr 0.00 in0.0 mm
10:56 AM 73.0°F22.8°C 66.5°F19.2°C 80% 1.6 mph NNE2.6 kmh NNE 3.8 mph6.1 kmh 30.36 in1028.1 mb 0.00 in0.0 mm 0.00 in/hr0.0 mm/hr 0.00 in0.0 mm
10:57 AM 73.2°F22.9°C 66.0°F18.9°C 78% Calm Calm 3.8 mph6.1 kmh 30.36 in1028.1 mb 0.00 in0.0 mm 0.00 in/hr0.0 mm/hr 0.00 in0.0 mm
10:58 AM 73.2°F22.9°C 65.6°F18.7°C 77% Calm Calm 3.8 mph6.1 kmh 30.36 in1028.1 mb 0.00 in0.0 mm 0.00 in/hr0.0 mm/hr 0.00 in0.0 mm
10:59 AM 74.1°F23.4°C 66.1°F18.9°C 76% Calm Calm 3.8 mph6.1 kmh 30.35 in1027.8 mb 0.00 in0.0 mm 0.00 in/hr0.0 mm/hr 0.00 in0.0 mm
11:00 AM 73.9°F23.3°C 65.6°F18.7°C 75% 1.6 mph N2.6 kmh N 3.8 mph6.1 kmh 30.36 in1028.1 mb 0.00 in0.0 mm 0.00 in/hr0.0 mm/hr 0.00 in0.0 mm
11:01 AM 73.4°F23.0°C 65.0°F18.3°C 75% 0.7 mph NNW1.1 kmh NNW 3.8 mph6.1 kmh 30.36 in1028.1 mb 0.00 in0.0 mm 0.00 in/hr0.0 mm/hr 0.00 in0.0 mm
11:02 AM 73.4°F23.0°C 65.4°F18.6°C 76% 2.2 mph NNW3.5 kmh NNW 4.5 mph7.2 kmh 30.36 in1028.1 mb 0.00 in0.0 mm 0.00 in/hr0.0 mm/hr 0.00 in0.0 mm
11:03 AM 72.9°F22.7°C 64.5°F18.1°C 75% Calm Calm 4.5 mph7.2 kmh 30.36 in1028.1 mb 0.00 in0.0 mm 0.00 in/hr0.0 mm/hr 0.00 in0.0 mm
11:04 AM 73.0°F22.8°C 63.9°F17.7°C 73% Calm Calm 4.5 mph7.2 kmh 30.35 in1027.8 mb 0.00 in0.0 mm 0.00 in/hr0.0 mm/hr 0.00 in0.0 mm
11:05 AM 73.9°F23.3°C 65.6°F18.7°C 75% 0.7 mph NW1.1 kmh NW 4.5 mph7.2 kmh 30.36 in1028.1 mb 0.00 in0.0 mm 0.00 in/hr0.0 mm/hr 0.00 in0.0 mm
11:06 AM 74.8°F23.8°C 66.4°F19.1°C 75% Calm Calm 4.5 mph7.2 kmh 30.35 in1027.8 mb 0.00 in0.0 mm 0.00 in/hr0.0 mm/hr 0.00 in0.0 mm
11:07 AM 75.2°F24.0°C 66.0°F18.9°C 73% Calm Calm 4.5 mph7.2 kmh 30.35 in1027.8 mb 0.00 in0.0 mm 0.00 in/hr0.0 mm/hr 0.00 in0.0 mm
11:08 AM 75.7°F24.3°C 66.5°F19.2°C 73% Calm Calm 4.5 mph7.2 kmh 30.36 in1028.1 mb 0.00 in0.0 mm 0.00 in/hr0.0 mm/hr 0.00 in0.0 mm
11:09 AM 74.8°F23.8°C 65.2°F18.4°C 72% 0.7 mph WNW1.1 kmh WNW 4.5 mph7.2 kmh 30.35 in1027.8 mb 0.00 in0.0 mm 0.00 in/hr0.0 mm/hr 0.00 in0.0 mm
11:10 AM 74.1°F23.4°C 64.6°F18.1°C 72% Calm Calm 4.5 mph7.2 kmh 30.35 in1027.8 mb 0.00 in0.0 mm 0.00 in/hr0.0 mm/hr 0.00 in0.0 mm
11:11 AM 75.0°F23.9°C 65.4°F18.6°C 72% Calm Calm 4.5 mph7.2 kmh 30.35 in1027.8 mb 0.00 in0.0 mm 0.00 in/hr0.0 mm/hr 0.00 in0.0 mm
11:12 AM 74.8°F23.8°C 65.2°F18.4°C 72% 1.6 mph ENE2.6 kmh ENE 4.5 mph7.2 kmh 30.35 in1027.8 mb 0.00 in0.0 mm 0.00 in/hr0.0 mm/hr 0.00 in0.0 mm
11:13 AM 73.0°F22.8°C 63.1°F17.3°C 71% 0.7 mph ENE1.1 kmh ENE 3.1 mph5.0 kmh 30.35 in1027.8 mb 0.00 in0.0 mm 0.00 in/hr0.0 mm/hr 0.00 in0.0 mm
11:14 AM 73.8°F23.2°C 64.6°F18.1°C 73% 0.7 mph ENE1.1 kmh ENE 3.1 mph5.0 kmh 30.35 in1027.8 mb 0.00 in0.0 mm 0.00 in/hr0.0 mm/hr 0.00 in0.0 mm
11:15 AM 73.9°F23.3°C 64.4°F18.0°C 72% 0.7 mph NE1.1 kmh NE 3.1 mph5.0 kmh 30.35 in1027.8 mb 0.00 in0.0 mm 0.00 in/hr0.0 mm/hr 0.00 in0.0 mm
11:16 AM 74.1°F23.4°C 64.6°F18.1°C 72% 0.7 mph NE1.1 kmh NE 3.1 mph5.0 kmh 30.35 in1027.8 mb 0.00 in0.0 mm 0.00 in/hr0.0 mm/hr 0.00 in0.0 mm
11:17 AM 74.8°F23.8°C 64.8°F18.2°C 71% 0.7 mph NE1.1 kmh NE 3.1 mph5.0 kmh 30.35 in1027.8 mb 0.00 in0.0 mm 0.00 in/hr0.0 mm/hr 0.00 in0.0 mm
11:18 AM 74.5°F23.6°C 64.1°F17.8°C 70% Calm Calm 3.1 mph5.0 kmh 30.35 in1027.8 mb 0.00 in0.0 mm 0.00 in/hr0.0 mm/hr 0.00 in0.0 mm
11:19 AM 74.7°F23.7°C 64.3°F17.9°C 70% 0.7 mph ENE1.1 kmh ENE 3.1 mph5.0 kmh 30.35 in1027.8 mb 0.00 in0.0 mm 0.00 in/hr0.0 mm/hr 0.00 in0.0 mm
11:20 AM 74.8°F23.8°C 64.4°F18.0°C 70% Calm Calm 3.1 mph5.0 kmh 30.35 in1027.8 mb 0.00 in0.0 mm 0.00 in/hr0.0 mm/hr 0.00 in0.0 mm
11:21 AM 75.6°F24.2°C 64.3°F17.9°C 68% Calm Calm 3.1 mph5.0 kmh 30.35 in1027.8 mb 0.00 in0.0 mm 0.00 in/hr0.0 mm/hr 0.00 in0.0 mm
11:22 AM 75.7°F24.3°C 64.5°F18.1°C 68% Calm Calm 3.1 mph5.0 kmh 30.35 in1027.8 mb 0.00 in0.0 mm 0.00 in/hr0.0 mm/hr 0.00 in0.0 mm
11:23 AM 76.3°F24.6°C 65.0°F18.3°C 68% Calm Calm 2.2 mph3.5 kmh 30.35 in1027.8 mb 0.00 in0.0 mm 0.00 in/hr0.0 mm/hr 0.00 in0.0 mm
11:24 AM 75.9°F24.4°C 64.6°F18.1°C 68% Calm Calm 2.2 mph3.5 kmh 30.35 in1027.8 mb 0.00 in0.0 mm 0.00 in/hr0.0 mm/hr 0.00 in0.0 mm
11:25 AM 74.7°F23.7°C 64.3°F17.9°C 70% 0.7 mph NE1.1 kmh NE 2.2 mph3.5 kmh 30.35 in1027.8 mb 0.00 in0.0 mm 0.00 in/hr0.0 mm/hr 0.00 in0.0 mm
11:26 AM 74.7°F23.7°C 64.3°F17.9°C 70% Calm Calm 2.2 mph3.5 kmh 30.35 in1027.8 mb 0.00 in0.0 mm 0.00 in/hr0.0 mm/hr 0.00 in0.0 mm
11:27 AM 75.2°F24.0°C 64.8°F18.2°C 70% Calm Calm 2.2 mph3.5 kmh 30.35 in1027.8 mb 0.00 in0.0 mm 0.00 in/hr0.0 mm/hr 0.00 in0.0 mm
11:28 AM 75.9°F24.4°C 64.6°F18.1°C 68% Calm Calm 2.2 mph3.5 kmh 30.35 in1027.8 mb 0.00 in0.0 mm 0.00 in/hr0.0 mm/hr 0.00 in0.0 mm
11:29 AM 75.9°F24.4°C 64.2°F17.9°C 67% 2.2 mph NE3.5 kmh NE 3.1 mph5.0 kmh 30.35 in1027.8 mb 0.00 in0.0 mm 0.00 in/hr0.0 mm/hr 0.00 in0.0 mm
11:30 AM 74.7°F23.7°C 63.0°F17.2°C 67% 2.2 mph NE3.5 kmh NE 3.8 mph6.1 kmh 30.35 in1027.8 mb 0.00 in0.0 mm 0.00 in/hr0.0 mm/hr 0.00 in0.0 mm
11:31 AM 73.9°F23.3°C 62.7°F17.1°C 68% 2.2 mph ENE3.5 kmh ENE 3.8 mph6.1 kmh 30.35 in1027.8 mb 0.00 in0.0 mm 0.00 in/hr0.0 mm/hr 0.00 in0.0 mm
11:32 AM 73.4°F23.0°C 63.1°F17.3°C 70% Calm Calm 3.8 mph6.1 kmh 30.35 in1027.8 mb 0.00 in0.0 mm 0.00 in/hr0.0 mm/hr 0.00 in0.0 mm
11:33 AM 74.7°F23.7°C 65.1°F18.4°C 72% Calm Calm 3.8 mph6.1 kmh 30.35 in1027.8 mb 0.00 in0.0 mm 0.00 in/hr0.0 mm/hr 0.00 in0.0 mm
11:34 AM 75.4°F24.1°C 65.4°F18.6°C 71% Calm Calm 3.8 mph6.1 kmh 30.35 in1027.8 mb 0.00 in0.0 mm 0.00 in/hr0.0 mm/hr 0.00 in0.0 mm
11:35 AM 75.6°F24.2°C 65.5°F18.6°C 71% Calm Calm 3.8 mph6.1 kmh 30.35 in1027.8 mb 0.00 in0.0 mm 0.00 in/hr0.0 mm/hr 0.00 in0.0 mm
11:36 AM 75.7°F24.3°C 65.3°F18.5°C 70% Calm Calm 3.8 mph6.1 kmh 30.35 in1027.8 mb 0.00 in0.0 mm 0.00 in/hr0.0 mm/hr 0.00 in0.0 mm
11:37 AM 75.6°F24.2°C 64.3°F17.9°C 68% Calm Calm 3.8 mph6.1 kmh 30.35 in1027.8 mb 0.00 in0.0 mm 0.00 in/hr0.0 mm/hr 0.00 in0.0 mm
11:38 AM 75.7°F24.3°C 64.5°F18.1°C 68% Calm Calm 3.8 mph6.1 kmh 30.35 in1027.8 mb 0.00 in0.0 mm 0.00 in/hr0.0 mm/hr 0.00 in0.0 mm
11:39 AM 75.9°F24.4°C 64.6°F18.1°C 68% Calm Calm 3.8 mph6.1 kmh 30.34 in1027.4 mb 0.00 in0.0 mm 0.00 in/hr0.0 mm/hr 0.00 in0.0 mm
11:40 AM 75.4°F24.1°C 64.1°F17.8°C 68% Calm Calm 3.8 mph6.1 kmh 30.35 in1027.8 mb 0.00 in0.0 mm 0.00 in/hr0.0 mm/hr 0.00 in0.0 mm
11:41 AM 75.4°F24.1°C 65.0°F18.3°C 70% 0.7 mph ENE1.1 kmh ENE 3.8 mph6.1 kmh 30.35 in1027.8 mb 0.00 in0.0 mm 0.00 in/hr0.0 mm/hr 0.00 in0.0 mm
11:42 AM 75.7°F24.3°C 65.3°F18.5°C 70% Calm Calm 1.6 mph2.6 kmh 30.35 in1027.8 mb 0.00 in0.0 mm 0.00 in/hr0.0 mm/hr 0.00 in0.0 mm
11:43 AM 76.3°F24.6°C 66.2°F19.0°C 71% 1.6 mph SW2.6 kmh SW 3.1 mph5.0 kmh 30.35 in1027.8 mb 0.00 in0.0 mm 0.00 in/hr0.0 mm/hr 0.00 in0.0 mm
11:44 AM 76.6°F24.8°C 66.2°F19.0°C 70% 0.7 mph WNW1.1 kmh WNW 3.1 mph5.0 kmh 30.34 in1027.4 mb 0.00 in0.0 mm 0.00 in/hr0.0 mm/hr 0.00 in0.0 mm
11:45 AM 77.2°F25.1°C 65.4°F18.6°C 67% Calm Calm 3.1 mph5.0 kmh 30.35 in1027.8 mb 0.00 in0.0 mm 0.00 in/hr0.0 mm/hr 0.00 in0.0 mm
11:46 AM 77.5°F25.3°C 65.8°F18.8°C 67% Calm Calm 3.1 mph5.0 kmh 30.35 in1027.8 mb 0.00 in0.0 mm 0.00 in/hr0.0 mm/hr 0.00 in0.0 mm
11:47 AM 78.1°F25.6°C 66.3°F19.1°C 67% Calm Calm 3.1 mph5.0 kmh 30.35 in1027.8 mb 0.00 in0.0 mm 0.00 in/hr0.0 mm/hr 0.00 in0.0 mm
11:48 AM 77.9°F25.5°C 65.7°F18.7°C 66% 0.7 mph WNW1.1 kmh WNW 3.1 mph5.0 kmh 30.35 in1027.8 mb 0.00 in0.0 mm 0.00 in/hr0.0 mm/hr 0.00 in0.0 mm
11:49 AM 76.1°F24.5°C 62.6°F17.0°C 63% 2.2 mph WNW3.5 kmh WNW 5.4 mph8.7 kmh 30.35 in1027.8 mb 0.00 in0.0 mm 0.00 in/hr0.0 mm/hr 0.00 in0.0 mm
11:50 AM 75.6°F24.2°C 63.0°F17.2°C 65% Calm Calm 5.4 mph8.7 kmh 30.35 in1027.8 mb 0.00 in0.0 mm 0.00 in/hr0.0 mm/hr 0.00 in0.0 mm
11:51 AM 75.9°F24.4°C 63.8°F17.7°C 66% Calm Calm 5.4 mph8.7 kmh 30.35 in1027.8 mb 0.00 in0.0 mm 0.00 in/hr0.0 mm/hr 0.00 in0.0 mm
11:52 AM 76.5°F24.7°C 64.7°F18.2°C 67% 0.7 mph NNW1.1 kmh NNW 5.4 mph8.7 kmh 30.35 in1027.8 mb 0.00 in0.0 mm 0.00 in/hr0.0 mm/hr 0.00 in0.0 mm
11:53 AM 77.0°F25.0°C 65.2°F18.4°C 67% 0.7 mph NNW1.1 kmh NNW 5.4 mph8.7 kmh 30.35 in1027.8 mb 0.00 in0.0 mm 0.00 in/hr0.0 mm/hr 0.00 in0.0 mm
11:54 AM 77.5°F25.3°C 65.8°F18.8°C 67% Calm Calm 5.4 mph8.7 kmh 30.35 in1027.8 mb 0.00 in0.0 mm 0.00 in/hr0.0 mm/hr 0.00 in0.0 mm
11:55 AM 78.4°F25.8°C 66.6°F19.2°C 67% Calm Calm 5.4 mph8.7 kmh 30.35 in1027.8 mb 0.00 in0.0 mm 0.00 in/hr0.0 mm/hr 0.00 in0.0 mm
11:56 AM 79.0°F26.1°C 66.7°F19.3°C 66% Calm Calm 5.4 mph8.7 kmh 30.35 in1027.8 mb 0.00 in0.0 mm 0.00 in/hr0.0 mm/hr 0.00 in0.0 mm
11:57 AM 79.2°F26.2°C 65.5°F18.6°C 63% 2.2 mph NW3.5 kmh NW 5.4 mph8.7 kmh 30.34 in1027.4 mb 0.00 in0.0 mm 0.00 in/hr0.0 mm/hr 0.00 in0.0 mm
11:58 AM 78.4°F25.8°C 63.9°F17.7°C 61% Calm Calm 5.4 mph8.7 kmh 30.35 in1027.8 mb 0.00 in0.0 mm 0.00 in/hr0.0 mm/hr 0.00 in0.0 mm
11:59 AM 79.2°F26.2°C 64.6°F18.1°C 61% 2.2 mph NW3.5 kmh NW 5.4 mph8.7 kmh 30.35 in1027.8 mb 0.00 in0.0 mm 0.00 in/hr0.0 mm/hr 0.00 in0.0 mm
12:00 PM 78.8°F26.0°C 63.8°F17.7°C 60% 3.1 mph SW5.0 kmh SW 5.4 mph8.7 kmh 30.35 in1027.8 mb 0.00 in0.0 mm 0.00 in/hr0.0 mm/hr 0.00 in0.0 mm
12:01 PM 77.4°F25.2°C 62.4°F16.9°C 60% 1.6 mph SSW2.6 kmh SSW 5.4 mph8.7 kmh 30.35 in1027.8 mb 0.00 in0.0 mm 0.00 in/hr0.0 mm/hr 0.00 in0.0 mm
12:02 PM 77.2°F25.1°C 62.7°F17.1°C 61% 1.6 mph SW2.6 kmh SW 5.4 mph8.7 kmh 30.35 in1027.8 mb 0.00 in0.0 mm 0.00 in/hr0.0 mm/hr 0.00 in0.0 mm
12:03 PM 77.0°F25.0°C 63.0°F17.2°C 62% 0.7 mph SW1.1 kmh SW 5.4 mph8.7 kmh 30.35 in1027.8 mb 0.00 in0.0 mm 0.00 in/hr0.0 mm/hr 0.00 in0.0 mm
12:04 PM 76.8°F24.9°C 63.3°F17.4°C 63% 2.2 mph WSW3.5 kmh WSW 5.4 mph8.7 kmh 30.34 in1027.4 mb 0.00 in0.0 mm 0.00 in/hr0.0 mm/hr 0.00 in0.0 mm
12:05 PM 75.7°F24.3°C 63.2°F17.3°C 65% Calm Calm 5.4 mph8.7 kmh 30.34 in1027.4 mb 0.00 in0.0 mm 0.00 in/hr0.0 mm/hr 0.00 in0.0 mm
12:06 PM 76.5°F24.7°C 64.3°F17.9°C 66% 1.6 mph W2.6 kmh W 5.4 mph8.7 kmh 30.34 in1027.4 mb 0.00 in0.0 mm 0.00 in/hr0.0 mm/hr 0.00 in0.0 mm
12:07 PM 76.8°F24.9°C 64.6°F18.1°C 66% Calm Calm 5.4 mph8.7 kmh 30.34 in1027.4 mb 0.00 in0.0 mm 0.00 in/hr0.0 mm/hr 0.00 in0.0 mm
12:08 PM 76.5°F24.7°C 64.7°F18.2°C 67% Calm Calm 5.4 mph8.7 kmh 30.35 in1027.8 mb 0.00 in0.0 mm 0.00 in/hr0.0 mm/hr 0.00 in0.0 mm
12:09 PM 76.8°F24.9°C 64.6°F18.1°C 66% 2.2 mph W3.5 kmh W 5.4 mph8.7 kmh 30.34 in1027.4 mb 0.00 in0.0 mm 0.00 in/hr0.0 mm/hr 0.00 in0.0 mm
12:10 PM 77.0°F25.0°C 64.4°F18.0°C 65% 2.2 mph WNW3.5 kmh WNW 3.8 mph6.1 kmh 30.34 in1027.4 mb 0.00 in0.0 mm 0.00 in/hr0.0 mm/hr 0.00 in0.0 mm
12:11 PM 76.1°F24.5°C 62.6°F17.0°C 63% 0.7 mph WNW1.1 kmh WNW 3.8 mph6.1 kmh 30.34 in1027.4 mb 0.00 in0.0 mm 0.00 in/hr0.0 mm/hr 0.00 in0.0 mm
12:12 PM 76.5°F24.7°C 63.9°F17.7°C 65% 3.1 mph W5.0 kmh W 4.5 mph7.2 kmh 30.34 in1027.4 mb 0.00 in0.0 mm 0.00 in/hr0.0 mm/hr 0.00 in0.0 mm
12:13 PM 76.3°F24.6°C 64.1°F17.8°C 66% Calm Calm 4.5 mph7.2 kmh 30.34 in1027.4 mb 0.00 in0.0 mm 0.00 in/hr0.0 mm/hr 0.00 in0.0 mm
12:14 PM 77.0°F25.0°C 64.4°F18.0°C 65% Calm Calm 4.5 mph7.2 kmh 30.34 in1027.4 mb 0.00 in0.0 mm 0.00 in/hr0.0 mm/hr 0.00 in0.0 mm
12:15 PM 77.4°F25.2°C 64.7°F18.2°C 65% Calm Calm 4.5 mph7.2 kmh 30.34 in1027.4 mb 0.00 in0.0 mm 0.00 in/hr0.0 mm/hr 0.00 in0.0 mm
12:16 PM 77.4°F25.2°C 64.7°F18.2°C 65% Calm Calm 4.5 mph7.2 kmh 30.34 in1027.4 mb 0.00 in0.0 mm 0.00 in/hr0.0 mm/hr 0.00 in0.0 mm
12:17 PM 77.5°F25.3°C 64.9°F18.3°C 65% 0.7 mph SW1.1 kmh SW 4.5 mph7.2 kmh 30.34 in1027.4 mb 0.00 in0.0 mm 0.00 in/hr0.0 mm/hr 0.00 in0.0 mm
12:18 PM 76.8°F24.9°C 62.9°F17.2°C 62% 1.6 mph SW2.6 kmh SW 4.5 mph7.2 kmh 30.34 in1027.4 mb 0.00 in0.0 mm 0.00 in/hr0.0 mm/hr 0.00 in0.0 mm
12:19 PM 76.8°F24.9°C 62.9°F17.2°C 62% 1.6 mph SW2.6 kmh SW 4.5 mph7.2 kmh 30.34 in1027.4 mb 0.00 in0.0 mm 0.00 in/hr0.0 mm/hr 0.00 in0.0 mm
12:20 PM 76.3°F24.6°C 62.3°F16.8°C 62% 0.7 mph SW1.1 kmh SW 4.5 mph7.2 kmh 30.34 in1027.4 mb 0.00 in0.0 mm 0.00 in/hr0.0 mm/hr 0.00 in0.0 mm
12:21 PM 76.8°F24.9°C 64.2°F17.9°C 65% Calm Calm 4.5 mph7.2 kmh 30.34 in1027.4 mb 0.00 in0.0 mm 0.00 in/hr0.0 mm/hr 0.00 in0.0 mm
12:22 PM 76.6°F24.8°C 63.1°F17.3°C 63% Calm Calm 3.1 mph5.0 kmh 30.34 in1027.4 mb 0.00 in0.0 mm 0.00 in/hr0.0 mm/hr 0.00 in0.0 mm
12:23 PM 77.0°F25.0°C 63.0°F17.2°C 62% Calm Calm 3.1 mph5.0 kmh 30.34 in1027.4 mb 0.00 in0.0 mm 0.00 in/hr0.0 mm/hr 0.00 in0.0 mm
12:24 PM 77.2°F25.1°C 63.2°F17.3°C 62% Calm Calm 3.1 mph5.0 kmh 30.34 in1027.4 mb 0.00 in0.0 mm 0.00 in/hr0.0 mm/hr 0.00 in0.0 mm
12:25 PM 76.8°F24.9°C 63.3°F17.4°C 63% Calm Calm 3.1 mph5.0 kmh 30.34 in1027.4 mb 0.00 in0.0 mm 0.00 in/hr0.0 mm/hr 0.00 in0.0 mm
12:26 PM 77.2°F25.1°C 63.2°F17.3°C 62% 0.7 mph SW1.1 kmh SW 3.1 mph5.0 kmh 30.34 in1027.4 mb 0.00 in0.0 mm 0.00 in/hr0.0 mm/hr 0.00 in0.0 mm
12:27 PM 76.8°F24.9°C 63.3°F17.4°C 63% Calm Calm 3.1 mph5.0 kmh 30.34 in1027.4 mb 0.00 in0.0 mm 0.00 in/hr0.0 mm/hr 0.00 in0.0 mm
12:28 PM 76.8°F24.9°C 63.3°F17.4°C 63% Calm Calm 3.1 mph5.0 kmh 30.34 in1027.4 mb 0.00 in0.0 mm 0.00 in/hr0.0 mm/hr 0.00 in0.0 mm
12:29 PM 77.0°F25.0°C 63.0°F17.2°C 62% Calm Calm 3.1 mph5.0 kmh 30.34 in1027.4 mb 0.00 in0.0 mm 0.00 in/hr0.0 mm/hr 0.00 in0.0 mm
12:30 PM 77.0°F25.0°C 63.0°F17.2°C 62% 0.7 mph WNW1.1 kmh WNW 2.2 mph3.5 kmh 30.34 in1027.4 mb 0.00 in0.0 mm 0.00 in/hr0.0 mm/hr 0.00 in0.0 mm
12:31 PM 76.5°F24.7°C 62.5°F16.9°C 62% Calm Calm 2.2 mph3.5 kmh 30.34 in1027.4 mb 0.00 in0.0 mm 0.00 in/hr0.0 mm/hr 0.00 in0.0 mm
12:32 PM 76.8°F24.9°C 62.9°F17.2°C 62% Calm Calm 2.2 mph3.5 kmh 30.34 in1027.4 mb 0.00 in0.0 mm 0.00 in/hr0.0 mm/hr 0.00 in0.0 mm
12:33 PM 76.5°F24.7°C 62.5°F16.9°C 62% 1.6 mph NW2.6 kmh NW 3.1 mph5.0 kmh 30.34 in1027.4 mb 0.00 in0.0 mm 0.00 in/hr0.0 mm/hr 0.00 in0.0 mm
12:34 PM 75.7°F24.3°C 61.8°F16.6°C 62% 0.7 mph NW1.1 kmh NW 3.1 mph5.0 kmh 30.34 in1027.4 mb 0.00 in0.0 mm 0.00 in/hr0.0 mm/hr 0.00 in0.0 mm
12:35 PM 75.9°F24.4°C 63.3°F17.4°C 65% Calm Calm 3.1 mph5.0 kmh 30.34 in1027.4 mb 0.00 in0.0 mm 0.00 in/hr0.0 mm/hr 0.00 in0.0 mm
12:36 PM 75.9°F24.4°C 63.8°F17.7°C 66% Calm Calm 3.1 mph5.0 kmh 30.34 in1027.4 mb 0.00 in0.0 mm 0.00 in/hr0.0 mm/hr 0.00 in0.0 mm
12:37 PM 76.5°F24.7°C 64.3°F17.9°C 66% Calm Calm 3.1 mph5.0 kmh 30.34 in1027.4 mb 0.00 in0.0 mm 0.00 in/hr0.0 mm/hr 0.00 in0.0 mm
12:38 PM 75.9°F24.4°C 63.8°F17.7°C 66% 1.6 mph N2.6 kmh N 3.1 mph5.0 kmh 30.34 in1027.4 mb 0.00 in0.0 mm 0.00 in/hr0.0 mm/hr 0.00 in0.0 mm
12:39 PM 76.3°F24.6°C 64.1°F17.8°C 66% 0.7 mph NNW1.1 kmh NNW 3.1 mph5.0 kmh 30.34 in1027.4 mb 0.00 in0.0 mm 0.00 in/hr0.0 mm/hr 0.00 in0.0 mm
12:40 PM 76.3°F24.6°C 64.6°F18.1°C 67% 1.6 mph S2.6 kmh S 3.8 mph6.1 kmh 30.34 in1027.4 mb 0.00 in0.0 mm 0.00 in/hr0.0 mm/hr 0.00 in0.0 mm
12:41 PM 75.9°F24.4°C 63.8°F17.7°C 66% 3.1 mph WSW5.0 kmh WSW 4.5 mph7.2 kmh 30.34 in1027.4 mb 0.00 in0.0 mm 0.00 in/hr0.0 mm/hr 0.00 in0.0 mm
12:42 PM 75.2°F24.0°C 63.1°F17.3°C 66% 0.7 mph NW1.1 kmh NW 4.5 mph7.2 kmh 30.34 in1027.4 mb 0.00 in0.0 mm 0.00 in/hr0.0 mm/hr 0.00 in0.0 mm
12:43 PM 75.6°F24.2°C 63.9°F17.7°C 67% Calm Calm 4.5 mph7.2 kmh 30.34 in1027.4 mb 0.00 in0.0 mm 0.00 in/hr0.0 mm/hr 0.00 in0.0 mm
12:44 PM 75.7°F24.3°C 64.0°F17.8°C 67% Calm Calm 4.5 mph7.2 kmh 30.34 in1027.4 mb 0.00 in0.0 mm 0.00 in/hr0.0 mm/hr 0.00 in0.0 mm
12:45 PM 75.6°F24.2°C 63.9°F17.7°C 67% Calm Calm 4.5 mph7.2 kmh 30.34 in1027.4 mb 0.00 in0.0 mm 0.00 in/hr0.0 mm/hr 0.00 in0.0 mm
12:46 PM 75.7°F24.3°C 64.5°F18.1°C 68% Calm Calm 4.5 mph7.2 kmh 30.34 in1027.4 mb 0.00 in0.0 mm 0.00 in/hr0.0 mm/hr 0.00 in0.0 mm
12:47 PM 75.7°F24.3°C 65.3°F18.5°C 70% Calm Calm 4.5 mph7.2 kmh 30.34 in1027.4 mb 0.00 in0.0 mm 0.00 in/hr0.0 mm/hr 0.00 in0.0 mm
12:48 PM 75.9°F24.4°C 65.5°F18.6°C 70% Calm Calm 4.5 mph7.2 kmh 30.34 in1027.4 mb 0.00 in0.0 mm 0.00 in/hr0.0 mm/hr 0.00 in0.0 mm
12:49 PM 75.9°F24.4°C 65.5°F18.6°C 70% Calm Calm 4.5 mph7.2 kmh 30.34 in1027.4 mb 0.00 in0.0 mm 0.00 in/hr0.0 mm/hr 0.00 in0.0 mm
12:50 PM 75.9°F24.4°C 64.6°F18.1°C 68% Calm Calm 4.5 mph7.2 kmh 30.34 in1027.4 mb 0.00 in0.0 mm 0.00 in/hr0.0 mm/hr 0.00 in0.0 mm
12:51 PM 76.5°F24.7°C 66.0°F18.9°C 70% Calm Calm 4.5 mph7.2 kmh 30.34 in1027.4 mb 0.00 in0.0 mm 0.00 in/hr0.0 mm/hr 0.00 in0.0 mm
12:52 PM 76.5°F24.7°C 66.0°F18.9°C 70% Calm Calm 2.2 mph3.5 kmh 30.34 in1027.4 mb 0.00 in0.0 mm 0.00 in/hr0.0 mm/hr 0.00 in0.0 mm
12:53 PM 76.3°F24.6°C 65.0°F18.3°C 68% Calm Calm 3.1 mph5.0 kmh 30.34 in1027.4 mb 0.00 in0.0 mm 0.00 in/hr0.0 mm/hr 0.00 in0.0 mm
12:54 PM 76.5°F24.7°C 66.0°F18.9°C 70% Calm Calm 3.1 mph5.0 kmh 30.34 in1027.4 mb 0.00 in0.0 mm 0.00 in/hr0.0 mm/hr 0.00 in0.0 mm
12:55 PM 77.0°F25.0°C 65.7°F18.7°C 68% Calm Calm 3.1 mph5.0 kmh 30.34 in1027.4 mb 0.00 in0.0 mm 0.00 in/hr0.0 mm/hr 0.00 in0.0 mm
12:56 PM 76.8°F24.9°C 66.3°F19.1°C 70% Calm Calm 3.1 mph5.0 kmh 30.34 in1027.4 mb 0.00 in0.0 mm 0.00 in/hr0.0 mm/hr 0.00 in0.0 mm
12:57 PM 76.8°F24.9°C 65.1°F18.4°C 67% Calm Calm 3.1 mph5.0 kmh 30.34 in1027.4 mb 0.00 in0.0 mm 0.00 in/hr0.0 mm/hr 0.00 in0.0 mm
12:58 PM 76.8°F24.9°C 65.1°F18.4°C 67% Calm Calm 3.1 mph5.0 kmh 30.34 in1027.4 mb 0.00 in0.0 mm 0.00 in/hr0.0 mm/hr 0.00 in0.0 mm
12:59 PM 76.5°F24.7°C 64.3°F17.9°C 66% 0.7 mph SE1.1 kmh SE 3.1 mph5.0 kmh 30.34 in1027.4 mb 0.00 in0.0 mm 0.00 in/hr0.0 mm/hr 0.00 in0.0 mm
01:00 PM 76.5°F24.7°C 64.3°F17.9°C 66% 0.7 mph ESE1.1 kmh ESE 3.1 mph5.0 kmh 30.34 in1027.4 mb 0.00 in0.0 mm 0.00 in/hr0.0 mm/hr 0.00 in0.0 mm
01:01 PM 76.5°F24.7°C 64.7°F18.2°C 67% Calm Calm 3.1 mph5.0 kmh 30.34 in1027.4 mb 0.00 in0.0 mm 0.00 in/hr0.0 mm/hr 0.00 in0.0 mm
01:02 PM 76.5°F24.7°C 64.7°F18.2°C 67% Calm Calm 3.1 mph5.0 kmh 30.34 in1027.4 mb 0.00 in0.0 mm 0.00 in/hr0.0 mm/hr 0.00 in0.0 mm
01:03 PM 76.5°F24.7°C 64.3°F17.9°C 66% Calm Calm 2.2 mph3.5 kmh 30.33 in1027.1 mb 0.00 in0.0 mm 0.00 in/hr0.0 mm/hr 0.00 in0.0 mm
01:04 PM 76.5°F24.7°C 64.3°F17.9°C 66% Calm Calm 2.2 mph3.5 kmh 30.34 in1027.4 mb 0.00 in0.0 mm 0.00 in/hr0.0 mm/hr 0.00 in0.0 mm
01:05 PM 75.9°F24.4°C 64.2°F17.9°C 67% Calm Calm 2.2 mph3.5 kmh 30.33 in1027.1 mb 0.00 in0.0 mm 0.00 in/hr0.0 mm/hr 0.00 in0.0 mm
01:06 PM 75.9°F24.4°C 64.6°F18.1°C 68% Calm Calm 2.2 mph3.5 kmh 30.33 in1027.1 mb 0.00 in0.0 mm 0.00 in/hr0.0 mm/hr 0.00 in0.0 mm
01:07 PM 76.1°F24.5°C 64.4°F18.0°C 67% Calm Calm 2.2 mph3.5 kmh 30.33 in1027.1 mb 0.00 in0.0 mm 0.00 in/hr0.0 mm/hr 0.00 in0.0 mm
01:08 PM 75.9°F24.4°C 64.2°F17.9°C 67% Calm Calm 2.2 mph3.5 kmh 30.33 in1027.1 mb 0.00 in0.0 mm 0.00 in/hr0.0 mm/hr 0.00 in0.0 mm
01:09 PM 75.9°F24.4°C 63.8°F17.7°C 66% Calm Calm 2.2 mph3.5 kmh 30.33 in1027.1 mb 0.00 in0.0 mm 0.00 in/hr0.0 mm/hr 0.00 in0.0 mm
01:10 PM 75.9°F24.4°C 63.8°F17.7°C 66% Calm Calm 1.6 mph2.6 kmh 30.33 in1027.1 mb 0.00 in0.0 mm 0.00 in/hr0.0 mm/hr 0.00 in0.0 mm
01:11 PM 75.9°F24.4°C 63.8°F17.7°C 66% Calm Calm 1.6 mph2.6 kmh 30.33 in1027.1 mb 0.00 in0.0 mm 0.00 in/hr0.0 mm/hr 0.00 in0.0 mm
01:12 PM 75.9°F24.4°C 63.8°F17.7°C 66% Calm Calm 1.6 mph2.6 kmh 30.33 in1027.1 mb 0.00 in0.0 mm 0.00 in/hr0.0 mm/hr 0.00 in0.0 mm
01:13 PM 75.7°F24.3°C 63.6°F17.6°C 66% Calm Calm 1.6 mph2.6 kmh 30.33 in1027.1 mb 0.00 in0.0 mm 0.00 in/hr0.0 mm/hr 0.00 in0.0 mm
01:14 PM 75.6°F24.2°C 63.9°F17.7°C 67% Calm Calm 1.6 mph2.6 kmh 30.33 in1027.1 mb 0.00 in0.0 mm 0.00 in/hr0.0 mm/hr 0.00 in0.0 mm
01:15 PM 75.4°F24.1°C 63.3°F17.4°C 66% Calm Calm 1.6 mph2.6 kmh 30.33 in1027.1 mb 0.00 in0.0 mm 0.00 in/hr0.0 mm/hr 0.00 in0.0 mm
01:16 PM 75.4°F24.1°C 63.3°F17.4°C 66% Calm Calm 1.6 mph2.6 kmh 30.33 in1027.1 mb 0.00 in0.0 mm 0.00 in/hr0.0 mm/hr 0.00 in0.0 mm
01:17 PM 75.6°F24.2°C 63.4°F17.4°C 66% Calm Calm 1.6 mph2.6 kmh 30.33 in1027.1 mb 0.00 in0.0 mm 0.00 in/hr0.0 mm/hr 0.00 in0.0 mm
01:18 PM 75.7°F24.3°C 63.2°F17.3°C 65% Calm Calm 1.6 mph2.6 kmh 30.33 in1027.1 mb 0.00 in0.0 mm 0.00 in/hr0.0 mm/hr 0.00 in0.0 mm
01:19 PM 75.9°F24.4°C 63.3°F17.4°C 65% Calm Calm 1.6 mph2.6 kmh 30.33 in1027.1 mb 0.00 in0.0 mm 0.00 in/hr0.0 mm/hr 0.00 in0.0 mm
01:20 PM 75.9°F24.4°C 63.3°F17.4°C 65% Calm Calm 1.6 mph2.6 kmh 30.33 in1027.1 mb 0.00 in0.0 mm 0.00 in/hr0.0 mm/hr 0.00 in0.0 mm
01:21 PM 75.9°F24.4°C 62.5°F16.9°C 63% Calm Calm 1.6 mph2.6 kmh 30.33 in1027.1 mb 0.00 in0.0 mm 0.00 in/hr0.0 mm/hr 0.00 in0.0 mm
01:22 PM 75.9°F24.4°C 62.5°F16.9°C 63% Calm Calm 1.6 mph2.6 kmh 30.32 in1026.8 mb 0.00 in0.0 mm 0.00 in/hr0.0 mm/hr 0.00 in0.0 mm
01:23 PM 75.9°F24.4°C 62.5°F16.9°C 63% Calm Calm 1.6 mph2.6 kmh 30.32 in1026.8 mb 0.00 in0.0 mm 0.00 in/hr0.0 mm/hr 0.00 in0.0 mm
01:24 PM 75.9°F24.4°C 63.3°F17.4°C 65% Calm Calm 1.6 mph2.6 kmh 30.32 in1026.8 mb 0.00 in0.0 mm 0.00 in/hr0.0 mm/hr 0.00 in0.0 mm
01:25 PM 75.9°F24.4°C 63.3°F17.4°C 65% Calm Calm 1.6 mph2.6 kmh 30.32 in1026.8 mb 0.00 in0.0 mm 0.00 in/hr0.0 mm/hr 0.00 in0.0 mm
01:26 PM 75.9°F24.4°C 63.3°F17.4°C 65% Calm Calm 1.6 mph2.6 kmh 30.32 in1026.8 mb 0.00 in0.0 mm 0.00 in/hr0.0 mm/hr 0.00 in0.0 mm
01:27 PM 75.9°F24.4°C 63.8°F17.7°C 66% Calm Calm 1.6 mph2.6 kmh 30.32 in1026.8 mb 0.00 in0.0 mm 0.00 in/hr0.0 mm/hr 0.00 in0.0 mm
01:28 PM 75.9°F24.4°C 63.8°F17.7°C 66% Calm Calm 1.6 mph2.6 kmh 30.32 in1026.8 mb 0.00 in0.0 mm 0.00 in/hr0.0 mm/hr 0.00 in0.0 mm
01:29 PM 76.1°F24.5°C 64.0°F17.8°C 66% 3.1 mph SSW5.0 kmh SSW 6.0 mph9.7 kmh 30.32 in1026.8 mb 0.00 in0.0 mm 0.00 in/hr0.0 mm/hr 0.00 in0.0 mm
01:30 PM 75.2°F24.0°C 62.7°F17.1°C 65% Calm Calm 6.0 mph9.7 kmh 30.32 in1026.8 mb 0.00 in0.0 mm 0.00 in/hr0.0 mm/hr 0.00 in0.0 mm
01:31 PM 75.4°F24.1°C 62.8°F17.1°C 65% Calm Calm 6.0 mph9.7 kmh 30.32 in1026.8 mb 0.00 in0.0 mm 0.00 in/hr0.0 mm/hr 0.00 in0.0 mm
01:32 PM 75.2°F24.0°C 63.1°F17.3°C 66% Calm Calm 6.0 mph9.7 kmh 30.32 in1026.8 mb 0.00 in0.0 mm 0.00 in/hr0.0 mm/hr 0.00 in0.0 mm
01:33 PM 75.6°F24.2°C 63.9°F17.7°C 67% Calm Calm 6.0 mph9.7 kmh 30.32 in1026.8 mb 0.00 in0.0 mm 0.00 in/hr0.0 mm/hr 0.00 in0.0 mm
01:34 PM 75.7°F24.3°C 64.0°F17.8°C 67% Calm Calm 6.0 mph9.7 kmh 30.32 in1026.8 mb 0.00 in0.0 mm 0.00 in/hr0.0 mm/hr 0.00 in0.0 mm
01:35 PM 75.7°F24.3°C 64.5°F18.1°C 68% Calm Calm 6.0 mph9.7 kmh 30.32 in1026.8 mb 0.00 in0.0 mm 0.00 in/hr0.0 mm/hr 0.00 in0.0 mm
01:36 PM 75.9°F24.4°C 64.2°F17.9°C 67% Calm Calm 6.0 mph9.7 kmh 30.32 in1026.8 mb 0.00 in0.0 mm 0.00 in/hr0.0 mm/hr 0.00 in0.0 mm
01:37 PM 75.9°F24.4°C 64.2°F17.9°C 67% 1.6 mph SW2.6 kmh SW 6.0 mph9.7 kmh 30.32 in1026.8 mb 0.00 in0.0 mm 0.00 in/hr0.0 mm/hr 0.00 in0.0 mm
01:38 PM 75.2°F24.0°C 63.1°F17.3°C 66% 0.7 mph WSW1.1 kmh WSW 6.0 mph9.7 kmh 30.32 in1026.8 mb 0.00 in0.0 mm 0.00 in/hr0.0 mm/hr 0.00 in0.0 mm
01:39 PM 74.8°F23.8°C 63.2°F17.3°C 67% Calm Calm 6.0 mph9.7 kmh 30.32 in1026.8 mb 0.00 in0.0 mm 0.00 in/hr0.0 mm/hr 0.00 in0.0 mm
01:40 PM 75.0°F23.9°C 63.4°F17.4°C 67% 1.6 mph NW2.6 kmh NW 3.1 mph5.0 kmh 30.32 in1026.8 mb 0.00 in0.0 mm 0.00 in/hr0.0 mm/hr 0.00 in0.0 mm
01:41 PM 74.7°F23.7°C 63.0°F17.2°C 67% 0.7 mph NW1.1 kmh NW 3.1 mph5.0 kmh 30.32 in1026.8 mb 0.00 in0.0 mm 0.00 in/hr0.0 mm/hr 0.00 in0.0 mm
01:42 PM 74.7°F23.7°C 63.0°F17.2°C 67% Calm Calm 3.1 mph5.0 kmh 30.32 in1026.8 mb 0.00 in0.0 mm 0.00 in/hr0.0 mm/hr 0.00 in0.0 mm
01:43 PM 74.8°F23.8°C 63.2°F17.3°C 67% Calm Calm 3.1 mph5.0 kmh 30.32 in1026.8 mb 0.00 in0.0 mm 0.00 in/hr0.0 mm/hr 0.00 in0.0 mm
01:44 PM 74.8°F23.8°C 63.2°F17.3°C 67% Calm Calm 3.1 mph5.0 kmh 30.32 in1026.8 mb 0.00 in0.0 mm 0.00 in/hr0.0 mm/hr 0.00 in0.0 mm
01:45 PM 75.2°F24.0°C 62.7°F17.1°C 65% Calm Calm 3.1 mph5.0 kmh 30.32 in1026.8 mb 0.00 in0.0 mm 0.00 in/hr0.0 mm/hr 0.00 in0.0 mm
01:46 PM 75.2°F24.0°C 62.7°F17.1°C 65% Calm Calm 3.1 mph5.0 kmh 30.32 in1026.8 mb 0.00 in0.0 mm 0.00 in/hr0.0 mm/hr 0.00 in0.0 mm
01:47 PM 75.2°F24.0°C 62.7°F17.1°C 65% Calm Calm 3.1 mph5.0 kmh 30.32 in1026.8 mb 0.00 in0.0 mm 0.00 in/hr0.0 mm/hr 0.00 in0.0 mm
01:48 PM 75.2°F24.0°C 62.7°F17.1°C 65% 0.7 mph WNW1.1 kmh WNW 3.1 mph5.0 kmh 30.32 in1026.8 mb 0.00 in0.0 mm 0.00 in/hr0.0 mm/hr 0.00 in0.0 mm
01:49 PM 74.8°F23.8°C 62.8°F17.1°C 66% Calm Calm 3.1 mph5.0 kmh 30.32 in1026.8 mb 0.00 in0.0 mm 0.00 in/hr0.0 mm/hr 0.00 in0.0 mm
01:50 PM 75.0°F23.9°C 63.4°F17.4°C 67% Calm Calm 3.1 mph5.0 kmh 30.32 in1026.8 mb 0.00 in0.0 mm 0.00 in/hr0.0 mm/hr 0.00 in0.0 mm
01:51 PM 75.0°F23.9°C 63.8°F17.7°C 68% Calm Calm 3.1 mph5.0 kmh 30.32 in1026.8 mb 0.00 in0.0 mm 0.00 in/hr0.0 mm/hr 0.00 in0.0 mm
01:52 PM 74.8°F23.8°C 63.2°F17.3°C 67% Calm Calm 3.1 mph5.0 kmh 30.32 in1026.8 mb 0.00 in0.0 mm 0.00 in/hr0.0 mm/hr 0.00 in0.0 mm
01:53 PM 75.0°F23.9°C 63.4°F17.4°C 67% Calm Calm 3.1 mph5.0 kmh 30.32 in1026.8 mb 0.00 in0.0 mm 0.00 in/hr0.0 mm/hr 0.00 in0.0 mm
01:54 PM 74.8°F23.8°C 63.2°F17.3°C 67% Calm Calm 3.1 mph5.0 kmh 30.31 in1026.4 mb 0.00 in0.0 mm 0.00 in/hr0.0 mm/hr 0.00 in0.0 mm
01:55 PM 74.8°F23.8°C 63.6°F17.6°C 68% Calm Calm 3.1 mph5.0 kmh 30.32 in1026.8 mb 0.00 in0.0 mm 0.00 in/hr0.0 mm/hr 0.00 in0.0 mm
01:56 PM 75.0°F23.9°C 63.8°F17.7°C 68% Calm Calm 3.1 mph5.0 kmh 30.31 in1026.4 mb 0.00 in0.0 mm 0.00 in/hr0.0 mm/hr 0.00 in0.0 mm
01:57 PM 75.4°F24.1°C 63.7°F17.6°C 67% Calm Calm 3.1 mph5.0 kmh 30.32 in1026.8 mb 0.00 in0.0 mm 0.00 in/hr0.0 mm/hr 0.00 in0.0 mm
01:58 PM 75.6°F24.2°C 63.4°F17.4°C 66% Calm Calm 3.1 mph5.0 kmh 30.32 in1026.8 mb 0.00 in0.0 mm 0.00 in/hr0.0 mm/hr 0.00 in0.0 mm
01:59 PM 75.7°F24.3°C 63.6°F17.6°C 66% Calm Calm -- 30.31 in1026.4 mb 0.00 in0.0 mm 0.00 in/hr0.0 mm/hr 0.00 in0.0 mm
02:00 PM 75.6°F24.2°C 63.4°F17.4°C 66% Calm Calm -- 30.31 in1026.4 mb 0.00 in0.0 mm 0.00 in/hr0.0 mm/hr 0.00 in0.0 mm
02:01 PM 75.9°F24.4°C 64.6°F18.1°C 68% Calm Calm -- 30.32 in1026.8 mb 0.00 in0.0 mm 0.00 in/hr0.0 mm/hr 0.00 in0.0 mm
02:02 PM 75.9°F24.4°C 64.6°F18.1°C 68% Calm Calm -- 30.31 in1026.4 mb 0.00 in0.0 mm 0.00 in/hr0.0 mm/hr 0.00 in0.0 mm
02:03 PM 75.9°F24.4°C 64.6°F18.1°C 68% Calm Calm -- 30.32 in1026.8 mb 0.00 in0.0 mm 0.00 in/hr0.0 mm/hr 0.00 in0.0 mm
02:04 PM 75.9°F24.4°C 64.6°F18.1°C 68% Calm Calm -- 30.32 in1026.8 mb 0.00 in0.0 mm 0.00 in/hr0.0 mm/hr 0.00 in0.0 mm
02:05 PM 75.6°F24.2°C 63.4°F17.4°C 66% Calm Calm -- 30.32 in1026.8 mb 0.00 in0.0 mm 0.00 in/hr0.0 mm/hr 0.00 in0.0 mm
02:06 PM 75.6°F24.2°C 63.4°F17.4°C 66% Calm Calm -- 30.31 in1026.4 mb 0.00 in0.0 mm 0.00 in/hr0.0 mm/hr 0.00 in0.0 mm
02:07 PM 75.7°F24.3°C 63.6°F17.6°C 66% Calm Calm -- 30.31 in1026.4 mb 0.00 in0.0 mm 0.00 in/hr0.0 mm/hr 0.00 in0.0 mm
02:08 PM 75.7°F24.3°C 63.6°F17.6°C 66% Calm Calm -- 30.31 in1026.4 mb 0.00 in0.0 mm 0.00 in/hr0.0 mm/hr 0.00 in0.0 mm
02:09 PM 75.7°F24.3°C 63.2°F17.3°C 65% Calm Calm -- 30.31 in1026.4 mb 0.00 in0.0 mm 0.00 in/hr0.0 mm/hr 0.00 in0.0 mm
02:10 PM 75.9°F24.4°C 63.3°F17.4°C 65% Calm Calm -- 30.32 in1026.8 mb 0.00 in0.0 mm 0.00 in/hr0.0 mm/hr 0.00 in0.0 mm
02:11 PM 75.9°F24.4°C 62.5°F16.9°C 63% Calm Calm -- 30.32 in1026.8 mb 0.00 in0.0 mm 0.00 in/hr0.0 mm/hr 0.00 in0.0 mm
02:12 PM 75.9°F24.4°C 62.5°F16.9°C 63% Calm Calm -- 30.32 in1026.8 mb 0.00 in0.0 mm 0.00 in/hr0.0 mm/hr 0.00 in0.0 mm
02:13 PM 75.9°F24.4°C 62.5°F16.9°C 63% Calm Calm -- 30.31 in1026.4 mb 0.00 in0.0 mm 0.00 in/hr0.0 mm/hr 0.00 in0.0 mm
02:14 PM 75.9°F24.4°C 62.5°F16.9°C 63% Calm Calm -- 30.31 in1026.4 mb 0.00 in0.0 mm 0.00 in/hr0.0 mm/hr 0.00 in0.0 mm
02:15 PM 75.9°F24.4°C 62.5°F16.9°C 63% Calm Calm -- 30.31 in1026.4 mb 0.00 in0.0 mm 0.00 in/hr0.0 mm/hr 0.00 in0.0 mm
02:16 PM 75.9°F24.4°C 62.5°F16.9°C 63% Calm Calm -- 30.31 in1026.4 mb 0.00 in0.0 mm 0.00 in/hr0.0 mm/hr 0.00 in0.0 mm
02:17 PM 75.9°F24.4°C 62.5°F16.9°C 63% Calm Calm -- 30.31 in1026.4 mb 0.00 in0.0 mm 0.00 in/hr0.0 mm/hr 0.00 in0.0 mm
02:18 PM 75.9°F24.4°C 62.5°F16.9°C 63% Calm Calm -- 30.31 in1026.4 mb 0.00 in0.0 mm 0.00 in/hr0.0 mm/hr 0.00 in0.0 mm
02:19 PM 75.9°F24.4°C 63.3°F17.4°C 65% Calm Calm -- 30.31 in1026.4 mb 0.00 in0.0 mm 0.00 in/hr0.0 mm/hr 0.00 in0.0 mm
02:20 PM 75.9°F24.4°C 63.3°F17.4°C 65% Calm Calm -- 30.31 in1026.4 mb 0.00 in0.0 mm 0.00 in/hr0.0 mm/hr 0.00 in0.0 mm
02:21 PM 75.7°F24.3°C 62.3°F16.8°C 63% Calm Calm 0.7 mph1.1 kmh 30.31 in1026.4 mb 0.00 in0.0 mm 0.00 in/hr0.0 mm/hr 0.00 in0.0 mm
02:22 PM 75.6°F24.2°C 62.1°F16.7°C 63% Calm Calm 0.7 mph1.1 kmh 30.31 in1026.4 mb 0.00 in0.0 mm 0.00 in/hr0.0 mm/hr 0.00 in0.0 mm
02:23 PM 75.6°F24.2°C 62.1°F16.7°C 63% Calm Calm 0.7 mph1.1 kmh 30.31 in1026.4 mb 0.00 in0.0 mm 0.00 in/hr0.0 mm/hr 0.00 in0.0 mm
02:24 PM 75.6°F24.2°C 62.1°F16.7°C 63% 1.6 mph W2.6 kmh W 2.2 mph3.5 kmh 30.31 in1026.4 mb 0.00 in0.0 mm 0.00 in/hr0.0 mm/hr 0.00 in0.0 mm
02:25 PM 75.2°F24.0°C 62.7°F17.1°C 65% Calm Calm 2.2 mph3.5 kmh 30.31 in1026.4 mb 0.00 in0.0 mm 0.00 in/hr0.0 mm/hr 0.00 in0.0 mm
02:26 PM 75.2°F24.0°C 62.7°F17.1°C 65% Calm Calm 2.2 mph3.5 kmh 30.31 in1026.4 mb 0.00 in0.0 mm 0.00 in/hr0.0 mm/hr 0.00 in0.0 mm
02:27 PM 75.6°F24.2°C 63.0°F17.2°C 65% Calm Calm 2.2 mph3.5 kmh 30.31 in1026.4 mb 0.00 in0.0 mm 0.00 in/hr0.0 mm/hr 0.00 in0.0 mm
02:28 PM 75.6°F24.2°C 63.0°F17.2°C 65% Calm Calm 2.2 mph3.5 kmh 30.31 in1026.4 mb 0.00 in0.0 mm 0.00 in/hr0.0 mm/hr 0.00 in0.0 mm
02:29 PM 75.6°F24.2°C 63.4°F17.4°C 66% Calm Calm 2.2 mph3.5 kmh 30.31 in1026.4 mb 0.00 in0.0 mm 0.00 in/hr0.0 mm/hr 0.00 in0.0 mm
02:30 PM 75.7°F24.3°C 63.6°F17.6°C 66% Calm Calm 2.2 mph3.5 kmh 30.31 in1026.4 mb 0.00 in0.0 mm 0.00 in/hr0.0 mm/hr 0.00 in0.0 mm
02:31 PM 75.7°F24.3°C 63.6°F17.6°C 66% Calm Calm 2.2 mph3.5 kmh 30.31 in1026.4 mb 0.00 in0.0 mm 0.00 in/hr0.0 mm/hr 0.00 in0.0 mm
02:32 PM 75.7°F24.3°C 63.6°F17.6°C 66% Calm Calm 2.2 mph3.5 kmh 30.31 in1026.4 mb 0.00 in0.0 mm 0.00 in/hr0.0 mm/hr 0.00 in0.0 mm
02:33 PM 75.7°F24.3°C 63.6°F17.6°C 66% Calm Calm 2.2 mph3.5 kmh 30.31 in1026.4 mb 0.00 in0.0 mm 0.00 in/hr0.0 mm/hr 0.00 in0.0 mm
02:34 PM 75.7°F24.3°C 63.6°F17.6°C 66% Calm Calm 0.7 mph1.1 kmh 30.31 in1026.4 mb 0.00 in0.0 mm 0.00 in/hr0.0 mm/hr 0.00 in0.0 mm
02:35 PM 75.7°F24.3°C 63.6°F17.6°C 66% Calm Calm -- 30.31 in1026.4 mb 0.00 in0.0 mm 0.00 in/hr0.0 mm/hr 0.00 in0.0 mm
02:36 PM 75.7°F24.3°C 63.6°F17.6°C 66% Calm Calm -- 30.31 in1026.4 mb 0.00 in0.0 mm 0.00 in/hr0.0 mm/hr 0.00 in0.0 mm
02:37 PM 75.7°F24.3°C 63.6°F17.6°C 66% Calm Calm -- 30.31 in1026.4 mb 0.00 in0.0 mm 0.00 in/hr0.0 mm/hr 0.00 in0.0 mm
02:38 PM 75.7°F24.3°C 63.6°F17.6°C 66% Calm Calm -- 30.31 in1026.4 mb 0.00 in0.0 mm 0.00 in/hr0.0 mm/hr 0.00 in0.0 mm
02:39 PM 75.6°F24.2°C 63.4°F17.4°C 66% Calm Calm -- 30.30 in1026.1 mb 0.00 in0.0 mm 0.00 in/hr0.0 mm/hr 0.00 in0.0 mm
02:40 PM 75.6°F24.2°C 63.4°F17.4°C 66% Calm Calm -- 30.31 in1026.4 mb 0.00 in0.0 mm 0.00 in/hr0.0 mm/hr 0.00 in0.0 mm
02:41 PM 75.4°F24.1°C 62.8°F17.1°C 65% Calm Calm -- 30.31 in1026.4 mb 0.00 in0.0 mm 0.00 in/hr0.0 mm/hr 0.00 in0.0 mm
02:42 PM 75.2°F24.0°C 62.7°F17.1°C 65% Calm Calm -- 30.31 in1026.4 mb 0.00 in0.0 mm 0.00 in/hr0.0 mm/hr 0.00 in0.0 mm
02:43 PM 75.4°F24.1°C 63.3°F17.4°C 66% Calm Calm -- 30.31 in1026.4 mb 0.00 in0.0 mm 0.00 in/hr0.0 mm/hr 0.00 in0.0 mm
02:44 PM 75.4°F24.1°C 63.3°F17.4°C 66% Calm Calm -- 30.31 in1026.4 mb 0.00 in0.0 mm 0.00 in/hr0.0 mm/hr 0.00 in0.0 mm
02:45 PM 75.6°F24.2°C 63.4°F17.4°C 66% Calm Calm -- 30.31 in1026.4 mb 0.00 in0.0 mm 0.00 in/hr0.0 mm/hr 0.00 in0.0 mm
02:46 PM 75.6°F24.2°C 63.0°F17.2°C 65% 1.6 mph SSE2.6 kmh SSE 2.2 mph3.5 kmh 30.31 in1026.4 mb 0.00 in0.0 mm 0.00 in/hr0.0 mm/hr 0.00 in0.0 mm
02:47 PM 75.2°F24.0°C 62.7°F17.1°C 65% Calm Calm 2.2 mph3.5 kmh 30.31 in1026.4 mb 0.00 in0.0 mm 0.00 in/hr0.0 mm/hr 0.00 in0.0 mm
02:48 PM 75.4°F24.1°C 62.8°F17.1°C 65% Calm Calm 2.2 mph3.5 kmh 30.31 in1026.4 mb 0.00 in0.0 mm 0.00 in/hr0.0 mm/hr 0.00 in0.0 mm
02:49 PM 75.2°F24.0°C 63.5°F17.5°C 67% Calm Calm 2.2 mph3.5 kmh 30.30 in1026.1 mb 0.00 in0.0 mm 0.00 in/hr0.0 mm/hr 0.00 in0.0 mm
02:50 PM 75.2°F24.0°C 63.1°F17.3°C 66% Calm Calm 2.2 mph3.5 kmh 30.31 in1026.4 mb 0.00 in0.0 mm 0.00 in/hr0.0 mm/hr 0.00 in0.0 mm
02:51 PM 75.2°F24.0°C 63.1°F17.3°C 66% Calm Calm 2.2 mph3.5 kmh 30.30 in1026.1 mb 0.00 in0.0 mm 0.00 in/hr0.0 mm/hr 0.00 in0.0 mm
02:52 PM 75.2°F24.0°C 63.1°F17.3°C 66% Calm Calm 2.2 mph3.5 kmh 30.30 in1026.1 mb 0.00 in0.0 mm 0.00 in/hr0.0 mm/hr 0.00 in0.0 mm
02:53 PM 75.2°F24.0°C 62.7°F17.1°C 65% Calm Calm 2.2 mph3.5 kmh 30.30 in1026.1 mb 0.00 in0.0 mm 0.00 in/hr0.0 mm/hr 0.00 in0.0 mm
02:54 PM 75.2°F24.0°C 62.7°F17.1°C 65% Calm Calm 2.2 mph3.5 kmh 30.30 in1026.1 mb 0.00 in0.0 mm 0.00 in/hr0.0 mm/hr 0.00 in0.0 mm
02:55 PM 75.0°F23.9°C 62.9°F17.2°C 66% Calm Calm 2.2 mph3.5 kmh 30.30 in1026.1 mb 0.00 in0.0 mm 0.00 in/hr0.0 mm/hr 0.00 in0.0 mm
02:56 PM 75.2°F24.0°C 62.7°F17.1°C 65% Calm Calm 2.2 mph3.5 kmh 30.30 in1026.1 mb 0.00 in0.0 mm 0.00 in/hr0.0 mm/hr 0.00 in0.0 mm
02:57 PM 75.2°F24.0°C 61.8°F16.6°C 63% Calm Calm 1.6 mph2.6 kmh 30.31 in1026.4 mb 0.00 in0.0 mm 0.00 in/hr0.0 mm/hr 0.00 in0.0 mm
02:58 PM 75.4°F24.1°C 61.9°F16.6°C 63% Calm Calm 0.7 mph1.1 kmh 30.30 in1026.1 mb 0.00 in0.0 mm 0.00 in/hr0.0 mm/hr 0.00 in0.0 mm
02:59 PM 75.4°F24.1°C 61.9°F16.6°C 63% Calm Calm -- 30.30 in1026.1 mb 0.00 in0.0 mm 0.00 in/hr0.0 mm/hr 0.00 in0.0 mm
03:00 PM 75.6°F24.2°C 62.1°F16.7°C 63% Calm Calm -- 30.30 in1026.1 mb 0.00 in0.0 mm 0.00 in/hr0.0 mm/hr 0.00 in0.0 mm
03:01 PM 75.4°F24.1°C 62.8°F17.1°C 65% Calm Calm -- 30.30 in1026.1 mb 0.00 in0.0 mm 0.00 in/hr0.0 mm/hr 0.00 in0.0 mm
03:02 PM 75.6°F24.2°C 63.0°F17.2°C 65% Calm Calm -- 30.30 in1026.1 mb 0.00 in0.0 mm 0.00 in/hr0.0 mm/hr 0.00 in0.0 mm
03:03 PM 75.4°F24.1°C 62.8°F17.1°C 65% Calm Calm -- 30.30 in1026.1 mb 0.00 in0.0 mm 0.00 in/hr0.0 mm/hr 0.00 in0.0 mm
03:04 PM 75.2°F24.0°C 62.7°F17.1°C 65% Calm Calm 1.6 mph2.6 kmh 30.30 in1026.1 mb 0.00 in0.0 mm 0.00 in/hr0.0 mm/hr 0.00 in0.0 mm
03:05 PM 75.0°F23.9°C 62.9°F17.2°C 66% Calm Calm 1.6 mph2.6 kmh 30.30 in1026.1 mb 0.00 in0.0 mm 0.00 in/hr0.0 mm/hr 0.00 in0.0 mm
03:06 PM 75.2°F24.0°C 62.7°F17.1°C 65% Calm Calm 1.6 mph2.6 kmh 30.30 in1026.1 mb 0.00 in0.0 mm 0.00 in/hr0.0 mm/hr 0.00 in0.0 mm
03:07 PM 75.0°F23.9°C 62.9°F17.2°C 66% Calm Calm 1.6 mph2.6 kmh 30.30 in1026.1 mb 0.00 in0.0 mm 0.00 in/hr0.0 mm/hr 0.00 in0.0 mm
03:08 PM 75.0°F23.9°C 62.9°F17.2°C 66% Calm Calm 1.6 mph2.6 kmh 30.30 in1026.1 mb 0.00 in0.0 mm 0.00 in/hr0.0 mm/hr 0.00 in0.0 mm
03:09 PM 75.2°F24.0°C 62.7°F17.1°C 65% Calm Calm 1.6 mph2.6 kmh 30.30 in1026.1 mb 0.00 in0.0 mm 0.00 in/hr0.0 mm/hr 0.00 in0.0 mm
03:10 PM 75.4°F24.1°C 63.3°F17.4°C 66% Calm Calm 1.6 mph2.6 kmh 30.30 in1026.1 mb 0.00 in0.0 mm 0.00 in/hr0.0 mm/hr 0.00 in0.0 mm
03:11 PM 75.2°F24.0°C 63.1°F17.3°C 66% Calm Calm 1.6 mph2.6 kmh 30.30 in1026.1 mb 0.00 in0.0 mm 0.00 in/hr0.0 mm/hr 0.00 in0.0 mm
03:12 PM 75.2°F24.0°C 63.1°F17.3°C 66% Calm Calm 1.6 mph2.6 kmh 30.30 in1026.1 mb 0.00 in0.0 mm 0.00 in/hr0.0 mm/hr 0.00 in0.0 mm
03:13 PM 75.2°F24.0°C 63.1°F17.3°C 66% Calm Calm 1.6 mph2.6 kmh 30.30 in1026.1 mb 0.00 in0.0 mm 0.00 in/hr0.0 mm/hr 0.00 in0.0 mm
03:14 PM 75.2°F24.0°C 63.1°F17.3°C 66% Calm Calm 0.7 mph1.1 kmh 30.30 in1026.1 mb 0.00 in0.0 mm 0.00 in/hr0.0 mm/hr 0.00 in0.0 mm
03:15 PM 75.2°F24.0°C 63.1°F17.3°C 66% Calm Calm -- 30.30 in1026.1 mb 0.00 in0.0 mm 0.00 in/hr0.0 mm/hr 0.00 in0.0 mm
03:16 PM 75.2°F24.0°C 63.5°F17.5°C 67% Calm Calm -- 30.30 in1026.1 mb 0.00 in0.0 mm 0.00 in/hr0.0 mm/hr 0.00 in0.0 mm
03:17 PM 75.2°F24.0°C 63.5°F17.5°C 67% Calm Calm -- 30.30 in1026.1 mb 0.00 in0.0 mm 0.00 in/hr0.0 mm/hr 0.00 in0.0 mm
03:18 PM 74.8°F23.8°C 64.4°F18.0°C 70% Calm Calm -- 30.30 in1026.1 mb 0.00 in0.0 mm 0.00 in/hr0.0 mm/hr 0.00 in0.0 mm
03:19 PM 75.0°F23.9°C 64.6°F18.1°C 70% Calm Calm -- 30.30 in1026.1 mb 0.00 in0.0 mm 0.00 in/hr0.0 mm/hr 0.00 in0.0 mm
03:20 PM 74.8°F23.8°C 64.4°F18.0°C 70% Calm Calm -- 30.30 in1026.1 mb 0.00 in0.0 mm 0.00 in/hr0.0 mm/hr 0.00 in0.0 mm
03:21 PM 75.0°F23.9°C 64.6°F18.1°C 70% Calm Calm -- 30.30 in1026.1 mb 0.00 in0.0 mm 0.00 in/hr0.0 mm/hr 0.00 in0.0 mm
03:22 PM 75.0°F23.9°C 64.6°F18.1°C 70% Calm Calm -- 30.30 in1026.1 mb 0.00 in0.0 mm 0.00 in/hr0.0 mm/hr 0.00 in0.0 mm
03:23 PM 75.0°F23.9°C 64.6°F18.1°C 70% 1.6 mph NNW2.6 kmh NNW 3.1 mph5.0 kmh 30.30 in1026.1 mb 0.00 in0.0 mm 0.00 in/hr0.0 mm/hr 0.00 in0.0 mm
03:24 PM 74.7°F23.7°C 64.3°F17.9°C 70% 0.7 mph NW1.1 kmh NW 3.1 mph5.0 kmh 30.30 in1026.1 mb 0.00 in0.0 mm 0.00 in/hr0.0 mm/hr 0.00 in0.0 mm
03:25 PM 74.5°F23.6°C 64.1°F17.8°C 70% Calm Calm 3.1 mph5.0 kmh 30.30 in1026.1 mb 0.00 in0.0 mm 0.00 in/hr0.0 mm/hr 0.00 in0.0 mm
03:26 PM 74.3°F23.5°C 63.9°F17.7°C 70% Calm Calm 3.1 mph5.0 kmh 30.30 in1026.1 mb 0.00 in0.0 mm 0.00 in/hr0.0 mm/hr 0.00 in0.0 mm
03:27 PM 74.5°F23.6°C 64.1°F17.8°C 70% Calm Calm 3.1 mph5.0 kmh 30.30 in1026.1 mb 0.00 in0.0 mm 0.00 in/hr0.0 mm/hr 0.00 in0.0 mm
03:28 PM 74.7°F23.7°C 64.7°F18.2°C 71% Calm Calm 3.1 mph5.0 kmh 30.30 in1026.1 mb 0.00 in0.0 mm 0.00 in/hr0.0 mm/hr 0.00 in0.0 mm
03:29 PM 74.8°F23.8°C 64.8°F18.2°C 71% 0.7 mph NW1.1 kmh NW 3.1 mph5.0 kmh 30.30 in1026.1 mb 0.00 in0.0 mm 0.00 in/hr0.0 mm/hr 0.00 in0.0 mm
03:30 PM 74.8°F23.8°C 64.8°F18.2°C 71% Calm Calm 3.1 mph5.0 kmh 30.30 in1026.1 mb 0.00 in0.0 mm 0.00 in/hr0.0 mm/hr 0.00 in0.0 mm
03:31 PM 75.0°F23.9°C 65.0°F18.3°C 71% Calm Calm 3.1 mph5.0 kmh 30.30 in1026.1 mb 0.00 in0.0 mm 0.00 in/hr0.0 mm/hr 0.00 in0.0 mm
03:32 PM 75.0°F23.9°C 65.0°F18.3°C 71% Calm Calm 3.1 mph5.0 kmh 30.30 in1026.1 mb 0.00 in0.0 mm 0.00 in/hr0.0 mm/hr 0.00 in0.0 mm
03:33 PM 75.0°F23.9°C 65.0°F18.3°C 71% Calm Calm 3.1 mph5.0 kmh 30.30 in1026.1 mb 0.00 in0.0 mm 0.00 in/hr0.0 mm/hr 0.00 in0.0 mm
03:34 PM 75.0°F23.9°C 65.0°F18.3°C 71% Calm Calm 1.6 mph2.6 kmh 30.30 in1026.1 mb 0.00 in0.0 mm 0.00 in/hr0.0 mm/hr 0.00 in0.0 mm
03:35 PM 75.0°F23.9°C 65.0°F18.3°C 71% Calm Calm 1.6 mph2.6 kmh 30.29 in1025.7 mb 0.00 in0.0 mm 0.00 in/hr0.0 mm/hr 0.00 in0.0 mm
03:36 PM 75.0°F23.9°C 65.0°F18.3°C 71% Calm Calm 1.6 mph2.6 kmh 30.30 in1026.1 mb 0.00 in0.0 mm 0.00 in/hr0.0 mm/hr 0.00 in0.0 mm
03:37 PM 75.4°F24.1°C 65.0°F18.3°C 70% Calm Calm 1.6 mph2.6 kmh 30.29 in1025.7 mb 0.00 in0.0 mm 0.00 in/hr0.0 mm/hr 0.00 in0.0 mm
03:38 PM 75.4°F24.1°C 65.4°F18.6°C 71% Calm Calm 1.6 mph2.6 kmh 30.30 in1026.1 mb 0.00 in0.0 mm 0.00 in/hr0.0 mm/hr 0.00 in0.0 mm
03:39 PM 75.6°F24.2°C 65.5°F18.6°C 71% Calm Calm 1.6 mph2.6 kmh 30.29 in1025.7 mb 0.00 in0.0 mm 0.00 in/hr0.0 mm/hr 0.00 in0.0 mm
03:40 PM 75.6°F24.2°C 65.1°F18.4°C 70% Calm Calm 1.6 mph2.6 kmh 30.30 in1026.1 mb 0.00 in0.0 mm 0.00 in/hr0.0 mm/hr 0.00 in0.0 mm
03:41 PM 75.6°F24.2°C 65.1°F18.4°C 70% 2.2 mph SW3.5 kmh SW 3.1 mph5.0 kmh 30.30 in1026.1 mb 0.00 in0.0 mm 0.00 in/hr0.0 mm/hr 0.00 in0.0 mm
03:42 PM 75.2°F24.0°C 64.8°F18.2°C 70% Calm Calm 3.1 mph5.0 kmh 30.30 in1026.1 mb 0.00 in0.0 mm 0.00 in/hr0.0 mm/hr 0.00 in0.0 mm
03:43 PM 75.2°F24.0°C 64.8°F18.2°C 70% Calm Calm 3.1 mph5.0 kmh 30.30 in1026.1 mb 0.00 in0.0 mm 0.00 in/hr0.0 mm/hr 0.00 in0.0 mm
03:44 PM 75.2°F24.0°C 65.2°F18.4°C 71% Calm Calm 3.1 mph5.0 kmh 30.30 in1026.1 mb 0.00 in0.0 mm 0.00 in/hr0.0 mm/hr 0.00 in0.0 mm
03:45 PM 75.4°F24.1°C 65.4°F18.6°C 71% Calm Calm 3.1 mph5.0 kmh 30.29 in1025.7 mb 0.00 in0.0 mm 0.00 in/hr0.0 mm/hr 0.00 in0.0 mm
03:46 PM 75.6°F24.2°C 65.5°F18.6°C 71% 0.7 mph SW1.1 kmh SW 3.1 mph5.0 kmh 30.29 in1025.7 mb 0.00 in0.0 mm 0.00 in/hr0.0 mm/hr 0.00 in0.0 mm
03:47 PM 75.6°F24.2°C 65.1°F18.4°C 70% Calm Calm 3.1 mph5.0 kmh 30.29 in1025.7 mb 0.00 in0.0 mm 0.00 in/hr0.0 mm/hr 0.00 in0.0 mm
03:48 PM 75.6°F24.2°C 65.1°F18.4°C 70% Calm Calm 3.1 mph5.0 kmh 30.29 in1025.7 mb 0.00 in0.0 mm 0.00 in/hr0.0 mm/hr 0.00 in0.0 mm
03:49 PM 75.7°F24.3°C 65.7°F18.7°C 71% Calm Calm 3.1 mph5.0 kmh 30.29 in1025.7 mb 0.00 in0.0 mm 0.00 in/hr0.0 mm/hr 0.00 in0.0 mm
03:50 PM 75.7°F24.3°C 65.7°F18.7°C 71% Calm Calm 3.1 mph5.0 kmh 30.29 in1025.7 mb 0.00 in0.0 mm 0.00 in/hr0.0 mm/hr 0.00 in0.0 mm
03:51 PM 75.7°F24.3°C 65.7°F18.7°C 71% Calm Calm 3.1 mph5.0 kmh 30.29 in1025.7 mb 0.00 in0.0 mm 0.00 in/hr0.0 mm/hr 0.00 in0.0 mm
03:52 PM 75.7°F24.3°C 65.7°F18.7°C 71% Calm Calm 1.6 mph2.6 kmh 30.29 in1025.7 mb 0.00 in0.0 mm 0.00 in/hr0.0 mm/hr 0.00 in0.0 mm
03:53 PM 75.6°F24.2°C 65.5°F18.6°C 71% 0.7 mph S1.1 kmh S 1.6 mph2.6 kmh 30.29 in1025.7 mb 0.00 in0.0 mm 0.00 in/hr0.0 mm/hr 0.00 in0.0 mm
03:54 PM 75.6°F24.2°C 65.5°F18.6°C 71% Calm Calm 2.2 mph3.5 kmh 30.29 in1025.7 mb 0.00 in0.0 mm 0.00 in/hr0.0 mm/hr 0.00 in0.0 mm
03:55 PM 75.2°F24.0°C 65.2°F18.4°C 71% 0.7 mph SSW1.1 kmh SSW 2.2 mph3.5 kmh 30.29 in1025.7 mb 0.00 in0.0 mm 0.00 in/hr0.0 mm/hr 0.00 in0.0 mm
03:56 PM 75.2°F24.0°C 65.6°F18.7°C 72% Calm Calm 2.2 mph3.5 kmh 30.29 in1025.7 mb 0.00 in0.0 mm 0.00 in/hr0.0 mm/hr 0.00 in0.0 mm
03:57 PM 74.8°F23.8°C 65.6°F18.7°C 73% 0.7 mph S1.1 kmh S 2.2 mph3.5 kmh 30.29 in1025.7 mb 0.00 in0.0 mm 0.00 in/hr0.0 mm/hr 0.00 in0.0 mm
03:58 PM 74.8°F23.8°C 65.6°F18.7°C 73% Calm Calm 2.2 mph3.5 kmh 30.29 in1025.7 mb 0.00 in0.0 mm 0.00 in/hr0.0 mm/hr 0.00 in0.0 mm
03:59 PM 74.8°F23.8°C 66.4°F19.1°C 75% Calm Calm 2.2 mph3.5 kmh 30.29 in1025.7 mb 0.00 in0.0 mm 0.00 in/hr0.0 mm/hr 0.00 in0.0 mm
04:00 PM 74.7°F23.7°C 66.2°F19.0°C 75% Calm Calm 2.2 mph3.5 kmh 30.29 in1025.7 mb 0.00 in0.0 mm 0.00 in/hr0.0 mm/hr 0.00 in0.0 mm
04:01 PM 74.7°F23.7°C 66.2°F19.0°C 75% Calm Calm 2.2 mph3.5 kmh 30.29 in1025.7 mb 0.00 in0.0 mm 0.00 in/hr0.0 mm/hr 0.00 in0.0 mm
04:02 PM 74.8°F23.8°C 66.4°F19.1°C 75% Calm Calm 2.2 mph3.5 kmh 30.29 in1025.7 mb 0.00 in0.0 mm 0.00 in/hr0.0 mm/hr 0.00 in0.0 mm
04:03 PM 74.8°F23.8°C 66.8°F19.3°C 76% Calm Calm 2.2 mph3.5 kmh 30.29 in1025.7 mb 0.00 in0.0 mm 0.00 in/hr0.0 mm/hr 0.00 in0.0 mm
04:04 PM 75.0°F23.9°C 67.0°F19.4°C 76% Calm Calm 2.2 mph3.5 kmh 30.29 in1025.7 mb 0.00 in0.0 mm 0.00 in/hr0.0 mm/hr 0.00 in0.0 mm
04:05 PM 75.0°F23.9°C 67.0°F19.4°C 76% Calm Calm 2.2 mph3.5 kmh 30.29 in1025.7 mb 0.00 in0.0 mm 0.00 in/hr0.0 mm/hr 0.00 in0.0 mm
04:06 PM 74.8°F23.8°C 66.8°F19.3°C 76% Calm Calm 2.2 mph3.5 kmh 30.29 in1025.7 mb 0.00 in0.0 mm 0.00 in/hr0.0 mm/hr 0.00 in0.0 mm
04:07 PM 74.8°F23.8°C 66.8°F19.3°C 76% Calm Calm 2.2 mph3.5 kmh 30.29 in1025.7 mb 0.00 in0.0 mm 0.00 in/hr0.0 mm/hr 0.00 in0.0 mm
04:08 PM 74.8°F23.8°C 66.8°F19.3°C 76% Calm Calm 1.6 mph2.6 kmh 30.29 in1025.7 mb 0.00 in0.0 mm 0.00 in/hr0.0 mm/hr 0.00 in0.0 mm
04:09 PM 75.0°F23.9°C 67.0°F19.4°C 76% Calm Calm 1.6 mph2.6 kmh 30.29 in1025.7 mb 0.00 in0.0 mm 0.00 in/hr0.0 mm/hr 0.00 in0.0 mm
04:10 PM 75.0°F23.9°C 67.0°F19.4°C 76% Calm Calm 1.6 mph2.6 kmh 30.29 in1025.7 mb 0.00 in0.0 mm 0.00 in/hr0.0 mm/hr 0.00 in0.0 mm
04:11 PM 75.0°F23.9°C 67.0°F19.4°C 76% Calm Calm 1.6 mph2.6 kmh 30.29 in1025.7 mb 0.00 in0.0 mm 0.00 in/hr0.0 mm/hr 0.00 in0.0 mm
04:12 PM 75.2°F24.0°C 66.8°F19.3°C 75% Calm Calm 1.6 mph2.6 kmh 30.29 in1025.7 mb 0.00 in0.0 mm 0.00 in/hr0.0 mm/hr 0.00 in0.0 mm
04:13 PM 75.0°F23.9°C 67.0°F19.4°C 76% Calm Calm 1.6 mph2.6 kmh 30.29 in1025.7 mb 0.00 in0.0 mm 0.00 in/hr0.0 mm/hr 0.00 in0.0 mm
04:14 PM 74.8°F23.8°C 67.2°F19.6°C 77% Calm Calm 1.6 mph2.6 kmh 30.29 in1025.7 mb 0.00 in0.0 mm 0.00 in/hr0.0 mm/hr 0.00 in0.0 mm
04:15 PM 74.8°F23.8°C 67.2°F19.6°C 77% Calm Calm 1.6 mph2.6 kmh 30.29 in1025.7 mb 0.00 in0.0 mm 0.00 in/hr0.0 mm/hr 0.00 in0.0 mm
04:16 PM 74.5°F23.6°C 66.8°F19.3°C 77% Calm Calm 0.7 mph1.1 kmh 30.29 in1025.7 mb 0.00 in0.0 mm 0.00 in/hr0.0 mm/hr 0.00 in0.0 mm
04:17 PM 74.7°F23.7°C 67.0°F19.4°C 77% Calm Calm 0.7 mph1.1 kmh 30.29 in1025.7 mb 0.00 in0.0 mm 0.00 in/hr0.0 mm/hr 0.00 in0.0 mm
04:18 PM 74.1°F23.4°C 66.5°F19.2°C 77% Calm Calm 0.7 mph1.1 kmh 30.29 in1025.7 mb 0.00 in0.0 mm 0.00 in/hr0.0 mm/hr 0.00 in0.0 mm
04:19 PM 74.3°F23.5°C 66.7°F19.3°C 77% Calm Calm 0.7 mph1.1 kmh 30.29 in1025.7 mb 0.00 in0.0 mm 0.00 in/hr0.0 mm/hr 0.00 in0.0 mm
04:20 PM 73.9°F23.3°C 66.3°F19.1°C 77% 1.6 mph W2.6 kmh W 3.8 mph6.1 kmh 30.29 in1025.7 mb 0.00 in0.0 mm 0.00 in/hr0.0 mm/hr 0.00 in0.0 mm
04:21 PM 73.8°F23.2°C 66.5°F19.2°C 78% Calm Calm 3.8 mph6.1 kmh 30.29 in1025.7 mb 0.00 in0.0 mm 0.00 in/hr0.0 mm/hr 0.00 in0.0 mm
04:22 PM 73.8°F23.2°C 66.5°F19.2°C 78% Calm Calm 3.8 mph6.1 kmh 30.29 in1025.7 mb 0.00 in0.0 mm 0.00 in/hr0.0 mm/hr 0.00 in0.0 mm
04:23 PM 73.8°F23.2°C 66.5°F19.2°C 78% Calm Calm 3.8 mph6.1 kmh 30.29 in1025.7 mb 0.00 in0.0 mm 0.00 in/hr0.0 mm/hr 0.00 in0.0 mm
04:24 PM 73.8°F23.2°C 66.5°F19.2°C 78% 0.7 mph WSW1.1 kmh WSW 3.8 mph6.1 kmh 30.29 in1025.7 mb 0.00 in0.0 mm 0.00 in/hr0.0 mm/hr 0.00 in0.0 mm
04:25 PM 73.6°F23.1°C 67.1°F19.5°C 80% 0.7 mph SW1.1 kmh SW 3.8 mph6.1 kmh 30.29 in1025.7 mb 0.00 in0.0 mm 0.00 in/hr0.0 mm/hr 0.00 in0.0 mm
04:26 PM 73.6°F23.1°C 67.1°F19.5°C 80% 0.7 mph SW1.1 kmh SW 3.8 mph6.1 kmh 30.29 in1025.7 mb 0.00 in0.0 mm 0.00 in/hr0.0 mm/hr 0.00 in0.0 mm
04:27 PM 73.4°F23.0°C 66.9°F19.4°C 80% Calm Calm 3.8 mph6.1 kmh 30.29 in1025.7 mb 0.00 in0.0 mm 0.00 in/hr0.0 mm/hr 0.00 in0.0 mm
04:28 PM 73.4°F23.0°C 67.3°F19.6°C 81% Calm Calm 3.8 mph6.1 kmh 30.29 in1025.7 mb 0.00 in0.0 mm 0.00 in/hr0.0 mm/hr 0.00 in0.0 mm
04:29 PM 73.4°F23.0°C 67.3°F19.6°C 81% Calm Calm 3.8 mph6.1 kmh 30.28 in1025.4 mb 0.00 in0.0 mm 0.00 in/hr0.0 mm/hr 0.00 in0.0 mm
04:30 PM 73.6°F23.1°C 67.8°F19.9°C 82% Calm Calm 3.8 mph6.1 kmh 30.28 in1025.4 mb 0.00 in0.0 mm 0.00 in/hr0.0 mm/hr 0.00 in0.0 mm
04:31 PM 73.6°F23.1°C 67.8°F19.9°C 82% Calm Calm 3.8 mph6.1 kmh 30.29 in1025.7 mb 0.00 in0.0 mm 0.00 in/hr0.0 mm/hr 0.00 in0.0 mm
04:32 PM 73.8°F23.2°C 68.0°F20.0°C 82% Calm Calm 3.8 mph6.1 kmh 30.29 in1025.7 mb 0.00 in0.0 mm 0.00 in/hr0.0 mm/hr 0.00 in0.0 mm
04:33 PM 73.9°F23.3°C 67.8°F19.9°C 81% Calm Calm 3.8 mph6.1 kmh 30.29 in1025.7 mb 0.00 in0.0 mm 0.00 in/hr0.0 mm/hr 0.00 in0.0 mm
04:34 PM 73.9°F23.3°C 67.8°F19.9°C 81% Calm Calm 3.8 mph6.1 kmh 30.29 in1025.7 mb 0.00 in0.0 mm 0.00 in/hr0.0 mm/hr 0.00 in0.0 mm
04:35 PM 74.1°F23.4°C 68.0°F20.0°C 81% 0.7 mph NE1.1 kmh NE 3.1 mph5.0 kmh 30.29 in1025.7 mb 0.00 in0.0 mm 0.00 in/hr0.0 mm/hr 0.00 in0.0 mm
04:36 PM 73.8°F23.2°C 67.2°F19.6°C 80% Calm Calm 2.2 mph3.5 kmh 30.29 in1025.7 mb 0.00 in0.0 mm 0.00 in/hr0.0 mm/hr 0.00 in0.0 mm
04:37 PM 73.8°F23.2°C 67.2°F19.6°C 80% Calm Calm 2.2 mph3.5 kmh 30.29 in1025.7 mb 0.00 in0.0 mm 0.00 in/hr0.0 mm/hr 0.00 in0.0 mm
04:38 PM 73.8°F23.2°C 67.2°F19.6°C 80% Calm Calm 2.2 mph3.5 kmh 30.29 in1025.7 mb 0.00 in0.0 mm 0.00 in/hr0.0 mm/hr 0.00 in0.0 mm
04:39 PM 73.8°F23.2°C 67.6°F19.8°C 81% Calm Calm 2.2 mph3.5 kmh 30.29 in1025.7 mb 0.00 in0.0 mm 0.00 in/hr0.0 mm/hr 0.00 in0.0 mm
04:40 PM 73.8°F23.2°C 67.2°F19.6°C 80% Calm Calm 2.2 mph3.5 kmh 30.29 in1025.7 mb 0.00 in0.0 mm 0.00 in/hr0.0 mm/hr 0.00 in0.0 mm
04:41 PM 73.8°F23.2°C 67.2°F19.6°C 80% Calm Calm 2.2 mph3.5 kmh 30.29 in1025.7 mb 0.00 in0.0 mm 0.00 in/hr0.0 mm/hr 0.00 in0.0 mm
04:42 PM 73.8°F23.2°C 67.2°F19.6°C 80% Calm Calm 2.2 mph3.5 kmh 30.29 in1025.7 mb 0.00 in0.0 mm 0.00 in/hr0.0 mm/hr 0.00 in0.0 mm
04:43 PM 73.8°F23.2°C 67.2°F19.6°C 80% Calm Calm 2.2 mph3.5 kmh 30.29 in1025.7 mb 0.00 in0.0 mm 0.00 in/hr0.0 mm/hr 0.00 in0.0 mm
04:44 PM 73.9°F23.3°C 67.4°F19.7°C 80% Calm Calm 2.2 mph3.5 kmh 30.29 in1025.7 mb 0.00 in0.0 mm 0.00 in/hr0.0 mm/hr 0.00 in0.0 mm
04:45 PM 73.9°F23.3°C 67.4°F19.7°C 80% Calm Calm 1.6 mph2.6 kmh 30.29 in1025.7 mb 0.00 in0.0 mm 0.00 in/hr0.0 mm/hr 0.00 in0.0 mm
04:46 PM 73.9°F23.3°C 67.4°F19.7°C 80% Calm Calm 1.6 mph2.6 kmh 30.29 in1025.7 mb 0.00 in0.0 mm 0.00 in/hr0.0 mm/hr 0.00 in0.0 mm
04:47 PM 73.9°F23.3°C 67.4°F19.7°C 80% Calm Calm 1.6 mph2.6 kmh 30.29 in1025.7 mb 0.00 in0.0 mm 0.00 in/hr0.0 mm/hr 0.00 in0.0 mm
04:48 PM 73.9°F23.3°C 66.7°F19.3°C 78% Calm Calm 1.6 mph2.6 kmh 30.29 in1025.7 mb 0.00 in0.0 mm 0.00 in/hr0.0 mm/hr 0.00 in0.0 mm
04:49 PM 73.9°F23.3°C 66.7°F19.3°C 78% 0.7 mph NE1.1 kmh NE 3.1 mph5.0 kmh 30.29 in1025.7 mb 0.00 in0.0 mm 0.00 in/hr0.0 mm/hr 0.00 in0.0 mm
04:50 PM 73.6°F23.1°C 66.3°F19.1°C 78% Calm Calm 3.1 mph5.0 kmh 30.29 in1025.7 mb 0.00 in0.0 mm 0.00 in/hr0.0 mm/hr 0.00 in0.0 mm
04:51 PM 73.8°F23.2°C 66.5°F19.2°C 78% Calm Calm 3.1 mph5.0 kmh 30.29 in1025.7 mb 0.00 in0.0 mm 0.00 in/hr0.0 mm/hr 0.00 in0.0 mm
04:52 PM 73.8°F23.2°C 67.2°F19.6°C 80% Calm Calm 3.1 mph5.0 kmh 30.29 in1025.7 mb 0.00 in0.0 mm 0.00 in/hr0.0 mm/hr 0.00 in0.0 mm
04:53 PM 73.8°F23.2°C 66.5°F19.2°C 78% 1.6 mph W2.6 kmh W 3.1 mph5.0 kmh 30.29 in1025.7 mb 0.00 in0.0 mm 0.00 in/hr0.0 mm/hr 0.00 in0.0 mm
04:54 PM 73.8°F23.2°C 66.5°F19.2°C 78% Calm Calm 3.1 mph5.0 kmh 30.29 in1025.7 mb 0.00 in0.0 mm 0.00 in/hr0.0 mm/hr 0.00 in0.0 mm
04:55 PM 73.8°F23.2°C 66.5°F19.2°C 78% Calm Calm 3.1 mph5.0 kmh 30.29 in1025.7 mb 0.00 in0.0 mm 0.00 in/hr0.0 mm/hr 0.00 in0.0 mm
04:56 PM 73.9°F23.3°C 67.4°F19.7°C 80% Calm Calm 3.1 mph5.0 kmh 30.29 in1025.7 mb 0.00 in0.0 mm 0.00 in/hr0.0 mm/hr 0.00 in0.0 mm
04:57 PM 74.1°F23.4°C 67.6°F19.8°C 80% Calm Calm 3.1 mph5.0 kmh 30.29 in1025.7 mb 0.00 in0.0 mm 0.00 in/hr0.0 mm/hr 0.00 in0.0 mm
04:58 PM 74.1°F23.4°C 67.6°F19.8°C 80% Calm Calm 3.1 mph5.0 kmh 30.29 in1025.7 mb 0.00 in0.0 mm 0.00 in/hr0.0 mm/hr 0.00 in0.0 mm
04:59 PM 74.1°F23.4°C 67.6°F19.8°C 80% Calm Calm 3.1 mph5.0 kmh 30.29 in1025.7 mb 0.00 in0.0 mm 0.00 in/hr0.0 mm/hr 0.00 in0.0 mm
05:00 PM 74.1°F23.4°C 67.6°F19.8°C 80% Calm Calm 3.1 mph5.0 kmh 30.29 in1025.7 mb 0.00 in0.0 mm 0.00 in/hr0.0 mm/hr 0.00 in0.0 mm
05:01 PM 74.1°F23.4°C 66.9°F19.4°C 78% Calm Calm 3.1 mph5.0 kmh 30.29 in1025.7 mb 0.00 in0.0 mm 0.00 in/hr0.0 mm/hr 0.00 in0.0 mm
05:02 PM 74.1°F23.4°C 67.6°F19.8°C 80% Calm Calm 3.1 mph5.0 kmh 30.29 in1025.7 mb 0.00 in0.0 mm 0.00 in/hr0.0 mm/hr 0.00 in0.0 mm
05:03 PM 73.9°F23.3°C 67.4°F19.7°C 80% Calm Calm 3.1 mph5.0 kmh 30.29 in1025.7 mb 0.00 in0.0 mm 0.00 in/hr0.0 mm/hr 0.00 in0.0 mm
05:04 PM 73.9°F23.3°C 67.4°F19.7°C 80% Calm Calm 1.6 mph2.6 kmh 30.29 in1025.7 mb 0.00 in0.0 mm 0.00 in/hr0.0 mm/hr 0.00 in0.0 mm
05:05 PM 73.8°F23.2°C 67.2°F19.6°C 80% Calm Calm 1.6 mph2.6 kmh 30.29 in1025.7 mb 0.00 in0.0 mm 0.00 in/hr0.0 mm/hr 0.00 in0.0 mm
05:06 PM 73.8°F23.2°C 67.2°F19.6°C 80% Calm Calm 1.6 mph2.6 kmh 30.29 in1025.7 mb 0.00 in0.0 mm 0.00 in/hr0.0 mm/hr 0.00 in0.0 mm
05:07 PM 73.8°F23.2°C 67.2°F19.6°C 80% Calm Calm 1.6 mph2.6 kmh 30.29 in1025.7 mb 0.00 in0.0 mm 0.00 in/hr0.0 mm/hr 0.00 in0.0 mm
05:08 PM 73.9°F23.3°C 67.4°F19.7°C 80% Calm Calm 1.6 mph2.6 kmh 30.29 in1025.7 mb 0.00 in0.0 mm 0.00 in/hr0.0 mm/hr 0.00 in0.0 mm
05:09 PM 74.1°F23.4°C 67.6°F19.8°C 80% Calm Calm 1.6 mph2.6 kmh 30.29 in1025.7 mb 0.00 in0.0 mm 0.00 in/hr0.0 mm/hr 0.00 in0.0 mm
05:10 PM 74.1°F23.4°C 67.6°F19.8°C 80% Calm Calm 1.6 mph2.6 kmh 30.29 in1025.7 mb 0.00 in0.0 mm 0.00 in/hr0.0 mm/hr 0.00 in0.0 mm
05:11 PM 74.1°F23.4°C 67.6°F19.8°C 80% Calm Calm 1.6 mph2.6 kmh 30.29 in1025.7 mb 0.00 in0.0 mm 0.00 in/hr0.0 mm/hr 0.00 in0.0 mm
05:12 PM 74.1°F23.4°C 67.6°F19.8°C 80% 0.7 mph NW1.1 kmh NW 1.6 mph2.6 kmh 30.29 in1025.7 mb 0.00 in0.0 mm 0.00 in/hr0.0 mm/hr 0.00 in0.0 mm
05:13 PM 73.8°F23.2°C 66.5°F19.2°C 78% Calm Calm 1.6 mph2.6 kmh 30.29 in1025.7 mb 0.00 in0.0 mm 0.00 in/hr0.0 mm/hr 0.00 in0.0 mm
05:14 PM 73.9°F23.3°C 66.7°F19.3°C 78% Calm Calm 1.6 mph2.6 kmh 30.29 in1025.7 mb 0.00 in0.0 mm 0.00 in/hr0.0 mm/hr 0.00 in0.0 mm
05:15 PM 73.9°F23.3°C 66.7°F19.3°C 78% Calm Calm 1.6 mph2.6 kmh 30.29 in1025.7 mb 0.00 in0.0 mm 0.00 in/hr0.0 mm/hr 0.00 in0.0 mm
05:16 PM 73.9°F23.3°C 66.7°F19.3°C 78% Calm Calm 1.6 mph2.6 kmh 30.29 in1025.7 mb 0.00 in0.0 mm 0.00 in/hr0.0 mm/hr 0.00 in0.0 mm
05:17 PM 74.1°F23.4°C 66.9°F19.4°C 78% Calm Calm 1.6 mph2.6 kmh 30.29 in1025.7 mb 0.00 in0.0 mm 0.00 in/hr0.0 mm/hr 0.00 in0.0 mm
05:18 PM 73.9°F23.3°C 66.7°F19.3°C 78% Calm Calm 1.6 mph2.6 kmh 30.29 in1025.7 mb 0.00 in0.0 mm 0.00 in/hr0.0 mm/hr 0.00 in0.0 mm
05:19 PM 73.9°F23.3°C 66.3°F19.1°C 77% Calm Calm 1.6 mph2.6 kmh 30.29 in1025.7 mb 0.00 in0.0 mm 0.00 in/hr0.0 mm/hr 0.00 in0.0 mm
05:20 PM 73.9°F23.3°C 66.3°F19.1°C 77% Calm Calm 1.6 mph2.6 kmh 30.29 in1025.7 mb 0.00 in0.0 mm 0.00 in/hr0.0 mm/hr 0.00 in0.0 mm
05:21 PM 73.8°F23.2°C 66.5°F19.2°C 78% Calm Calm 1.6 mph2.6 kmh 30.29 in1025.7 mb 0.00 in0.0 mm 0.00 in/hr0.0 mm/hr 0.00 in0.0 mm
05:22 PM 73.9°F23.3°C 66.7°F19.3°C 78% Calm Calm 0.7 mph1.1 kmh 30.29 in1025.7 mb 0.00 in0.0 mm 0.00 in/hr0.0 mm/hr 0.00 in0.0 mm
05:23 PM 73.8°F23.2°C 67.2°F19.6°C 80% Calm Calm -- 30.29 in1025.7 mb 0.00 in0.0 mm 0.00 in/hr0.0 mm/hr 0.00 in0.0 mm
05:24 PM 73.9°F23.3°C 67.4°F19.7°C 80% Calm Calm -- 30.29 in1025.7 mb 0.00 in0.0 mm 0.00 in/hr0.0 mm/hr 0.00 in0.0 mm
05:25 PM 73.8°F23.2°C 67.2°F19.6°C 80% Calm Calm -- 30.29 in1025.7 mb 0.00 in0.0 mm 0.00 in/hr0.0 mm/hr 0.00 in0.0 mm
05:26 PM 73.8°F23.2°C 67.2°F19.6°C 80% Calm Calm -- 30.29 in1025.7 mb 0.00 in0.0 mm 0.00 in/hr0.0 mm/hr 0.00 in0.0 mm
05:27 PM 73.8°F23.2°C 67.2°F19.6°C 80% Calm Calm -- 30.29 in1025.7 mb 0.00 in0.0 mm 0.00 in/hr0.0 mm/hr 0.00 in0.0 mm
05:28 PM 73.6°F23.1°C 67.1°F19.5°C 80% Calm Calm -- 30.29 in1025.7 mb 0.00 in0.0 mm 0.00 in/hr0.0 mm/hr 0.00 in0.0 mm
05:29 PM 73.4°F23.0°C 66.9°F19.4°C 80% Calm Calm -- 30.29 in1025.7 mb 0.00 in0.0 mm 0.00 in/hr0.0 mm/hr 0.00 in0.0 mm
05:30 PM 73.2°F22.9°C 66.7°F19.3°C 80% Calm Calm -- 30.28 in1025.4 mb 0.00 in0.0 mm 0.00 in/hr0.0 mm/hr 0.00 in0.0 mm
05:31 PM 73.2°F22.9°C 66.7°F19.3°C 80% Calm Calm -- 30.29 in1025.7 mb 0.00 in0.0 mm 0.00 in/hr0.0 mm/hr 0.00 in0.0 mm
05:32 PM 73.0°F22.8°C 66.5°F19.2°C 80% Calm Calm -- 30.28 in1025.4 mb 0.00 in0.0 mm 0.00 in/hr0.0 mm/hr 0.00 in0.0 mm
05:33 PM 73.0°F22.8°C 66.5°F19.2°C 80% Calm Calm -- 30.28 in1025.4 mb 0.00 in0.0 mm 0.00 in/hr0.0 mm/hr 0.00 in0.0 mm
05:34 PM 72.9°F22.7°C 66.4°F19.1°C 80% Calm Calm -- 30.28 in1025.4 mb 0.00 in0.0 mm 0.00 in/hr0.0 mm/hr 0.00 in0.0 mm
05:35 PM 73.0°F22.8°C 66.5°F19.2°C 80% 0.7 mph WSW1.1 kmh WSW 0.7 mph1.1 kmh 30.28 in1025.4 mb 0.00 in0.0 mm 0.00 in/hr0.0 mm/hr 0.00 in0.0 mm
05:36 PM 72.9°F22.7°C 66.4°F19.1°C 80% Calm Calm 0.7 mph1.1 kmh 30.28 in1025.4 mb 0.00 in0.0 mm 0.00 in/hr0.0 mm/hr 0.00 in0.0 mm
05:37 PM 72.9°F22.7°C 66.7°F19.3°C 81% Calm Calm 0.7 mph1.1 kmh 30.28 in1025.4 mb 0.00 in0.0 mm 0.00 in/hr0.0 mm/hr 0.00 in0.0 mm
05:38 PM 72.9°F22.7°C 66.7°F19.3°C 81% Calm Calm 0.7 mph1.1 kmh 30.28 in1025.4 mb 0.00 in0.0 mm 0.00 in/hr0.0 mm/hr 0.00 in0.0 mm
05:39 PM 72.7°F22.6°C 66.5°F19.2°C 81% Calm Calm 0.7 mph1.1 kmh 30.28 in1025.4 mb 0.00 in0.0 mm 0.00 in/hr0.0 mm/hr 0.00 in0.0 mm
05:40 PM 72.9°F22.7°C 66.7°F19.3°C 81% Calm Calm 0.7 mph1.1 kmh 30.28 in1025.4 mb 0.00 in0.0 mm 0.00 in/hr0.0 mm/hr 0.00 in0.0 mm
05:41 PM 72.9°F22.7°C 66.7°F19.3°C 81% Calm Calm 0.7 mph1.1 kmh 30.28 in1025.4 mb 0.00 in0.0 mm 0.00 in/hr0.0 mm/hr 0.00 in0.0 mm
05:42 PM 72.9°F22.7°C 66.7°F19.3°C 81% Calm Calm 0.7 mph1.1 kmh 30.28 in1025.4 mb 0.00 in0.0 mm 0.00 in/hr0.0 mm/hr 0.00 in0.0 mm
05:43 PM 72.9°F22.7°C 66.7°F19.3°C 81% Calm Calm 0.7 mph1.1 kmh 30.28 in1025.4 mb 0.00 in0.0 mm 0.00 in/hr0.0 mm/hr 0.00 in0.0 mm
05:44 PM 72.9°F22.7°C 67.1°F19.5°C 82% Calm Calm 0.7 mph1.1 kmh 30.28 in1025.4 mb 0.00 in0.0 mm 0.00 in/hr0.0 mm/hr 0.00 in0.0 mm
05:45 PM 72.7°F22.6°C 66.5°F19.2°C 81% Calm Calm 0.7 mph1.1 kmh 30.28 in1025.4 mb 0.00 in0.0 mm 0.00 in/hr0.0 mm/hr 0.00 in0.0 mm
05:46 PM 72.7°F22.6°C 66.5°F19.2°C 81% Calm Calm -- 30.28 in1025.4 mb 0.00 in0.0 mm 0.00 in/hr0.0 mm/hr 0.00 in0.0 mm
05:47 PM 72.5°F22.5°C 66.7°F19.3°C 82% Calm Calm -- 30.28 in1025.4 mb 0.00 in0.0 mm 0.00 in/hr0.0 mm/hr 0.00 in0.0 mm
05:48 PM 72.5°F22.5°C 66.4°F19.1°C 81% Calm Calm -- 30.28 in1025.4 mb 0.00 in0.0 mm 0.00 in/hr0.0 mm/hr 0.00 in0.0 mm
05:49 PM 72.5°F22.5°C 66.4°F19.1°C 81% Calm Calm -- 30.28 in1025.4 mb 0.00 in0.0 mm 0.00 in/hr0.0 mm/hr 0.00 in0.0 mm
05:50 PM 72.5°F22.5°C 66.4°F19.1°C 81% Calm Calm -- 30.28 in1025.4 mb 0.00 in0.0 mm 0.00 in/hr0.0 mm/hr 0.00 in0.0 mm
05:51 PM 72.5°F22.5°C 66.4°F19.1°C 81% Calm Calm -- 30.28 in1025.4 mb 0.00 in0.0 mm 0.00 in/hr0.0 mm/hr 0.00 in0.0 mm
05:52 PM 72.5°F22.5°C 66.4°F19.1°C 81% Calm Calm -- 30.28 in1025.4 mb 0.00 in0.0 mm 0.00 in/hr0.0 mm/hr 0.00 in0.0 mm
05:53 PM 72.3°F22.4°C 66.2°F19.0°C 81% Calm Calm -- 30.28 in1025.4 mb 0.00 in0.0 mm 0.00 in/hr0.0 mm/hr 0.00 in0.0 mm
05:54 PM 72.3°F22.4°C 66.2°F19.0°C 81% Calm Calm -- 30.27 in1025.1 mb 0.00 in0.0 mm 0.00 in/hr0.0 mm/hr 0.00 in0.0 mm
05:55 PM 72.5°F22.5°C 66.4°F19.1°C 81% Calm Calm -- 30.27 in1025.1 mb 0.00 in0.0 mm 0.00 in/hr0.0 mm/hr 0.00 in0.0 mm
05:56 PM 72.5°F22.5°C 66.7°F19.3°C 82% Calm Calm -- 30.28 in1025.4 mb 0.00 in0.0 mm 0.00 in/hr0.0 mm/hr 0.00 in0.0 mm
05:57 PM 72.5°F22.5°C 66.7°F19.3°C 82% Calm Calm -- 30.27 in1025.1 mb 0.00 in0.0 mm 0.00 in/hr0.0 mm/hr 0.00 in0.0 mm
05:58 PM 72.5°F22.5°C 66.7°F19.3°C 82% Calm Calm -- 30.28 in1025.4 mb 0.00 in0.0 mm 0.00 in/hr0.0 mm/hr 0.00 in0.0 mm
05:59 PM 72.5°F22.5°C 67.1°F19.5°C 83% Calm Calm -- 30.27 in1025.1 mb 0.00 in0.0 mm 0.00 in/hr0.0 mm/hr 0.00 in0.0 mm
06:00 PM 72.5°F22.5°C 67.1°F19.5°C 83% Calm Calm -- 30.28 in1025.4 mb 0.00 in0.0 mm 0.00 in/hr0.0 mm/hr 0.00 in0.0 mm
06:01 PM 72.5°F22.5°C 67.1°F19.5°C 83% Calm Calm -- 30.28 in1025.4 mb 0.00 in0.0 mm 0.00 in/hr0.0 mm/hr 0.00 in0.0 mm
06:02 PM 72.3°F22.4°C 66.9°F19.4°C 83% Calm Calm -- 30.28 in1025.4 mb 0.00 in0.0 mm 0.00 in/hr0.0 mm/hr 0.00 in0.0 mm
06:03 PM 72.3°F22.4°C 66.9°F19.4°C 83% Calm Calm -- 30.28 in1025.4 mb 0.00 in0.0 mm 0.00 in/hr0.0 mm/hr 0.00 in0.0 mm
06:04 PM 72.1°F22.3°C 66.7°F19.3°C 83% Calm Calm -- 30.28 in1025.4 mb 0.00 in0.0 mm 0.00 in/hr0.0 mm/hr 0.00 in0.0 mm
06:05 PM 72.0°F22.2°C 66.6°F19.2°C 83% Calm Calm -- 30.28 in1025.4 mb 0.00 in0.0 mm 0.00 in/hr0.0 mm/hr 0.00 in0.0 mm
06:06 PM 72.0°F22.2°C 66.6°F19.2°C 83% Calm Calm -- 30.28 in1025.4 mb 0.00 in0.0 mm 0.00 in/hr0.0 mm/hr 0.00 in0.0 mm
06:07 PM 72.0°F22.2°C 66.6°F19.2°C 83% Calm Calm -- 30.28 in1025.4 mb 0.00 in0.0 mm 0.00 in/hr0.0 mm/hr 0.00 in0.0 mm
06:08 PM 72.0°F22.2°C 66.6°F19.2°C 83% Calm Calm -- 30.28 in1025.4 mb 0.00 in0.0 mm 0.00 in/hr0.0 mm/hr 0.00 in0.0 mm
06:09 PM 72.0°F22.2°C 67.2°F19.6°C 85% Calm Calm -- 30.28 in1025.4 mb 0.00 in0.0 mm 0.00 in/hr0.0 mm/hr 0.00 in0.0 mm
06:10 PM 72.0°F22.2°C 67.2°F19.6°C 85% Calm Calm -- 30.28 in1025.4 mb 0.00 in0.0 mm 0.00 in/hr0.0 mm/hr 0.00 in0.0 mm
06:11 PM 72.0°F22.2°C 67.2°F19.6°C 85% Calm Calm -- 30.28 in1025.4 mb 0.00 in0.0 mm 0.00 in/hr0.0 mm/hr 0.00 in0.0 mm
06:12 PM 72.0°F22.2°C 67.2°F19.6°C 85% Calm Calm -- 30.28 in1025.4 mb 0.00 in0.0 mm 0.00 in/hr0.0 mm/hr 0.00 in0.0 mm
06:13 PM 71.6°F22.0°C 66.9°F19.4°C 85% Calm Calm -- 30.28 in1025.4 mb 0.00 in0.0 mm 0.00 in/hr0.0 mm/hr 0.00 in0.0 mm
06:14 PM 71.6°F22.0°C 66.9°F19.4°C 85% Calm Calm -- 30.28 in1025.4 mb 0.00 in0.0 mm 0.00 in/hr0.0 mm/hr 0.00 in0.0 mm
06:15 PM 71.6°F22.0°C 66.9°F19.4°C 85% Calm Calm -- 30.29 in1025.7 mb 0.00 in0.0 mm 0.00 in/hr0.0 mm/hr 0.00 in0.0 mm
06:16 PM 71.6°F22.0°C 66.9°F19.4°C 85% Calm Calm 0.7 mph1.1 kmh 30.29 in1025.7 mb 0.00 in0.0 mm 0.00 in/hr0.0 mm/hr 0.00 in0.0 mm
06:17 PM 71.4°F21.9°C 67.0°F19.4°C 86% Calm Calm 0.7 mph1.1 kmh 30.28 in1025.4 mb 0.00 in0.0 mm 0.00 in/hr0.0 mm/hr 0.00 in0.0 mm
06:18 PM 71.4°F21.9°C 67.0°F19.4°C 86% Calm Calm 0.7 mph1.1 kmh 30.29 in1025.7 mb 0.00 in0.0 mm 0.00 in/hr0.0 mm/hr 0.00 in0.0 mm
06:19 PM 71.2°F21.8°C 66.9°F19.4°C 86% Calm Calm 0.7 mph1.1 kmh 30.29 in1025.7 mb 0.00 in0.0 mm 0.00 in/hr0.0 mm/hr 0.00 in0.0 mm
06:20 PM 71.2°F21.8°C 66.9°F19.4°C 86% Calm Calm 0.7 mph1.1 kmh 30.29 in1025.7 mb 0.00 in0.0 mm 0.00 in/hr0.0 mm/hr 0.00 in0.0 mm
06:21 PM 71.2°F21.8°C 66.9°F19.4°C 86% Calm Calm 0.7 mph1.1 kmh 30.29 in1025.7 mb 0.00 in0.0 mm 0.00 in/hr0.0 mm/hr 0.00 in0.0 mm
06:22 PM 71.2°F21.8°C 66.9°F19.4°C 86% Calm Calm 0.7 mph1.1 kmh 30.29 in1025.7 mb 0.00 in0.0 mm 0.00 in/hr0.0 mm/hr 0.00 in0.0 mm
06:23 PM 71.2°F21.8°C 66.9°F19.4°C 86% Calm Calm 0.7 mph1.1 kmh 30.29 in1025.7 mb 0.00 in0.0 mm 0.00 in/hr0.0 mm/hr 0.00 in0.0 mm
06:24 PM 71.2°F21.8°C 66.9°F19.4°C 86% Calm Calm 0.7 mph1.1 kmh 30.29 in1025.7 mb 0.00 in0.0 mm 0.00 in/hr0.0 mm/hr 0.00 in0.0 mm
06:25 PM 71.2°F21.8°C 66.9°F19.4°C 86% Calm Calm 0.7 mph1.1 kmh 30.29 in1025.7 mb 0.00 in0.0 mm 0.00 in/hr0.0 mm/hr 0.00 in0.0 mm
06:26 PM 71.2°F21.8°C 66.9°F19.4°C 86% Calm Calm -- 30.29 in1025.7 mb 0.00 in0.0 mm 0.00 in/hr0.0 mm/hr 0.00 in0.0 mm
06:27 PM 71.2°F21.8°C 66.9°F19.4°C 86% Calm Calm -- 30.29 in1025.7 mb 0.00 in0.0 mm 0.00 in/hr0.0 mm/hr 0.00 in0.0 mm
06:28 PM 71.2°F21.8°C 67.2°F19.6°C 87% Calm Calm -- 30.29 in1025.7 mb 0.00 in0.0 mm 0.00 in/hr0.0 mm/hr 0.00 in0.0 mm
06:29 PM 71.1°F21.7°C 67.0°F19.4°C 87% Calm Calm -- 30.29 in1025.7 mb 0.00 in0.0 mm 0.00 in/hr0.0 mm/hr 0.00 in0.0 mm
06:30 PM 71.1°F21.7°C 67.0°F19.4°C 87% Calm Calm -- 30.29 in1025.7 mb 0.00 in0.0 mm 0.00 in/hr0.0 mm/hr 0.00 in0.0 mm
06:31 PM 71.1°F21.7°C 67.0°F19.4°C 87% Calm Calm -- 30.29 in1025.7 mb 0.00 in0.0 mm 0.00 in/hr0.0 mm/hr 0.00 in0.0 mm
06:32 PM 70.9°F21.6°C 66.9°F19.4°C 87% Calm Calm -- 30.29 in1025.7 mb 0.00 in0.0 mm 0.00 in/hr0.0 mm/hr 0.00 in0.0 mm
06:33 PM 70.7°F21.5°C 67.0°F19.4°C 88% Calm Calm -- 30.29 in1025.7 mb 0.00 in0.0 mm 0.00 in/hr0.0 mm/hr 0.00 in0.0 mm
06:34 PM 70.5°F21.4°C 67.5°F19.7°C 90% Calm Calm -- 30.29 in1025.7 mb 0.00 in0.0 mm 0.00 in/hr0.0 mm/hr 0.00 in0.0 mm
06:35 PM 70.5°F21.4°C 67.5°F19.7°C 90% Calm Calm -- 30.29 in1025.7 mb 0.00 in0.0 mm 0.00 in/hr0.0 mm/hr 0.00 in0.0 mm
06:36 PM 70.3°F21.3°C 67.6°F19.8°C 91% Calm Calm -- 30.29 in1025.7 mb 0.00 in0.0 mm 0.00 in/hr0.0 mm/hr 0.00 in0.0 mm
06:37 PM 70.2°F21.2°C 67.8°F19.9°C 92% Calm Calm -- 30.29 in1025.7 mb 0.00 in0.0 mm 0.00 in/hr0.0 mm/hr 0.00 in0.0 mm
06:38 PM 70.0°F21.1°C 67.6°F19.8°C 92% Calm Calm -- 30.29 in1025.7 mb 0.00 in0.0 mm 0.00 in/hr0.0 mm/hr 0.00 in0.0 mm
06:39 PM 70.0°F21.1°C 67.6°F19.8°C 92% Calm Calm -- 30.29 in1025.7 mb 0.00 in0.0 mm 0.00 in/hr0.0 mm/hr 0.00 in0.0 mm
06:40 PM 70.0°F21.1°C 67.6°F19.8°C 92% Calm Calm -- 30.29 in1025.7 mb 0.00 in0.0 mm 0.00 in/hr0.0 mm/hr 0.00 in0.0 mm
06:41 PM 69.8°F21.0°C 67.7°F19.8°C 93% Calm Calm -- 30.29 in1025.7 mb 0.00 in0.0 mm 0.00 in/hr0.0 mm/hr 0.00 in0.0 mm
06:42 PM 69.8°F21.0°C 67.7°F19.8°C 93% Calm Calm -- 30.29 in1025.7 mb 0.00 in0.0 mm 0.00 in/hr0.0 mm/hr 0.00 in0.0 mm
06:43 PM 69.6°F20.9°C 68.2°F20.1°C 95% Calm Calm -- 30.29 in1025.7 mb 0.00 in0.0 mm 0.00 in/hr0.0 mm/hr 0.00 in0.0 mm
06:44 PM 69.6°F20.9°C 68.2°F20.1°C 95% Calm Calm -- 30.29 in1025.7 mb 0.00 in0.0 mm 0.00 in/hr0.0 mm/hr 0.00 in0.0 mm
06:45 PM 69.6°F20.9°C 68.2°F20.1°C 95% Calm Calm -- 30.29 in1025.7 mb 0.00 in0.0 mm 0.00 in/hr0.0 mm/hr 0.00 in0.0 mm
06:46 PM 69.6°F20.9°C 68.2°F20.1°C 95% Calm Calm -- 30.29 in1025.7 mb 0.00 in0.0 mm 0.00 in/hr0.0 mm/hr 0.00 in0.0 mm
06:47 PM 69.6°F20.9°C 68.2°F20.1°C 95% Calm Calm -- 30.29 in1025.7 mb 0.00 in0.0 mm 0.00 in/hr0.0 mm/hr 0.00 in0.0 mm
06:48 PM 69.6°F20.9°C 68.2°F20.1°C 95% Calm Calm -- 30.29 in1025.7 mb 0.00 in0.0 mm 0.00 in/hr0.0 mm/hr 0.00 in0.0 mm
06:49 PM 69.4°F20.8°C 68.0°F20.0°C 95% Calm Calm -- 30.29 in1025.7 mb 0.00 in0.0 mm 0.00 in/hr0.0 mm/hr 0.00 in0.0 mm
06:50 PM 69.4°F20.8°C 68.3°F20.2°C 96% Calm Calm -- 30.29 in1025.7 mb 0.00 in0.0 mm 0.00 in/hr0.0 mm/hr 0.00 in0.0 mm
06:51 PM 69.4°F20.8°C 68.3°F20.2°C 96% Calm Calm -- 30.28 in1025.4 mb 0.00 in0.0 mm 0.00 in/hr0.0 mm/hr 0.00 in0.0 mm
06:52 PM 69.4°F20.8°C 68.3°F20.2°C 96% Calm Calm -- 30.29 in1025.7 mb 0.00 in0.0 mm 0.00 in/hr0.0 mm/hr 0.00 in0.0 mm
06:53 PM 69.4°F20.8°C 68.3°F20.2°C 96% Calm Calm -- 30.29 in1025.7 mb 0.00 in0.0 mm 0.00 in/hr0.0 mm/hr 0.00 in0.0 mm
06:54 PM 69.4°F20.8°C 68.3°F20.2°C 96% Calm Calm -- 30.29 in1025.7 mb 0.00 in0.0 mm 0.00 in/hr0.0 mm/hr 0.00 in0.0 mm
06:55 PM 69.3°F20.7°C 68.1°F20.1°C 96% Calm Calm -- 30.29 in1025.7 mb 0.00 in0.0 mm 0.00 in/hr0.0 mm/hr 0.00 in0.0 mm
06:56 PM 69.4°F20.8°C 68.3°F20.2°C 96% Calm Calm -- 30.29 in1025.7 mb 0.00 in0.0 mm 0.00 in/hr0.0 mm/hr 0.00 in0.0 mm
06:57 PM 69.3°F20.7°C 68.1°F20.1°C 96% Calm Calm -- 30.29 in1025.7 mb 0.00 in0.0 mm 0.00 in/hr0.0 mm/hr 0.00 in0.0 mm
06:58 PM 69.3°F20.7°C 68.1°F20.1°C 96% Calm Calm -- 30.29 in1025.7 mb 0.00 in0.0 mm 0.00 in/hr0.0 mm/hr 0.00 in0.0 mm
06:59 PM 69.3°F20.7°C 68.4°F20.2°C 97% Calm Calm -- 30.29 in1025.7 mb 0.00 in0.0 mm 0.00 in/hr0.0 mm/hr 0.00 in0.0 mm
07:00 PM 69.3°F20.7°C 68.4°F20.2°C 97% Calm Calm -- 30.29 in1025.7 mb 0.00 in0.0 mm 0.00 in/hr0.0 mm/hr 0.00 in0.0 mm
07:01 PM 69.1°F20.6°C 68.2°F20.1°C 97% Calm Calm -- 30.29 in1025.7 mb 0.00 in0.0 mm 0.00 in/hr0.0 mm/hr 0.00 in0.0 mm
07:02 PM 69.1°F20.6°C 68.2°F20.1°C 97% Calm Calm -- 30.29 in1025.7 mb 0.00 in0.0 mm 0.00 in/hr0.0 mm/hr 0.00 in0.0 mm
07:03 PM 69.1°F20.6°C 68.2°F20.1°C 97% Calm Calm -- 30.29 in1025.7 mb 0.00 in0.0 mm 0.00 in/hr0.0 mm/hr 0.00 in0.0 mm
07:04 PM 69.1°F20.6°C 68.5°F20.3°C 98% Calm Calm -- 30.29 in1025.7 mb 0.00 in0.0 mm 0.00 in/hr0.0 mm/hr 0.00 in0.0 mm
07:05 PM 68.9°F20.5°C 68.3°F20.2°C 98% Calm Calm -- 30.29 in1025.7 mb 0.00 in0.0 mm 0.00 in/hr0.0 mm/hr 0.00 in0.0 mm
07:06 PM 69.1°F20.6°C 68.5°F20.3°C 98% Calm Calm -- 30.29 in1025.7 mb 0.00 in0.0 mm 0.00 in/hr0.0 mm/hr 0.00 in0.0 mm
07:07 PM 69.1°F20.6°C 68.5°F20.3°C 98% Calm Calm -- 30.29 in1025.7 mb 0.00 in0.0 mm 0.00 in/hr0.0 mm/hr 0.00 in0.0 mm
07:08 PM 68.9°F20.5°C 68.9°F20.5°C 100% Calm Calm -- 30.29 in1025.7 mb 0.00 in0.0 mm 0.00 in/hr0.0 mm/hr 0.00 in0.0 mm
07:09 PM 68.9°F20.5°C 68.9°F20.5°C 100% Calm Calm -- 30.29 in1025.7 mb 0.00 in0.0 mm 0.00 in/hr0.0 mm/hr 0.00 in0.0 mm
07:10 PM 68.9°F20.5°C 68.9°F20.5°C 100% Calm Calm -- 30.29 in1025.7 mb 0.00 in0.0 mm 0.00 in/hr0.0 mm/hr 0.00 in0.0 mm
07:11 PM 68.9°F20.5°C 68.9°F20.5°C 100% Calm Calm -- 30.29 in1025.7 mb 0.00 in0.0 mm 0.00 in/hr0.0 mm/hr 0.00 in0.0 mm
07:12 PM 68.7°F20.4°C 68.8°F20.4°C 100% Calm Calm -- 30.29 in1025.7 mb 0.00 in0.0 mm 0.00 in/hr0.0 mm/hr 0.00 in0.0 mm
07:13 PM 68.7°F20.4°C 68.8°F20.4°C 100% Calm Calm -- 30.29 in1025.7 mb 0.00 in0.0 mm 0.00 in/hr0.0 mm/hr 0.00 in0.0 mm
07:14 PM 68.7°F20.4°C 68.8°F20.4°C 100% Calm Calm -- 30.29 in1025.7 mb 0.00 in0.0 mm 0.00 in/hr0.0 mm/hr 0.00 in0.0 mm
07:15 PM 68.7°F20.4°C 68.8°F20.4°C 100% Calm Calm 0.7 mph1.1 kmh 30.29 in1025.7 mb 0.00 in0.0 mm 0.00 in/hr0.0 mm/hr 0.00 in0.0 mm
07:16 PM 68.7°F20.4°C 68.8°F20.4°C 100% Calm Calm 0.7 mph1.1 kmh 30.29 in1025.7 mb 0.00 in0.0 mm 0.00 in/hr0.0 mm/hr 0.00 in0.0 mm
07:17 PM 68.7°F20.4°C 68.8°F20.4°C 100% Calm Calm 0.7 mph1.1 kmh 30.29 in1025.7 mb 0.00 in0.0 mm 0.00 in/hr0.0 mm/hr 0.00 in0.0 mm
07:18 PM 68.7°F20.4°C 68.8°F20.4°C 100% Calm Calm 0.7 mph1.1 kmh 30.29 in1025.7 mb 0.00 in0.0 mm 0.00 in/hr0.0 mm/hr 0.00 in0.0 mm
07:19 PM 68.7°F20.4°C 68.8°F20.4°C 100% Calm Calm 0.7 mph1.1 kmh 30.29 in1025.7 mb 0.00 in0.0 mm 0.00 in/hr0.0 mm/hr 0.00 in0.0 mm
07:20 PM 68.5°F20.3°C 68.6°F20.3°C 100% Calm Calm 0.7 mph1.1 kmh 30.29 in1025.7 mb 0.00 in0.0 mm 0.00 in/hr0.0 mm/hr 0.00 in0.0 mm
07:21 PM 68.5°F20.3°C 68.6°F20.3°C 100% Calm Calm 0.7 mph1.1 kmh 30.29 in1025.7 mb 0.00 in0.0 mm 0.00 in/hr0.0 mm/hr 0.00 in0.0 mm
07:22 PM 68.5°F20.3°C 68.6°F20.3°C 100% Calm Calm 0.7 mph1.1 kmh 30.29 in1025.7 mb 0.00 in0.0 mm 0.00 in/hr0.0 mm/hr 0.00 in0.0 mm
07:23 PM 68.5°F20.3°C 68.6°F20.3°C 100% Calm Calm 0.7 mph1.1 kmh 30.29 in1025.7 mb 0.00 in0.0 mm 0.00 in/hr0.0 mm/hr 0.00 in0.0 mm
07:24 PM 68.5°F20.3°C 68.6°F20.3°C 100% Calm Calm 0.7 mph1.1 kmh 30.29 in1025.7 mb 0.00 in0.0 mm 0.00 in/hr0.0 mm/hr 0.00 in0.0 mm
07:25 PM 68.5°F20.3°C 68.6°F20.3°C 100% Calm Calm -- 30.29 in1025.7 mb 0.00 in0.0 mm 0.00 in/hr0.0 mm/hr 0.00 in0.0 mm
07:26 PM 68.5°F20.3°C 68.6°F20.3°C 100% Calm Calm -- 30.29 in1025.7 mb 0.00 in0.0 mm 0.00 in/hr0.0 mm/hr 0.00 in0.0 mm
07:27 PM 68.4°F20.2°C 68.4°F20.2°C 100% 0.7 mph ENE1.1 kmh ENE 2.2 mph3.5 kmh 30.29 in1025.7 mb 0.00 in0.0 mm 0.00 in/hr0.0 mm/hr 0.00 in0.0 mm
07:28 PM 68.5°F20.3°C 68.6°F20.3°C 100% Calm Calm 2.2 mph3.5 kmh 30.29 in1025.7 mb 0.00 in0.0 mm 0.00 in/hr0.0 mm/hr 0.00 in0.0 mm
07:29 PM 68.5°F20.3°C 68.6°F20.3°C 100% Calm Calm 2.2 mph3.5 kmh 30.29 in1025.7 mb 0.00 in0.0 mm 0.00 in/hr0.0 mm/hr 0.00 in0.0 mm
07:30 PM 68.5°F20.3°C 68.6°F20.3°C 100% 1.6 mph SW2.6 kmh SW 3.1 mph5.0 kmh 30.29 in1025.7 mb 0.00 in0.0 mm 0.00 in/hr0.0 mm/hr 0.00 in0.0 mm
07:31 PM 68.5°F20.3°C 68.6°F20.3°C 100% Calm Calm 3.1 mph5.0 kmh 30.29 in1025.7 mb 0.00 in0.0 mm 0.00 in/hr0.0 mm/hr 0.00 in0.0 mm
07:32 PM 68.5°F20.3°C 68.6°F20.3°C 100% Calm Calm 3.1 mph5.0 kmh 30.29 in1025.7 mb 0.00 in0.0 mm 0.00 in/hr0.0 mm/hr 0.00 in0.0 mm
07:33 PM 68.5°F20.3°C 68.6°F20.3°C 100% Calm Calm 3.8 mph6.1 kmh 30.29 in1025.7 mb 0.00 in0.0 mm 0.00 in/hr0.0 mm/hr 0.00 in0.0 mm
07:34 PM 68.5°F20.3°C 68.6°F20.3°C 100% 0.7 mph WSW1.1 kmh WSW 3.8 mph6.1 kmh 30.29 in1025.7 mb 0.00 in0.0 mm 0.00 in/hr0.0 mm/hr 0.00 in0.0 mm
07:35 PM 68.5°F20.3°C 68.6°F20.3°C 100% Calm Calm 3.8 mph6.1 kmh 30.29 in1025.7 mb 0.00 in0.0 mm 0.00 in/hr0.0 mm/hr 0.00 in0.0 mm
07:36 PM 68.5°F20.3°C 68.6°F20.3°C 100% 1.6 mph SSW2.6 kmh SSW 3.8 mph6.1 kmh 30.29 in1025.7 mb 0.00 in0.0 mm 0.00 in/hr0.0 mm/hr 0.00 in0.0 mm
07:37 PM 68.5°F20.3°C 68.6°F20.3°C 100% Calm Calm 3.8 mph6.1 kmh 30.29 in1025.7 mb 0.00 in0.0 mm 0.00 in/hr0.0 mm/hr 0.00 in0.0 mm
07:38 PM 68.5°F20.3°C 68.6°F20.3°C 100% 2.2 mph S3.5 kmh S 6.9 mph11.1 kmh 30.29 in1025.7 mb 0.00 in0.0 mm 0.00 in/hr0.0 mm/hr 0.00 in0.0 mm
07:39 PM 68.5°F20.3°C 68.6°F20.3°C 100% 1.6 mph S2.6 kmh S 6.9 mph11.1 kmh 30.29 in1025.7 mb 0.00 in0.0 mm 0.00 in/hr0.0 mm/hr 0.00 in0.0 mm
07:40 PM 68.5°F20.3°C 68.6°F20.3°C 100% Calm Calm 6.9 mph11.1 kmh 30.29 in1025.7 mb 0.00 in0.0 mm 0.00 in/hr0.0 mm/hr 0.00 in0.0 mm
07:41 PM 68.4°F20.2°C 68.4°F20.2°C 100% 1.6 mph S2.6 kmh S 6.9 mph11.1 kmh 30.29 in1025.7 mb 0.00 in0.0 mm 0.00 in/hr0.0 mm/hr 0.00 in0.0 mm
07:42 PM 68.5°F20.3°C 68.6°F20.3°C 100% Calm Calm 6.9 mph11.1 kmh 30.29 in1025.7 mb 0.00 in0.0 mm 0.00 in/hr0.0 mm/hr 0.00 in0.0 mm
07:43 PM 68.5°F20.3°C 68.6°F20.3°C 100% Calm Calm 6.9 mph<